<?xml version="1.0" encoding="UTF-8" standalone="no" ?>
<gpx xmlns="http://www.topografix.com/GPX/1/1" xmlns:xsi="http://www.w3.org/2001/XMLSchema-instance" xsi:schemaLocation="http://www.topografix.com/GPX/1/1 http://www.topografix.com/GPX/1/1/gpx.xsd" version="1.1" creator="VisuGPX - https://www.visugpx.com">
  <metadata>
    <name>séjour en étoile au val stura 8-13 mai 2018 CAF SLV</name>
    <desc><![CDATA[Depuis le refuge du Dahu à San  Bernolfo 

trace 1 : [b]col de la Gercha[/b] (2458m) mercredi 9 mai 2018
trace 2 :[b] cime de Colle Longue[/b] ( 2760m) jeudi 10 mai 2018
trace3 : [b]autour des lacs du Lausfer[/b]  ( ~2800 m)vendredi 11 mai 2018
trace4 : [b]pas de Colle Longue et cime ouest de la tête de l'Autaret [/b](2754m) samedi 12 mai 2018
]]></desc>
  </metadata>
  <trk>
    <name><![CDATA[20180514195401-MUPu9]]></name>
    <trkseg>
      <trkpt lat="44.26076" lon="7.04429">
        <ele>1662.57</ele>
        <time>2018-05-10T05:21:12Z</time>
      </trkpt>
      <trkpt lat="44.26076" lon="7.04429">
        <ele>1662.55</ele>
        <time>2018-05-10T05:21:13Z</time>
      </trkpt>
      <trkpt lat="44.26075" lon="7.04425">
        <ele>1663.11</ele>
        <time>2018-05-10T05:21:40Z</time>
      </trkpt>
      <trkpt lat="44.26073" lon="7.04427">
        <ele>1662.76</ele>
        <time>2018-05-10T05:22:02Z</time>
      </trkpt>
      <trkpt lat="44.26072" lon="7.04426">
        <ele>1662.32</ele>
        <time>2018-05-10T05:22:26Z</time>
      </trkpt>
      <trkpt lat="44.26074" lon="7.04422">
        <ele>1662.26</ele>
        <time>2018-05-10T05:22:58Z</time>
      </trkpt>
      <trkpt lat="44.26061" lon="7.04425">
        <ele>1662.24</ele>
        <time>2018-05-10T05:23:28Z</time>
      </trkpt>
      <trkpt lat="44.2606" lon="7.04423">
        <ele>1662.48</ele>
        <time>2018-05-10T05:23:51Z</time>
      </trkpt>
      <trkpt lat="44.26061" lon="7.04399">
        <ele>1662.13</ele>
        <time>2018-05-10T05:24:14Z</time>
      </trkpt>
      <trkpt lat="44.26041" lon="7.04379">
        <ele>1660.56</ele>
        <time>2018-05-10T05:24:40Z</time>
      </trkpt>
      <trkpt lat="44.26022" lon="7.04364">
        <ele>1660.36</ele>
        <time>2018-05-10T05:24:58Z</time>
      </trkpt>
      <trkpt lat="44.26007" lon="7.04351">
        <ele>1659.67</ele>
        <time>2018-05-10T05:25:14Z</time>
      </trkpt>
      <trkpt lat="44.25995" lon="7.04335">
        <ele>1659.32</ele>
        <time>2018-05-10T05:25:28Z</time>
      </trkpt>
      <trkpt lat="44.25984" lon="7.04321">
        <ele>1658.57</ele>
        <time>2018-05-10T05:25:42Z</time>
      </trkpt>
      <trkpt lat="44.25981" lon="7.04316">
        <ele>1658.56</ele>
        <time>2018-05-10T05:25:46Z</time>
      </trkpt>
      <trkpt lat="44.25975" lon="7.04313">
        <ele>1658.44</ele>
        <time>2018-05-10T05:25:51Z</time>
      </trkpt>
      <trkpt lat="44.25962" lon="7.043">
        <ele>1657.91</ele>
        <time>2018-05-10T05:26:05Z</time>
      </trkpt>
      <trkpt lat="44.25946" lon="7.04287">
        <ele>1657.36</ele>
        <time>2018-05-10T05:26:22Z</time>
      </trkpt>
      <trkpt lat="44.25931" lon="7.04273">
        <ele>1656.93</ele>
        <time>2018-05-10T05:26:36Z</time>
      </trkpt>
      <trkpt lat="44.25914" lon="7.04255">
        <ele>1656.42</ele>
        <time>2018-05-10T05:26:53Z</time>
      </trkpt>
      <trkpt lat="44.2591" lon="7.04251">
        <ele>1656.31</ele>
        <time>2018-05-10T05:26:57Z</time>
      </trkpt>
      <trkpt lat="44.25906" lon="7.04246">
        <ele>1656.08</ele>
        <time>2018-05-10T05:27:02Z</time>
      </trkpt>
      <trkpt lat="44.259" lon="7.0424">
        <ele>1655.68</ele>
        <time>2018-05-10T05:27:09Z</time>
      </trkpt>
      <trkpt lat="44.25889" lon="7.04229">
        <ele>1654.73</ele>
        <time>2018-05-10T05:27:22Z</time>
      </trkpt>
      <trkpt lat="44.25882" lon="7.0422">
        <ele>1654.18</ele>
        <time>2018-05-10T05:27:30Z</time>
      </trkpt>
      <trkpt lat="44.25879" lon="7.04217">
        <ele>1654.02</ele>
        <time>2018-05-10T05:27:34Z</time>
      </trkpt>
      <trkpt lat="44.25865" lon="7.0422">
        <ele>1653.89</ele>
        <time>2018-05-10T05:27:48Z</time>
      </trkpt>
      <trkpt lat="44.25852" lon="7.04218">
        <ele>1653.68</ele>
        <time>2018-05-10T05:28:01Z</time>
      </trkpt>
      <trkpt lat="44.25845" lon="7.04209">
        <ele>1655.05</ele>
        <time>2018-05-10T05:28:15Z</time>
      </trkpt>
      <trkpt lat="44.25837" lon="7.04194">
        <ele>1656.44</ele>
        <time>2018-05-10T05:28:29Z</time>
      </trkpt>
      <trkpt lat="44.25835" lon="7.04182">
        <ele>1656.79</ele>
        <time>2018-05-10T05:28:46Z</time>
      </trkpt>
      <trkpt lat="44.25831" lon="7.04171">
        <ele>1657.45</ele>
        <time>2018-05-10T05:29:03Z</time>
      </trkpt>
      <trkpt lat="44.25833" lon="7.0417">
        <ele>1657.43</ele>
        <time>2018-05-10T05:29:23Z</time>
      </trkpt>
      <trkpt lat="44.25833" lon="7.04171">
        <ele>1657.69</ele>
        <time>2018-05-10T05:29:49Z</time>
      </trkpt>
      <trkpt lat="44.25831" lon="7.04173">
        <ele>1657.99</ele>
        <time>2018-05-10T05:30:08Z</time>
      </trkpt>
      <trkpt lat="44.25833" lon="7.04172">
        <ele>1657.71</ele>
        <time>2018-05-10T05:30:36Z</time>
      </trkpt>
      <trkpt lat="44.25834" lon="7.04168">
        <ele>1657.67</ele>
        <time>2018-05-10T05:30:57Z</time>
      </trkpt>
      <trkpt lat="44.25832" lon="7.04162">
        <ele>1657.06</ele>
        <time>2018-05-10T05:31:20Z</time>
      </trkpt>
      <trkpt lat="44.25829" lon="7.04164">
        <ele>1657.59</ele>
        <time>2018-05-10T05:31:45Z</time>
      </trkpt>
      <trkpt lat="44.25835" lon="7.04156">
        <ele>1655.09</ele>
        <time>2018-05-10T05:32:08Z</time>
      </trkpt>
      <trkpt lat="44.25834" lon="7.04147">
        <ele>1655.53</ele>
        <time>2018-05-10T05:32:26Z</time>
      </trkpt>
      <trkpt lat="44.25826" lon="7.0413">
        <ele>1657.77</ele>
        <time>2018-05-10T05:32:47Z</time>
      </trkpt>
      <trkpt lat="44.25819" lon="7.04123">
        <ele>1658.98</ele>
        <time>2018-05-10T05:33:09Z</time>
      </trkpt>
      <trkpt lat="44.25814" lon="7.04104">
        <ele>1660.56</ele>
        <time>2018-05-10T05:33:32Z</time>
      </trkpt>
      <trkpt lat="44.25811" lon="7.0409">
        <ele>1663.07</ele>
        <time>2018-05-10T05:33:52Z</time>
      </trkpt>
      <trkpt lat="44.2581" lon="7.04071">
        <ele>1665.02</ele>
        <time>2018-05-10T05:34:11Z</time>
      </trkpt>
      <trkpt lat="44.25809" lon="7.04053">
        <ele>1667.39</ele>
        <time>2018-05-10T05:34:35Z</time>
      </trkpt>
      <trkpt lat="44.25804" lon="7.0404">
        <ele>1669.4</ele>
        <time>2018-05-10T05:34:56Z</time>
      </trkpt>
      <trkpt lat="44.25798" lon="7.04022">
        <ele>1672.08</ele>
        <time>2018-05-10T05:35:20Z</time>
      </trkpt>
      <trkpt lat="44.25792" lon="7.04002">
        <ele>1674.51</ele>
        <time>2018-05-10T05:35:43Z</time>
      </trkpt>
      <trkpt lat="44.25786" lon="7.03986">
        <ele>1676.45</ele>
        <time>2018-05-10T05:36:02Z</time>
      </trkpt>
      <trkpt lat="44.25784" lon="7.03972">
        <ele>1678.11</ele>
        <time>2018-05-10T05:36:18Z</time>
      </trkpt>
      <trkpt lat="44.2578" lon="7.03956">
        <ele>1680.42</ele>
        <time>2018-05-10T05:36:36Z</time>
      </trkpt>
      <trkpt lat="44.25774" lon="7.03943">
        <ele>1682.2</ele>
        <time>2018-05-10T05:36:51Z</time>
      </trkpt>
      <trkpt lat="44.25768" lon="7.0393">
        <ele>1683.2</ele>
        <time>2018-05-10T05:37:09Z</time>
      </trkpt>
      <trkpt lat="44.25765" lon="7.03916">
        <ele>1686.01</ele>
        <time>2018-05-10T05:37:29Z</time>
      </trkpt>
      <trkpt lat="44.25758" lon="7.03902">
        <ele>1688.48</ele>
        <time>2018-05-10T05:37:50Z</time>
      </trkpt>
      <trkpt lat="44.25751" lon="7.03889">
        <ele>1688.89</ele>
        <time>2018-05-10T05:38:10Z</time>
      </trkpt>
      <trkpt lat="44.25746" lon="7.03873">
        <ele>1690.65</ele>
        <time>2018-05-10T05:38:30Z</time>
      </trkpt>
      <trkpt lat="44.2574" lon="7.0385">
        <ele>1692.58</ele>
        <time>2018-05-10T05:38:57Z</time>
      </trkpt>
      <trkpt lat="44.25734" lon="7.03834">
        <ele>1694.54</ele>
        <time>2018-05-10T05:39:15Z</time>
      </trkpt>
      <trkpt lat="44.25727" lon="7.03819">
        <ele>1697.19</ele>
        <time>2018-05-10T05:39:38Z</time>
      </trkpt>
      <trkpt lat="44.2572" lon="7.03804">
        <ele>1699.42</ele>
        <time>2018-05-10T05:39:59Z</time>
      </trkpt>
      <trkpt lat="44.25715" lon="7.03792">
        <ele>1701.73</ele>
        <time>2018-05-10T05:40:17Z</time>
      </trkpt>
      <trkpt lat="44.25711" lon="7.0378">
        <ele>1703.22</ele>
        <time>2018-05-10T05:40:31Z</time>
      </trkpt>
      <trkpt lat="44.25707" lon="7.03767">
        <ele>1704.79</ele>
        <time>2018-05-10T05:40:47Z</time>
      </trkpt>
      <trkpt lat="44.25703" lon="7.03756">
        <ele>1706.2</ele>
        <time>2018-05-10T05:41:03Z</time>
      </trkpt>
      <trkpt lat="44.25694" lon="7.0375">
        <ele>1709.2</ele>
        <time>2018-05-10T05:41:24Z</time>
      </trkpt>
      <trkpt lat="44.25688" lon="7.03737">
        <ele>1709.49</ele>
        <time>2018-05-10T05:41:48Z</time>
      </trkpt>
      <trkpt lat="44.25686" lon="7.03728">
        <ele>1709.01</ele>
        <time>2018-05-10T05:42:09Z</time>
      </trkpt>
      <trkpt lat="44.25682" lon="7.03722">
        <ele>1709.18</ele>
        <time>2018-05-10T05:42:36Z</time>
      </trkpt>
      <trkpt lat="44.2568" lon="7.03709">
        <ele>1708.89</ele>
        <time>2018-05-10T05:42:58Z</time>
      </trkpt>
      <trkpt lat="44.25676" lon="7.0371">
        <ele>1711.95</ele>
        <time>2018-05-10T05:43:18Z</time>
      </trkpt>
      <trkpt lat="44.25667" lon="7.03692">
        <ele>1712.48</ele>
        <time>2018-05-10T05:43:36Z</time>
      </trkpt>
      <trkpt lat="44.25658" lon="7.03675">
        <ele>1713.55</ele>
        <time>2018-05-10T05:43:57Z</time>
      </trkpt>
      <trkpt lat="44.25656" lon="7.03673">
        <ele>1714.3</ele>
        <time>2018-05-10T05:44:16Z</time>
      </trkpt>
      <trkpt lat="44.25655" lon="7.03662">
        <ele>1714.51</ele>
        <time>2018-05-10T05:44:38Z</time>
      </trkpt>
      <trkpt lat="44.25657" lon="7.03641">
        <ele>1716.97</ele>
        <time>2018-05-10T05:44:59Z</time>
      </trkpt>
      <trkpt lat="44.25658" lon="7.03626">
        <ele>1719.65</ele>
        <time>2018-05-10T05:45:18Z</time>
      </trkpt>
      <trkpt lat="44.25653" lon="7.03617">
        <ele>1721.7</ele>
        <time>2018-05-10T05:45:34Z</time>
      </trkpt>
      <trkpt lat="44.25646" lon="7.03613">
        <ele>1724.65</ele>
        <time>2018-05-10T05:45:52Z</time>
      </trkpt>
      <trkpt lat="44.25638" lon="7.03621">
        <ele>1727.36</ele>
        <time>2018-05-10T05:46:12Z</time>
      </trkpt>
      <trkpt lat="44.25634" lon="7.03616">
        <ele>1729.07</ele>
        <time>2018-05-10T05:46:34Z</time>
      </trkpt>
      <trkpt lat="44.2563" lon="7.036">
        <ele>1731.47</ele>
        <time>2018-05-10T05:46:53Z</time>
      </trkpt>
      <trkpt lat="44.25627" lon="7.0359">
        <ele>1733.92</ele>
        <time>2018-05-10T05:47:11Z</time>
      </trkpt>
      <trkpt lat="44.25624" lon="7.03587">
        <ele>1735.78</ele>
        <time>2018-05-10T05:47:31Z</time>
      </trkpt>
      <trkpt lat="44.25623" lon="7.03574">
        <ele>1737.08</ele>
        <time>2018-05-10T05:47:51Z</time>
      </trkpt>
      <trkpt lat="44.25621" lon="7.03561">
        <ele>1737.89</ele>
        <time>2018-05-10T05:48:10Z</time>
      </trkpt>
      <trkpt lat="44.25617" lon="7.03548">
        <ele>1740.03</ele>
        <time>2018-05-10T05:48:33Z</time>
      </trkpt>
      <trkpt lat="44.25615" lon="7.03555">
        <ele>1741.46</ele>
        <time>2018-05-10T05:48:51Z</time>
      </trkpt>
      <trkpt lat="44.25616" lon="7.0354">
        <ele>1741.69</ele>
        <time>2018-05-10T05:49:08Z</time>
      </trkpt>
      <trkpt lat="44.25614" lon="7.03522">
        <ele>1743.92</ele>
        <time>2018-05-10T05:49:29Z</time>
      </trkpt>
      <trkpt lat="44.25612" lon="7.03506">
        <ele>1745.58</ele>
        <time>2018-05-10T05:49:46Z</time>
      </trkpt>
      <trkpt lat="44.25607" lon="7.03489">
        <ele>1747.1</ele>
        <time>2018-05-10T05:50:07Z</time>
      </trkpt>
      <trkpt lat="44.25605" lon="7.03477">
        <ele>1748.29</ele>
        <time>2018-05-10T05:50:25Z</time>
      </trkpt>
      <trkpt lat="44.25602" lon="7.03467">
        <ele>1749.13</ele>
        <time>2018-05-10T05:50:46Z</time>
      </trkpt>
      <trkpt lat="44.25596" lon="7.0346">
        <ele>1750.91</ele>
        <time>2018-05-10T05:51:06Z</time>
      </trkpt>
      <trkpt lat="44.25595" lon="7.03444">
        <ele>1751.18</ele>
        <time>2018-05-10T05:51:26Z</time>
      </trkpt>
      <trkpt lat="44.25591" lon="7.03422">
        <ele>1752.64</ele>
        <time>2018-05-10T05:51:49Z</time>
      </trkpt>
      <trkpt lat="44.25583" lon="7.03406">
        <ele>1754.07</ele>
        <time>2018-05-10T05:52:10Z</time>
      </trkpt>
      <trkpt lat="44.25579" lon="7.03394">
        <ele>1755.89</ele>
        <time>2018-05-10T05:52:28Z</time>
      </trkpt>
      <trkpt lat="44.25576" lon="7.03386">
        <ele>1756.59</ele>
        <time>2018-05-10T05:52:48Z</time>
      </trkpt>
      <trkpt lat="44.25575" lon="7.03388">
        <ele>1756.43</ele>
        <time>2018-05-10T05:53:11Z</time>
      </trkpt>
      <trkpt lat="44.25574" lon="7.03391">
        <ele>1756.07</ele>
        <time>2018-05-10T05:53:33Z</time>
      </trkpt>
      <trkpt lat="44.25575" lon="7.03387">
        <ele>1755.95</ele>
        <time>2018-05-10T05:53:55Z</time>
      </trkpt>
      <trkpt lat="44.25577" lon="7.03385">
        <ele>1755.66</ele>
        <time>2018-05-10T05:54:21Z</time>
      </trkpt>
      <trkpt lat="44.25578" lon="7.03385">
        <ele>1755.38</ele>
        <time>2018-05-10T05:54:49Z</time>
      </trkpt>
      <trkpt lat="44.25575" lon="7.03394">
        <ele>1755.34</ele>
        <time>2018-05-10T05:55:14Z</time>
      </trkpt>
      <trkpt lat="44.25575" lon="7.03392">
        <ele>1755.12</ele>
        <time>2018-05-10T05:55:39Z</time>
      </trkpt>
      <trkpt lat="44.25579" lon="7.03389">
        <ele>1755.2</ele>
        <time>2018-05-10T05:56:04Z</time>
      </trkpt>
      <trkpt lat="44.25577" lon="7.03387">
        <ele>1754.89</ele>
        <time>2018-05-10T05:56:24Z</time>
      </trkpt>
      <trkpt lat="44.25576" lon="7.0339">
        <ele>1755.08</ele>
        <time>2018-05-10T05:56:42Z</time>
      </trkpt>
      <trkpt lat="44.25575" lon="7.0339">
        <ele>1754.37</ele>
        <time>2018-05-10T05:57:06Z</time>
      </trkpt>
      <trkpt lat="44.25571" lon="7.03377">
        <ele>1755.98</ele>
        <time>2018-05-10T05:57:24Z</time>
      </trkpt>
      <trkpt lat="44.25564" lon="7.03363">
        <ele>1758.07</ele>
        <time>2018-05-10T05:57:43Z</time>
      </trkpt>
      <trkpt lat="44.25557" lon="7.0335">
        <ele>1760.32</ele>
        <time>2018-05-10T05:58:00Z</time>
      </trkpt>
      <trkpt lat="44.2555" lon="7.03342">
        <ele>1761.87</ele>
        <time>2018-05-10T05:58:16Z</time>
      </trkpt>
      <trkpt lat="44.25539" lon="7.03334">
        <ele>1764.77</ele>
        <time>2018-05-10T05:58:37Z</time>
      </trkpt>
      <trkpt lat="44.25532" lon="7.03324">
        <ele>1766.61</ele>
        <time>2018-05-10T05:58:55Z</time>
      </trkpt>
      <trkpt lat="44.25519" lon="7.03315">
        <ele>1768.4</ele>
        <time>2018-05-10T05:59:17Z</time>
      </trkpt>
      <trkpt lat="44.25507" lon="7.03308">
        <ele>1770.5</ele>
        <time>2018-05-10T05:59:36Z</time>
      </trkpt>
      <trkpt lat="44.25499" lon="7.033">
        <ele>1771.87</ele>
        <time>2018-05-10T05:59:52Z</time>
      </trkpt>
      <trkpt lat="44.25493" lon="7.03286">
        <ele>1774.17</ele>
        <time>2018-05-10T06:00:13Z</time>
      </trkpt>
      <trkpt lat="44.25486" lon="7.03272">
        <ele>1776.27</ele>
        <time>2018-05-10T06:00:33Z</time>
      </trkpt>
      <trkpt lat="44.2548" lon="7.03259">
        <ele>1778.22</ele>
        <time>2018-05-10T06:00:51Z</time>
      </trkpt>
      <trkpt lat="44.25475" lon="7.03246">
        <ele>1779.5</ele>
        <time>2018-05-10T06:01:06Z</time>
      </trkpt>
      <trkpt lat="44.2547" lon="7.03235">
        <ele>1780.72</ele>
        <time>2018-05-10T06:01:21Z</time>
      </trkpt>
      <trkpt lat="44.25462" lon="7.03221">
        <ele>1782.55</ele>
        <time>2018-05-10T06:01:42Z</time>
      </trkpt>
      <trkpt lat="44.25458" lon="7.03208">
        <ele>1783.75</ele>
        <time>2018-05-10T06:01:58Z</time>
      </trkpt>
      <trkpt lat="44.25456" lon="7.03192">
        <ele>1785.15</ele>
        <time>2018-05-10T06:02:15Z</time>
      </trkpt>
      <trkpt lat="44.25451" lon="7.03171">
        <ele>1787.25</ele>
        <time>2018-05-10T06:02:39Z</time>
      </trkpt>
      <trkpt lat="44.25446" lon="7.03154">
        <ele>1789.25</ele>
        <time>2018-05-10T06:03:00Z</time>
      </trkpt>
      <trkpt lat="44.25441" lon="7.03143">
        <ele>1790.8</ele>
        <time>2018-05-10T06:03:17Z</time>
      </trkpt>
      <trkpt lat="44.25437" lon="7.0313">
        <ele>1792.55</ele>
        <time>2018-05-10T06:03:35Z</time>
      </trkpt>
      <trkpt lat="44.25432" lon="7.03116">
        <ele>1794.35</ele>
        <time>2018-05-10T06:03:54Z</time>
      </trkpt>
      <trkpt lat="44.25426" lon="7.03107">
        <ele>1795.82</ele>
        <time>2018-05-10T06:04:10Z</time>
      </trkpt>
      <trkpt lat="44.25422" lon="7.03096">
        <ele>1797.03</ele>
        <time>2018-05-10T06:04:25Z</time>
      </trkpt>
      <trkpt lat="44.25416" lon="7.03083">
        <ele>1798.66</ele>
        <time>2018-05-10T06:04:45Z</time>
      </trkpt>
      <trkpt lat="44.25411" lon="7.0307">
        <ele>1800.69</ele>
        <time>2018-05-10T06:05:04Z</time>
      </trkpt>
      <trkpt lat="44.2541" lon="7.03056">
        <ele>1802.76</ele>
        <time>2018-05-10T06:05:21Z</time>
      </trkpt>
      <trkpt lat="44.25407" lon="7.03053">
        <ele>1803.19</ele>
        <time>2018-05-10T06:05:43Z</time>
      </trkpt>
      <trkpt lat="44.25407" lon="7.03054">
        <ele>1803.15</ele>
        <time>2018-05-10T06:05:44Z</time>
      </trkpt>
      <trkpt lat="44.25402" lon="7.03058">
        <ele>1802.71</ele>
        <time>2018-05-10T06:06:15Z</time>
      </trkpt>
      <trkpt lat="44.25403" lon="7.03059">
        <ele>1802.74</ele>
        <time>2018-05-10T06:06:21Z</time>
      </trkpt>
      <trkpt lat="44.25401" lon="7.03048">
        <ele>1803.77</ele>
        <time>2018-05-10T06:06:44Z</time>
      </trkpt>
      <trkpt lat="44.25397" lon="7.03033">
        <ele>1805.81</ele>
        <time>2018-05-10T06:06:59Z</time>
      </trkpt>
      <trkpt lat="44.2539" lon="7.03016">
        <ele>1806.67</ele>
        <time>2018-05-10T06:07:14Z</time>
      </trkpt>
      <trkpt lat="44.25387" lon="7.03006">
        <ele>1808.12</ele>
        <time>2018-05-10T06:07:34Z</time>
      </trkpt>
      <trkpt lat="44.2538" lon="7.02996">
        <ele>1809.43</ele>
        <time>2018-05-10T06:07:54Z</time>
      </trkpt>
      <trkpt lat="44.25373" lon="7.02984">
        <ele>1812.21</ele>
        <time>2018-05-10T06:08:11Z</time>
      </trkpt>
      <trkpt lat="44.25367" lon="7.02971">
        <ele>1813.62</ele>
        <time>2018-05-10T06:08:27Z</time>
      </trkpt>
      <trkpt lat="44.25356" lon="7.02961">
        <ele>1815.38</ele>
        <time>2018-05-10T06:08:45Z</time>
      </trkpt>
      <trkpt lat="44.2535" lon="7.02953">
        <ele>1816.92</ele>
        <time>2018-05-10T06:08:59Z</time>
      </trkpt>
      <trkpt lat="44.25343" lon="7.02941">
        <ele>1819.98</ele>
        <time>2018-05-10T06:09:20Z</time>
      </trkpt>
      <trkpt lat="44.25337" lon="7.02931">
        <ele>1821.91</ele>
        <time>2018-05-10T06:09:36Z</time>
      </trkpt>
      <trkpt lat="44.25334" lon="7.02913">
        <ele>1822.86</ele>
        <time>2018-05-10T06:09:53Z</time>
      </trkpt>
      <trkpt lat="44.25332" lon="7.02903">
        <ele>1825.06</ele>
        <time>2018-05-10T06:10:08Z</time>
      </trkpt>
      <trkpt lat="44.25333" lon="7.02889">
        <ele>1827.55</ele>
        <time>2018-05-10T06:10:26Z</time>
      </trkpt>
      <trkpt lat="44.2533" lon="7.02874">
        <ele>1829.02</ele>
        <time>2018-05-10T06:10:43Z</time>
      </trkpt>
      <trkpt lat="44.2533" lon="7.02856">
        <ele>1831.5</ele>
        <time>2018-05-10T06:11:02Z</time>
      </trkpt>
      <trkpt lat="44.25327" lon="7.02841">
        <ele>1833.4</ele>
        <time>2018-05-10T06:11:18Z</time>
      </trkpt>
      <trkpt lat="44.25327" lon="7.02839">
        <ele>1833.68</ele>
        <time>2018-05-10T06:11:20Z</time>
      </trkpt>
      <trkpt lat="44.25327" lon="7.02825">
        <ele>1835.21</ele>
        <time>2018-05-10T06:11:40Z</time>
      </trkpt>
      <trkpt lat="44.25326" lon="7.02805">
        <ele>1838.09</ele>
        <time>2018-05-10T06:12:01Z</time>
      </trkpt>
      <trkpt lat="44.25322" lon="7.0279">
        <ele>1840.92</ele>
        <time>2018-05-10T06:12:19Z</time>
      </trkpt>
      <trkpt lat="44.25318" lon="7.02782">
        <ele>1843.43</ele>
        <time>2018-05-10T06:12:36Z</time>
      </trkpt>
      <trkpt lat="44.25317" lon="7.02768">
        <ele>1845.83</ele>
        <time>2018-05-10T06:12:51Z</time>
      </trkpt>
      <trkpt lat="44.25315" lon="7.02763">
        <ele>1847.64</ele>
        <time>2018-05-10T06:13:03Z</time>
      </trkpt>
      <trkpt lat="44.25315" lon="7.02766">
        <ele>1848</ele>
        <time>2018-05-10T06:13:27Z</time>
      </trkpt>
      <trkpt lat="44.25316" lon="7.02766">
        <ele>1847.09</ele>
        <time>2018-05-10T06:13:52Z</time>
      </trkpt>
      <trkpt lat="44.25316" lon="7.02765">
        <ele>1846.75</ele>
        <time>2018-05-10T06:13:56Z</time>
      </trkpt>
      <trkpt lat="44.25314" lon="7.02765">
        <ele>1847.66</ele>
        <time>2018-05-10T06:14:23Z</time>
      </trkpt>
      <trkpt lat="44.25314" lon="7.02767">
        <ele>1847.48</ele>
        <time>2018-05-10T06:14:58Z</time>
      </trkpt>
      <trkpt lat="44.25313" lon="7.02763">
        <ele>1847.73</ele>
        <time>2018-05-10T06:15:29Z</time>
      </trkpt>
      <trkpt lat="44.25307" lon="7.02745">
        <ele>1849.55</ele>
        <time>2018-05-10T06:15:48Z</time>
      </trkpt>
      <trkpt lat="44.25305" lon="7.0273">
        <ele>1851.02</ele>
        <time>2018-05-10T06:16:04Z</time>
      </trkpt>
      <trkpt lat="44.25301" lon="7.02717">
        <ele>1853.16</ele>
        <time>2018-05-10T06:16:22Z</time>
      </trkpt>
      <trkpt lat="44.25299" lon="7.02704">
        <ele>1855.05</ele>
        <time>2018-05-10T06:16:37Z</time>
      </trkpt>
      <trkpt lat="44.25294" lon="7.0269">
        <ele>1857.24</ele>
        <time>2018-05-10T06:16:57Z</time>
      </trkpt>
      <trkpt lat="44.2529" lon="7.0268">
        <ele>1859.26</ele>
        <time>2018-05-10T06:17:12Z</time>
      </trkpt>
      <trkpt lat="44.25284" lon="7.02667">
        <ele>1860.76</ele>
        <time>2018-05-10T06:17:29Z</time>
      </trkpt>
      <trkpt lat="44.25283" lon="7.02651">
        <ele>1862.28</ele>
        <time>2018-05-10T06:17:46Z</time>
      </trkpt>
      <trkpt lat="44.25282" lon="7.02637">
        <ele>1863.86</ele>
        <time>2018-05-10T06:18:04Z</time>
      </trkpt>
      <trkpt lat="44.25282" lon="7.02624">
        <ele>1865.48</ele>
        <time>2018-05-10T06:18:19Z</time>
      </trkpt>
      <trkpt lat="44.25278" lon="7.02609">
        <ele>1866.77</ele>
        <time>2018-05-10T06:18:36Z</time>
      </trkpt>
      <trkpt lat="44.25274" lon="7.02597">
        <ele>1868.34</ele>
        <time>2018-05-10T06:18:50Z</time>
      </trkpt>
      <trkpt lat="44.25272" lon="7.02589">
        <ele>1869.11</ele>
        <time>2018-05-10T06:19:05Z</time>
      </trkpt>
      <trkpt lat="44.25267" lon="7.02578">
        <ele>1870.72</ele>
        <time>2018-05-10T06:19:17Z</time>
      </trkpt>
      <trkpt lat="44.25263" lon="7.02569">
        <ele>1871.82</ele>
        <time>2018-05-10T06:19:29Z</time>
      </trkpt>
      <trkpt lat="44.25257" lon="7.02559">
        <ele>1873.38</ele>
        <time>2018-05-10T06:19:45Z</time>
      </trkpt>
      <trkpt lat="44.25249" lon="7.02553">
        <ele>1874.78</ele>
        <time>2018-05-10T06:19:59Z</time>
      </trkpt>
      <trkpt lat="44.25242" lon="7.02542">
        <ele>1876.04</ele>
        <time>2018-05-10T06:20:14Z</time>
      </trkpt>
      <trkpt lat="44.25234" lon="7.0253">
        <ele>1878.15</ele>
        <time>2018-05-10T06:20:32Z</time>
      </trkpt>
      <trkpt lat="44.25229" lon="7.02517">
        <ele>1879.89</ele>
        <time>2018-05-10T06:20:49Z</time>
      </trkpt>
      <trkpt lat="44.25223" lon="7.02508">
        <ele>1881.44</ele>
        <time>2018-05-10T06:21:03Z</time>
      </trkpt>
      <trkpt lat="44.25213" lon="7.02498">
        <ele>1883.81</ele>
        <time>2018-05-10T06:21:23Z</time>
      </trkpt>
      <trkpt lat="44.25201" lon="7.02488">
        <ele>1886.22</ele>
        <time>2018-05-10T06:21:43Z</time>
      </trkpt>
      <trkpt lat="44.25193" lon="7.02482">
        <ele>1887.75</ele>
        <time>2018-05-10T06:21:57Z</time>
      </trkpt>
      <trkpt lat="44.25184" lon="7.02472">
        <ele>1889.19</ele>
        <time>2018-05-10T06:22:14Z</time>
      </trkpt>
      <trkpt lat="44.25174" lon="7.02466">
        <ele>1891.22</ele>
        <time>2018-05-10T06:22:31Z</time>
      </trkpt>
      <trkpt lat="44.25165" lon="7.02457">
        <ele>1893.08</ele>
        <time>2018-05-10T06:22:48Z</time>
      </trkpt>
      <trkpt lat="44.25162" lon="7.02441">
        <ele>1894.82</ele>
        <time>2018-05-10T06:23:06Z</time>
      </trkpt>
      <trkpt lat="44.25155" lon="7.02425">
        <ele>1897.27</ele>
        <time>2018-05-10T06:23:26Z</time>
      </trkpt>
      <trkpt lat="44.25154" lon="7.02421">
        <ele>1898.46</ele>
        <time>2018-05-10T06:23:47Z</time>
      </trkpt>
      <trkpt lat="44.2515" lon="7.02416">
        <ele>1899.55</ele>
        <time>2018-05-10T06:24:09Z</time>
      </trkpt>
      <trkpt lat="44.25144" lon="7.02401">
        <ele>1901.91</ele>
        <time>2018-05-10T06:24:23Z</time>
      </trkpt>
      <trkpt lat="44.25141" lon="7.02392">
        <ele>1903.11</ele>
        <time>2018-05-10T06:24:33Z</time>
      </trkpt>
      <trkpt lat="44.2514" lon="7.0239">
        <ele>1903.5</ele>
        <time>2018-05-10T06:24:35Z</time>
      </trkpt>
      <trkpt lat="44.25137" lon="7.02386">
        <ele>1904.09</ele>
        <time>2018-05-10T06:24:40Z</time>
      </trkpt>
      <trkpt lat="44.25135" lon="7.02384">
        <ele>1904.24</ele>
        <time>2018-05-10T06:24:42Z</time>
      </trkpt>
      <trkpt lat="44.25128" lon="7.02372">
        <ele>1905.78</ele>
        <time>2018-05-10T06:24:55Z</time>
      </trkpt>
      <trkpt lat="44.25124" lon="7.02363">
        <ele>1907.22</ele>
        <time>2018-05-10T06:25:06Z</time>
      </trkpt>
      <trkpt lat="44.2512" lon="7.02353">
        <ele>1908.88</ele>
        <time>2018-05-10T06:25:18Z</time>
      </trkpt>
      <trkpt lat="44.25113" lon="7.02341">
        <ele>1910.65</ele>
        <time>2018-05-10T06:25:33Z</time>
      </trkpt>
      <trkpt lat="44.25106" lon="7.02332">
        <ele>1912.6</ele>
        <time>2018-05-10T06:25:48Z</time>
      </trkpt>
      <trkpt lat="44.25101" lon="7.02323">
        <ele>1913.5</ele>
        <time>2018-05-10T06:26:04Z</time>
      </trkpt>
      <trkpt lat="44.25098" lon="7.02311">
        <ele>1915.22</ele>
        <time>2018-05-10T06:26:19Z</time>
      </trkpt>
      <trkpt lat="44.25096" lon="7.02294">
        <ele>1917.96</ele>
        <time>2018-05-10T06:26:38Z</time>
      </trkpt>
      <trkpt lat="44.25094" lon="7.02285">
        <ele>1920.53</ele>
        <time>2018-05-10T06:26:54Z</time>
      </trkpt>
      <trkpt lat="44.25093" lon="7.02276">
        <ele>1922.5</ele>
        <time>2018-05-10T06:27:07Z</time>
      </trkpt>
      <trkpt lat="44.25089" lon="7.02261">
        <ele>1925.33</ele>
        <time>2018-05-10T06:27:28Z</time>
      </trkpt>
      <trkpt lat="44.25085" lon="7.02248">
        <ele>1928.22</ele>
        <time>2018-05-10T06:27:47Z</time>
      </trkpt>
      <trkpt lat="44.25085" lon="7.02236">
        <ele>1930.18</ele>
        <time>2018-05-10T06:28:03Z</time>
      </trkpt>
      <trkpt lat="44.2508" lon="7.02225">
        <ele>1932.8</ele>
        <time>2018-05-10T06:28:22Z</time>
      </trkpt>
      <trkpt lat="44.25078" lon="7.02217">
        <ele>1934.8</ele>
        <time>2018-05-10T06:28:36Z</time>
      </trkpt>
      <trkpt lat="44.25077" lon="7.02204">
        <ele>1937.71</ele>
        <time>2018-05-10T06:28:54Z</time>
      </trkpt>
      <trkpt lat="44.25073" lon="7.02194">
        <ele>1940.28</ele>
        <time>2018-05-10T06:29:09Z</time>
      </trkpt>
      <trkpt lat="44.25068" lon="7.02181">
        <ele>1943.13</ele>
        <time>2018-05-10T06:29:27Z</time>
      </trkpt>
      <trkpt lat="44.25062" lon="7.02176">
        <ele>1945.51</ele>
        <time>2018-05-10T06:29:41Z</time>
      </trkpt>
      <trkpt lat="44.25056" lon="7.02172">
        <ele>1947.92</ele>
        <time>2018-05-10T06:29:58Z</time>
      </trkpt>
      <trkpt lat="44.25055" lon="7.02163">
        <ele>1949.95</ele>
        <time>2018-05-10T06:30:14Z</time>
      </trkpt>
      <trkpt lat="44.25049" lon="7.02157">
        <ele>1952.49</ele>
        <time>2018-05-10T06:30:30Z</time>
      </trkpt>
      <trkpt lat="44.25039" lon="7.02155">
        <ele>1954.84</ele>
        <time>2018-05-10T06:30:47Z</time>
      </trkpt>
      <trkpt lat="44.2504" lon="7.02145">
        <ele>1956.41</ele>
        <time>2018-05-10T06:31:02Z</time>
      </trkpt>
      <trkpt lat="44.25042" lon="7.02135">
        <ele>1959.47</ele>
        <time>2018-05-10T06:31:20Z</time>
      </trkpt>
      <trkpt lat="44.25034" lon="7.0213">
        <ele>1962.19</ele>
        <time>2018-05-10T06:31:38Z</time>
      </trkpt>
      <trkpt lat="44.25029" lon="7.02126">
        <ele>1964.19</ele>
        <time>2018-05-10T06:31:53Z</time>
      </trkpt>
      <trkpt lat="44.25032" lon="7.02114">
        <ele>1966.47</ele>
        <time>2018-05-10T06:32:11Z</time>
      </trkpt>
      <trkpt lat="44.25027" lon="7.02109">
        <ele>1969.48</ele>
        <time>2018-05-10T06:32:28Z</time>
      </trkpt>
      <trkpt lat="44.2502" lon="7.02105">
        <ele>1971.18</ele>
        <time>2018-05-10T06:32:42Z</time>
      </trkpt>
      <trkpt lat="44.25013" lon="7.02097">
        <ele>1973.49</ele>
        <time>2018-05-10T06:33:00Z</time>
      </trkpt>
      <trkpt lat="44.2501" lon="7.02089">
        <ele>1975.76</ele>
        <time>2018-05-10T06:33:14Z</time>
      </trkpt>
      <trkpt lat="44.25006" lon="7.02079">
        <ele>1978.03</ele>
        <time>2018-05-10T06:33:30Z</time>
      </trkpt>
      <trkpt lat="44.25003" lon="7.02072">
        <ele>1979.99</ele>
        <time>2018-05-10T06:33:43Z</time>
      </trkpt>
      <trkpt lat="44.25004" lon="7.02063">
        <ele>1981.42</ele>
        <time>2018-05-10T06:33:55Z</time>
      </trkpt>
      <trkpt lat="44.24999" lon="7.02056">
        <ele>1984.58</ele>
        <time>2018-05-10T06:34:13Z</time>
      </trkpt>
      <trkpt lat="44.24992" lon="7.02053">
        <ele>1986.08</ele>
        <time>2018-05-10T06:34:27Z</time>
      </trkpt>
      <trkpt lat="44.24988" lon="7.02046">
        <ele>1987.84</ele>
        <time>2018-05-10T06:34:39Z</time>
      </trkpt>
      <trkpt lat="44.24985" lon="7.02038">
        <ele>1989.43</ele>
        <time>2018-05-10T06:34:51Z</time>
      </trkpt>
      <trkpt lat="44.2498" lon="7.02031">
        <ele>1991.95</ele>
        <time>2018-05-10T06:35:07Z</time>
      </trkpt>
      <trkpt lat="44.24972" lon="7.02027">
        <ele>1994.17</ele>
        <time>2018-05-10T06:35:25Z</time>
      </trkpt>
      <trkpt lat="44.24964" lon="7.02019">
        <ele>1997.18</ele>
        <time>2018-05-10T06:35:45Z</time>
      </trkpt>
      <trkpt lat="44.24957" lon="7.02012">
        <ele>2000.15</ele>
        <time>2018-05-10T06:36:07Z</time>
      </trkpt>
      <trkpt lat="44.24951" lon="7.02005">
        <ele>2002.13</ele>
        <time>2018-05-10T06:36:21Z</time>
      </trkpt>
      <trkpt lat="44.24939" lon="7.02001">
        <ele>2004.47</ele>
        <time>2018-05-10T06:36:38Z</time>
      </trkpt>
      <trkpt lat="44.24929" lon="7.01996">
        <ele>2007.36</ele>
        <time>2018-05-10T06:36:56Z</time>
      </trkpt>
      <trkpt lat="44.24923" lon="7.01989">
        <ele>2008.97</ele>
        <time>2018-05-10T06:37:10Z</time>
      </trkpt>
      <trkpt lat="44.24908" lon="7.01981">
        <ele>2011.48</ele>
        <time>2018-05-10T06:37:31Z</time>
      </trkpt>
      <trkpt lat="44.24898" lon="7.01972">
        <ele>2013.47</ele>
        <time>2018-05-10T06:37:50Z</time>
      </trkpt>
      <trkpt lat="44.24891" lon="7.01967">
        <ele>2015.4</ele>
        <time>2018-05-10T06:38:03Z</time>
      </trkpt>
      <trkpt lat="44.24882" lon="7.01964">
        <ele>2017.38</ele>
        <time>2018-05-10T06:38:21Z</time>
      </trkpt>
      <trkpt lat="44.24874" lon="7.0196">
        <ele>2020.33</ele>
        <time>2018-05-10T06:38:39Z</time>
      </trkpt>
      <trkpt lat="44.24866" lon="7.01956">
        <ele>2022.88</ele>
        <time>2018-05-10T06:38:57Z</time>
      </trkpt>
      <trkpt lat="44.24858" lon="7.01954">
        <ele>2025.87</ele>
        <time>2018-05-10T06:39:14Z</time>
      </trkpt>
      <trkpt lat="44.24849" lon="7.01955">
        <ele>2028.97</ele>
        <time>2018-05-10T06:39:34Z</time>
      </trkpt>
      <trkpt lat="44.24848" lon="7.01948">
        <ele>2030.5</ele>
        <time>2018-05-10T06:39:50Z</time>
      </trkpt>
      <trkpt lat="44.24845" lon="7.01939">
        <ele>2033.28</ele>
        <time>2018-05-10T06:40:10Z</time>
      </trkpt>
      <trkpt lat="44.24842" lon="7.01932">
        <ele>2036.09</ele>
        <time>2018-05-10T06:40:30Z</time>
      </trkpt>
      <trkpt lat="44.24841" lon="7.01923">
        <ele>2038.8</ele>
        <time>2018-05-10T06:40:51Z</time>
      </trkpt>
      <trkpt lat="44.24837" lon="7.01924">
        <ele>2040.18</ele>
        <time>2018-05-10T06:41:12Z</time>
      </trkpt>
      <trkpt lat="44.24831" lon="7.01929">
        <ele>2043.29</ele>
        <time>2018-05-10T06:41:32Z</time>
      </trkpt>
      <trkpt lat="44.24825" lon="7.01931">
        <ele>2046.36</ele>
        <time>2018-05-10T06:41:52Z</time>
      </trkpt>
      <trkpt lat="44.2482" lon="7.01934">
        <ele>2048.33</ele>
        <time>2018-05-10T06:42:12Z</time>
      </trkpt>
      <trkpt lat="44.24818" lon="7.01928">
        <ele>2050.2</ele>
        <time>2018-05-10T06:42:29Z</time>
      </trkpt>
      <trkpt lat="44.24816" lon="7.01918">
        <ele>2053.22</ele>
        <time>2018-05-10T06:42:47Z</time>
      </trkpt>
      <trkpt lat="44.24816" lon="7.01903">
        <ele>2056.24</ele>
        <time>2018-05-10T06:43:06Z</time>
      </trkpt>
      <trkpt lat="44.24815" lon="7.019">
        <ele>2058.37</ele>
        <time>2018-05-10T06:43:25Z</time>
      </trkpt>
      <trkpt lat="44.24806" lon="7.01907">
        <ele>2061.52</ele>
        <time>2018-05-10T06:43:45Z</time>
      </trkpt>
      <trkpt lat="44.24798" lon="7.01912">
        <ele>2064.6</ele>
        <time>2018-05-10T06:44:02Z</time>
      </trkpt>
      <trkpt lat="44.24791" lon="7.01918">
        <ele>2067.65</ele>
        <time>2018-05-10T06:44:20Z</time>
      </trkpt>
      <trkpt lat="44.24789" lon="7.01916">
        <ele>2068.33</ele>
        <time>2018-05-10T06:44:40Z</time>
      </trkpt>
      <trkpt lat="44.2479" lon="7.0191">
        <ele>2069.46</ele>
        <time>2018-05-10T06:44:53Z</time>
      </trkpt>
      <trkpt lat="44.24786" lon="7.01918">
        <ele>2069.28</ele>
        <time>2018-05-10T06:45:20Z</time>
      </trkpt>
      <trkpt lat="44.24778" lon="7.01931">
        <ele>2069.31</ele>
        <time>2018-05-10T06:45:47Z</time>
      </trkpt>
      <trkpt lat="44.24785" lon="7.01914">
        <ele>2069.9</ele>
        <time>2018-05-10T06:46:15Z</time>
      </trkpt>
      <trkpt lat="44.24786" lon="7.01898">
        <ele>2073.01</ele>
        <time>2018-05-10T06:46:32Z</time>
      </trkpt>
      <trkpt lat="44.24787" lon="7.01885">
        <ele>2076.03</ele>
        <time>2018-05-10T06:46:47Z</time>
      </trkpt>
      <trkpt lat="44.24785" lon="7.01886">
        <ele>2077.46</ele>
        <time>2018-05-10T06:47:03Z</time>
      </trkpt>
      <trkpt lat="44.24779" lon="7.01888">
        <ele>2080.55</ele>
        <time>2018-05-10T06:47:20Z</time>
      </trkpt>
      <trkpt lat="44.24768" lon="7.01893">
        <ele>2083.73</ele>
        <time>2018-05-10T06:47:41Z</time>
      </trkpt>
      <trkpt lat="44.24759" lon="7.01898">
        <ele>2086.95</ele>
        <time>2018-05-10T06:48:01Z</time>
      </trkpt>
      <trkpt lat="44.24752" lon="7.01903">
        <ele>2089.9</ele>
        <time>2018-05-10T06:48:22Z</time>
      </trkpt>
      <trkpt lat="44.24744" lon="7.0191">
        <ele>2093.02</ele>
        <time>2018-05-10T06:48:44Z</time>
      </trkpt>
      <trkpt lat="44.2474" lon="7.01902">
        <ele>2094.98</ele>
        <time>2018-05-10T06:49:03Z</time>
      </trkpt>
      <trkpt lat="44.24735" lon="7.01892">
        <ele>2098</ele>
        <time>2018-05-10T06:49:25Z</time>
      </trkpt>
      <trkpt lat="44.24732" lon="7.01878">
        <ele>2101.05</ele>
        <time>2018-05-10T06:49:45Z</time>
      </trkpt>
      <trkpt lat="44.24728" lon="7.01868">
        <ele>2103.72</ele>
        <time>2018-05-10T06:50:04Z</time>
      </trkpt>
      <trkpt lat="44.24727" lon="7.01853">
        <ele>2106.64</ele>
        <time>2018-05-10T06:50:25Z</time>
      </trkpt>
      <trkpt lat="44.24727" lon="7.0184">
        <ele>2109.46</ele>
        <time>2018-05-10T06:50:45Z</time>
      </trkpt>
      <trkpt lat="44.24726" lon="7.01829">
        <ele>2112.65</ele>
        <time>2018-05-10T06:51:05Z</time>
      </trkpt>
      <trkpt lat="44.24724" lon="7.01822">
        <ele>2115.71</ele>
        <time>2018-05-10T06:51:24Z</time>
      </trkpt>
      <trkpt lat="44.24715" lon="7.01821">
        <ele>2118.74</ele>
        <time>2018-05-10T06:51:47Z</time>
      </trkpt>
      <trkpt lat="44.24712" lon="7.01819">
        <ele>2119.54</ele>
        <time>2018-05-10T06:52:15Z</time>
      </trkpt>
      <trkpt lat="44.24709" lon="7.01823">
        <ele>2119.06</ele>
        <time>2018-05-10T06:52:35Z</time>
      </trkpt>
      <trkpt lat="44.24712" lon="7.01822">
        <ele>2119.67</ele>
        <time>2018-05-10T06:52:48Z</time>
      </trkpt>
      <trkpt lat="44.24707" lon="7.01827">
        <ele>2118.93</ele>
        <time>2018-05-10T06:53:08Z</time>
      </trkpt>
      <trkpt lat="44.24706" lon="7.01829">
        <ele>2118.41</ele>
        <time>2018-05-10T06:53:34Z</time>
      </trkpt>
      <trkpt lat="44.24707" lon="7.01826">
        <ele>2119.21</ele>
        <time>2018-05-10T06:53:57Z</time>
      </trkpt>
      <trkpt lat="44.24707" lon="7.01825">
        <ele>2118.69</ele>
        <time>2018-05-10T06:54:25Z</time>
      </trkpt>
      <trkpt lat="44.24708" lon="7.01825">
        <ele>2118.29</ele>
        <time>2018-05-10T06:54:50Z</time>
      </trkpt>
      <trkpt lat="44.24706" lon="7.01825">
        <ele>2119.08</ele>
        <time>2018-05-10T06:55:13Z</time>
      </trkpt>
      <trkpt lat="44.24707" lon="7.01826">
        <ele>2118.77</ele>
        <time>2018-05-10T06:55:32Z</time>
      </trkpt>
      <trkpt lat="44.24705" lon="7.01828">
        <ele>2118.58</ele>
        <time>2018-05-10T06:55:46Z</time>
      </trkpt>
      <trkpt lat="44.24705" lon="7.01829">
        <ele>2118.4</ele>
        <time>2018-05-10T06:55:47Z</time>
      </trkpt>
      <trkpt lat="44.24705" lon="7.01829">
        <ele>2118.27</ele>
        <time>2018-05-10T06:56:15Z</time>
      </trkpt>
      <trkpt lat="44.24707" lon="7.01825">
        <ele>2118.38</ele>
        <time>2018-05-10T06:56:40Z</time>
      </trkpt>
      <trkpt lat="44.24708" lon="7.01822">
        <ele>2117.76</ele>
        <time>2018-05-10T06:57:06Z</time>
      </trkpt>
      <trkpt lat="44.24708" lon="7.01822">
        <ele>2117.75</ele>
        <time>2018-05-10T06:57:18Z</time>
      </trkpt>
      <trkpt lat="44.24707" lon="7.01823">
        <ele>2118.04</ele>
        <time>2018-05-10T06:57:49Z</time>
      </trkpt>
      <trkpt lat="44.24708" lon="7.01823">
        <ele>2118.27</ele>
        <time>2018-05-10T06:58:13Z</time>
      </trkpt>
      <trkpt lat="44.24706" lon="7.01825">
        <ele>2117.65</ele>
        <time>2018-05-10T06:58:38Z</time>
      </trkpt>
      <trkpt lat="44.24707" lon="7.01825">
        <ele>2117.72</ele>
        <time>2018-05-10T06:59:08Z</time>
      </trkpt>
      <trkpt lat="44.24706" lon="7.01824">
        <ele>2118.27</ele>
        <time>2018-05-10T06:59:32Z</time>
      </trkpt>
      <trkpt lat="44.24705" lon="7.01824">
        <ele>2118.13</ele>
        <time>2018-05-10T06:59:55Z</time>
      </trkpt>
      <trkpt lat="44.24706" lon="7.01824">
        <ele>2118.05</ele>
        <time>2018-05-10T07:00:23Z</time>
      </trkpt>
      <trkpt lat="44.24705" lon="7.01826">
        <ele>2117.99</ele>
        <time>2018-05-10T07:00:49Z</time>
      </trkpt>
      <trkpt lat="44.24706" lon="7.01827">
        <ele>2117.97</ele>
        <time>2018-05-10T07:01:16Z</time>
      </trkpt>
      <trkpt lat="44.24707" lon="7.01826">
        <ele>2118.09</ele>
        <time>2018-05-10T07:01:48Z</time>
      </trkpt>
      <trkpt lat="44.24708" lon="7.01824">
        <ele>2118.35</ele>
        <time>2018-05-10T07:02:18Z</time>
      </trkpt>
      <trkpt lat="44.24708" lon="7.01825">
        <ele>2118.54</ele>
        <time>2018-05-10T07:02:42Z</time>
      </trkpt>
      <trkpt lat="44.24708" lon="7.01825">
        <ele>2117.99</ele>
        <time>2018-05-10T07:03:06Z</time>
      </trkpt>
      <trkpt lat="44.24707" lon="7.01824">
        <ele>2117.82</ele>
        <time>2018-05-10T07:03:31Z</time>
      </trkpt>
      <trkpt lat="44.24708" lon="7.01822">
        <ele>2118.71</ele>
        <time>2018-05-10T07:03:54Z</time>
      </trkpt>
      <trkpt lat="44.24705" lon="7.01825">
        <ele>2118.86</ele>
        <time>2018-05-10T07:04:22Z</time>
      </trkpt>
      <trkpt lat="44.24697" lon="7.01825">
        <ele>2122.05</ele>
        <time>2018-05-10T07:04:45Z</time>
      </trkpt>
      <trkpt lat="44.24687" lon="7.01823">
        <ele>2124.88</ele>
        <time>2018-05-10T07:05:09Z</time>
      </trkpt>
      <trkpt lat="44.24684" lon="7.0181">
        <ele>2127.55</ele>
        <time>2018-05-10T07:05:31Z</time>
      </trkpt>
      <trkpt lat="44.24681" lon="7.01806">
        <ele>2130.52</ele>
        <time>2018-05-10T07:05:50Z</time>
      </trkpt>
      <trkpt lat="44.24669" lon="7.0181">
        <ele>2133.56</ele>
        <time>2018-05-10T07:06:12Z</time>
      </trkpt>
      <trkpt lat="44.24665" lon="7.01803">
        <ele>2135.72</ele>
        <time>2018-05-10T07:06:32Z</time>
      </trkpt>
      <trkpt lat="44.24667" lon="7.01789">
        <ele>2138.86</ele>
        <time>2018-05-10T07:06:54Z</time>
      </trkpt>
      <trkpt lat="44.24664" lon="7.01784">
        <ele>2141.11</ele>
        <time>2018-05-10T07:07:11Z</time>
      </trkpt>
      <trkpt lat="44.24658" lon="7.01784">
        <ele>2143.94</ele>
        <time>2018-05-10T07:07:28Z</time>
      </trkpt>
      <trkpt lat="44.24652" lon="7.01783">
        <ele>2145.87</ele>
        <time>2018-05-10T07:07:47Z</time>
      </trkpt>
      <trkpt lat="44.24653" lon="7.01775">
        <ele>2147.37</ele>
        <time>2018-05-10T07:08:05Z</time>
      </trkpt>
      <trkpt lat="44.24657" lon="7.01765">
        <ele>2150.39</ele>
        <time>2018-05-10T07:08:26Z</time>
      </trkpt>
      <trkpt lat="44.24659" lon="7.01753">
        <ele>2153.02</ele>
        <time>2018-05-10T07:08:48Z</time>
      </trkpt>
      <trkpt lat="44.24662" lon="7.0174">
        <ele>2155.79</ele>
        <time>2018-05-10T07:09:11Z</time>
      </trkpt>
      <trkpt lat="44.24658" lon="7.0174">
        <ele>2157.86</ele>
        <time>2018-05-10T07:09:29Z</time>
      </trkpt>
      <trkpt lat="44.24647" lon="7.01744">
        <ele>2160.8</ele>
        <time>2018-05-10T07:09:51Z</time>
      </trkpt>
      <trkpt lat="44.24636" lon="7.01744">
        <ele>2163.87</ele>
        <time>2018-05-10T07:10:13Z</time>
      </trkpt>
      <trkpt lat="44.24625" lon="7.01747">
        <ele>2166.5</ele>
        <time>2018-05-10T07:10:35Z</time>
      </trkpt>
      <trkpt lat="44.24617" lon="7.01747">
        <ele>2168.57</ele>
        <time>2018-05-10T07:10:59Z</time>
      </trkpt>
      <trkpt lat="44.24621" lon="7.01736">
        <ele>2171.09</ele>
        <time>2018-05-10T07:11:21Z</time>
      </trkpt>
      <trkpt lat="44.24627" lon="7.01725">
        <ele>2173.75</ele>
        <time>2018-05-10T07:11:43Z</time>
      </trkpt>
      <trkpt lat="44.24629" lon="7.01714">
        <ele>2176.6</ele>
        <time>2018-05-10T07:12:06Z</time>
      </trkpt>
      <trkpt lat="44.2463" lon="7.01699">
        <ele>2179.64</ele>
        <time>2018-05-10T07:12:29Z</time>
      </trkpt>
      <trkpt lat="44.2463" lon="7.01685">
        <ele>2182.45</ele>
        <time>2018-05-10T07:12:51Z</time>
      </trkpt>
      <trkpt lat="44.2463" lon="7.01674">
        <ele>2185.57</ele>
        <time>2018-05-10T07:13:11Z</time>
      </trkpt>
      <trkpt lat="44.2463" lon="7.01667">
        <ele>2187.3</ele>
        <time>2018-05-10T07:13:31Z</time>
      </trkpt>
      <trkpt lat="44.24632" lon="7.01654">
        <ele>2190.32</ele>
        <time>2018-05-10T07:13:54Z</time>
      </trkpt>
      <trkpt lat="44.24631" lon="7.0164">
        <ele>2192.79</ele>
        <time>2018-05-10T07:14:15Z</time>
      </trkpt>
      <trkpt lat="44.24631" lon="7.01628">
        <ele>2195.51</ele>
        <time>2018-05-10T07:14:34Z</time>
      </trkpt>
      <trkpt lat="44.24626" lon="7.01623">
        <ele>2198.03</ele>
        <time>2018-05-10T07:14:51Z</time>
      </trkpt>
      <trkpt lat="44.24617" lon="7.01624">
        <ele>2200.33</ele>
        <time>2018-05-10T07:15:09Z</time>
      </trkpt>
      <trkpt lat="44.24605" lon="7.01622">
        <ele>2202.84</ele>
        <time>2018-05-10T07:15:29Z</time>
      </trkpt>
      <trkpt lat="44.24596" lon="7.0162">
        <ele>2204.93</ele>
        <time>2018-05-10T07:15:49Z</time>
      </trkpt>
      <trkpt lat="44.24587" lon="7.0162">
        <ele>2207.06</ele>
        <time>2018-05-10T07:16:05Z</time>
      </trkpt>
      <trkpt lat="44.24576" lon="7.01619">
        <ele>2208.95</ele>
        <time>2018-05-10T07:16:21Z</time>
      </trkpt>
      <trkpt lat="44.24566" lon="7.01616">
        <ele>2212.08</ele>
        <time>2018-05-10T07:16:40Z</time>
      </trkpt>
      <trkpt lat="44.24558" lon="7.01611">
        <ele>2214.3</ele>
        <time>2018-05-10T07:16:57Z</time>
      </trkpt>
      <trkpt lat="44.24549" lon="7.01606">
        <ele>2216.58</ele>
        <time>2018-05-10T07:17:15Z</time>
      </trkpt>
      <trkpt lat="44.24538" lon="7.01603">
        <ele>2218.1</ele>
        <time>2018-05-10T07:17:32Z</time>
      </trkpt>
      <trkpt lat="44.24523" lon="7.01603">
        <ele>2220.9</ele>
        <time>2018-05-10T07:17:57Z</time>
      </trkpt>
      <trkpt lat="44.24513" lon="7.01607">
        <ele>2223.31</ele>
        <time>2018-05-10T07:18:15Z</time>
      </trkpt>
      <trkpt lat="44.245" lon="7.0161">
        <ele>2225.99</ele>
        <time>2018-05-10T07:18:37Z</time>
      </trkpt>
      <trkpt lat="44.24494" lon="7.01618">
        <ele>2228.13</ele>
        <time>2018-05-10T07:18:54Z</time>
      </trkpt>
      <trkpt lat="44.24487" lon="7.01628">
        <ele>2230.29</ele>
        <time>2018-05-10T07:19:12Z</time>
      </trkpt>
      <trkpt lat="44.24481" lon="7.0164">
        <ele>2232.93</ele>
        <time>2018-05-10T07:19:32Z</time>
      </trkpt>
      <trkpt lat="44.24477" lon="7.01651">
        <ele>2235.11</ele>
        <time>2018-05-10T07:19:49Z</time>
      </trkpt>
      <trkpt lat="44.24468" lon="7.01659">
        <ele>2237.53</ele>
        <time>2018-05-10T07:20:08Z</time>
      </trkpt>
      <trkpt lat="44.24457" lon="7.01665">
        <ele>2240.61</ele>
        <time>2018-05-10T07:20:30Z</time>
      </trkpt>
      <trkpt lat="44.24453" lon="7.01666">
        <ele>2241.89</ele>
        <time>2018-05-10T07:20:55Z</time>
      </trkpt>
      <trkpt lat="44.24449" lon="7.01664">
        <ele>2242.52</ele>
        <time>2018-05-10T07:21:23Z</time>
      </trkpt>
      <trkpt lat="44.24438" lon="7.01664">
        <ele>2245.53</ele>
        <time>2018-05-10T07:21:41Z</time>
      </trkpt>
      <trkpt lat="44.24429" lon="7.01666">
        <ele>2248.55</ele>
        <time>2018-05-10T07:21:58Z</time>
      </trkpt>
      <trkpt lat="44.24416" lon="7.01664">
        <ele>2251.65</ele>
        <time>2018-05-10T07:22:18Z</time>
      </trkpt>
      <trkpt lat="44.24406" lon="7.01663">
        <ele>2254.5</ele>
        <time>2018-05-10T07:22:39Z</time>
      </trkpt>
      <trkpt lat="44.24395" lon="7.01665">
        <ele>2257.56</ele>
        <time>2018-05-10T07:23:00Z</time>
      </trkpt>
      <trkpt lat="44.24384" lon="7.01664">
        <ele>2260.6</ele>
        <time>2018-05-10T07:23:23Z</time>
      </trkpt>
      <trkpt lat="44.24375" lon="7.01665">
        <ele>2262.94</ele>
        <time>2018-05-10T07:23:40Z</time>
      </trkpt>
      <trkpt lat="44.24364" lon="7.01667">
        <ele>2266.04</ele>
        <time>2018-05-10T07:24:04Z</time>
      </trkpt>
      <trkpt lat="44.24352" lon="7.01667">
        <ele>2268.81</ele>
        <time>2018-05-10T07:24:25Z</time>
      </trkpt>
      <trkpt lat="44.24344" lon="7.01664">
        <ele>2270.75</ele>
        <time>2018-05-10T07:24:45Z</time>
      </trkpt>
      <trkpt lat="44.24331" lon="7.01663">
        <ele>2272.23</ele>
        <time>2018-05-10T07:25:02Z</time>
      </trkpt>
      <trkpt lat="44.24315" lon="7.01663">
        <ele>2272.75</ele>
        <time>2018-05-10T07:25:23Z</time>
      </trkpt>
      <trkpt lat="44.24308" lon="7.0166">
        <ele>2273.95</ele>
        <time>2018-05-10T07:25:43Z</time>
      </trkpt>
      <trkpt lat="44.24298" lon="7.01659">
        <ele>2276.66</ele>
        <time>2018-05-10T07:26:02Z</time>
      </trkpt>
      <trkpt lat="44.24287" lon="7.01657">
        <ele>2279.74</ele>
        <time>2018-05-10T07:26:21Z</time>
      </trkpt>
      <trkpt lat="44.24278" lon="7.01658">
        <ele>2282.6</ele>
        <time>2018-05-10T07:26:41Z</time>
      </trkpt>
      <trkpt lat="44.24267" lon="7.01656">
        <ele>2285.41</ele>
        <time>2018-05-10T07:27:01Z</time>
      </trkpt>
      <trkpt lat="44.24256" lon="7.01655">
        <ele>2288.32</ele>
        <time>2018-05-10T07:27:24Z</time>
      </trkpt>
      <trkpt lat="44.24244" lon="7.01655">
        <ele>2291.19</ele>
        <time>2018-05-10T07:27:45Z</time>
      </trkpt>
      <trkpt lat="44.24234" lon="7.01653">
        <ele>2293.97</ele>
        <time>2018-05-10T07:28:09Z</time>
      </trkpt>
      <trkpt lat="44.24219" lon="7.01651">
        <ele>2296.42</ele>
        <time>2018-05-10T07:28:33Z</time>
      </trkpt>
      <trkpt lat="44.24204" lon="7.01652">
        <ele>2299.4</ele>
        <time>2018-05-10T07:28:59Z</time>
      </trkpt>
      <trkpt lat="44.24186" lon="7.01657">
        <ele>2301.65</ele>
        <time>2018-05-10T07:29:24Z</time>
      </trkpt>
      <trkpt lat="44.24177" lon="7.01667">
        <ele>2304.68</ele>
        <time>2018-05-10T07:29:49Z</time>
      </trkpt>
      <trkpt lat="44.24171" lon="7.01681">
        <ele>2306.67</ele>
        <time>2018-05-10T07:30:10Z</time>
      </trkpt>
      <trkpt lat="44.2416" lon="7.01686">
        <ele>2309.33</ele>
        <time>2018-05-10T07:30:34Z</time>
      </trkpt>
      <trkpt lat="44.24148" lon="7.01684">
        <ele>2312.3</ele>
        <time>2018-05-10T07:30:58Z</time>
      </trkpt>
      <trkpt lat="44.24135" lon="7.01684">
        <ele>2315.35</ele>
        <time>2018-05-10T07:31:24Z</time>
      </trkpt>
      <trkpt lat="44.24122" lon="7.01683">
        <ele>2317.99</ele>
        <time>2018-05-10T07:31:45Z</time>
      </trkpt>
      <trkpt lat="44.24111" lon="7.01683">
        <ele>2320.92</ele>
        <time>2018-05-10T07:32:08Z</time>
      </trkpt>
      <trkpt lat="44.24102" lon="7.0168">
        <ele>2323.93</ele>
        <time>2018-05-10T07:32:32Z</time>
      </trkpt>
      <trkpt lat="44.24092" lon="7.01677">
        <ele>2326.75</ele>
        <time>2018-05-10T07:32:55Z</time>
      </trkpt>
      <trkpt lat="44.24082" lon="7.01676">
        <ele>2329.09</ele>
        <time>2018-05-10T07:33:13Z</time>
      </trkpt>
      <trkpt lat="44.2407" lon="7.01672">
        <ele>2331.6</ele>
        <time>2018-05-10T07:33:38Z</time>
      </trkpt>
      <trkpt lat="44.24069" lon="7.01671">
        <ele>2331.43</ele>
        <time>2018-05-10T07:34:00Z</time>
      </trkpt>
      <trkpt lat="44.24069" lon="7.01673">
        <ele>2330.64</ele>
        <time>2018-05-10T07:34:27Z</time>
      </trkpt>
      <trkpt lat="44.24069" lon="7.01672">
        <ele>2330.63</ele>
        <time>2018-05-10T07:35:21Z</time>
      </trkpt>
      <trkpt lat="44.24068" lon="7.01676">
        <ele>2330.02</ele>
        <time>2018-05-10T07:36:40Z</time>
      </trkpt>
      <trkpt lat="44.24069" lon="7.01673">
        <ele>2331.36</ele>
        <time>2018-05-10T07:37:56Z</time>
      </trkpt>
      <trkpt lat="44.2407" lon="7.01675">
        <ele>2331.44</ele>
        <time>2018-05-10T07:39:21Z</time>
      </trkpt>
      <trkpt lat="44.2407" lon="7.01673">
        <ele>2330.71</ele>
        <time>2018-05-10T07:41:22Z</time>
      </trkpt>
      <trkpt lat="44.2407" lon="7.01673">
        <ele>2330.31</ele>
        <time>2018-05-10T07:43:10Z</time>
      </trkpt>
      <trkpt lat="44.24072" lon="7.01675">
        <ele>2330.56</ele>
        <time>2018-05-10T07:44:50Z</time>
      </trkpt>
      <trkpt lat="44.2407" lon="7.01676">
        <ele>2330.74</ele>
        <time>2018-05-10T07:46:32Z</time>
      </trkpt>
      <trkpt lat="44.24066" lon="7.01677">
        <ele>2331.62</ele>
        <time>2018-05-10T07:47:44Z</time>
      </trkpt>
      <trkpt lat="44.24067" lon="7.01679">
        <ele>2331.41</ele>
        <time>2018-05-10T07:48:58Z</time>
      </trkpt>
      <trkpt lat="44.24067" lon="7.0168">
        <ele>2331.38</ele>
        <time>2018-05-10T07:49:13Z</time>
      </trkpt>
      <trkpt lat="44.24065" lon="7.0168">
        <ele>2331</ele>
        <time>2018-05-10T07:49:34Z</time>
      </trkpt>
      <trkpt lat="44.24055" lon="7.01678">
        <ele>2333.23</ele>
        <time>2018-05-10T07:50:02Z</time>
      </trkpt>
      <trkpt lat="44.2404" lon="7.0167">
        <ele>2335.17</ele>
        <time>2018-05-10T07:50:25Z</time>
      </trkpt>
      <trkpt lat="44.24028" lon="7.01658">
        <ele>2337.42</ele>
        <time>2018-05-10T07:50:47Z</time>
      </trkpt>
      <trkpt lat="44.24022" lon="7.01651">
        <ele>2339.9</ele>
        <time>2018-05-10T07:51:05Z</time>
      </trkpt>
      <trkpt lat="44.2401" lon="7.01647">
        <ele>2342.68</ele>
        <time>2018-05-10T07:51:27Z</time>
      </trkpt>
      <trkpt lat="44.23996" lon="7.0164">
        <ele>2345.56</ele>
        <time>2018-05-10T07:51:51Z</time>
      </trkpt>
      <trkpt lat="44.23986" lon="7.01638">
        <ele>2348.36</ele>
        <time>2018-05-10T07:52:15Z</time>
      </trkpt>
      <trkpt lat="44.23976" lon="7.01641">
        <ele>2351.08</ele>
        <time>2018-05-10T07:52:40Z</time>
      </trkpt>
      <trkpt lat="44.23961" lon="7.0164">
        <ele>2353.88</ele>
        <time>2018-05-10T07:53:03Z</time>
      </trkpt>
      <trkpt lat="44.23947" lon="7.0164">
        <ele>2356.44</ele>
        <time>2018-05-10T07:53:27Z</time>
      </trkpt>
      <trkpt lat="44.23936" lon="7.01647">
        <ele>2359.54</ele>
        <time>2018-05-10T07:53:47Z</time>
      </trkpt>
      <trkpt lat="44.23929" lon="7.01654">
        <ele>2362.03</ele>
        <time>2018-05-10T07:54:06Z</time>
      </trkpt>
      <trkpt lat="44.23924" lon="7.01644">
        <ele>2364.51</ele>
        <time>2018-05-10T07:54:25Z</time>
      </trkpt>
      <trkpt lat="44.23915" lon="7.01639">
        <ele>2367.27</ele>
        <time>2018-05-10T07:54:47Z</time>
      </trkpt>
      <trkpt lat="44.23907" lon="7.01641">
        <ele>2370.22</ele>
        <time>2018-05-10T07:55:08Z</time>
      </trkpt>
      <trkpt lat="44.23897" lon="7.01648">
        <ele>2372.81</ele>
        <time>2018-05-10T07:55:31Z</time>
      </trkpt>
      <trkpt lat="44.23888" lon="7.01651">
        <ele>2375.34</ele>
        <time>2018-05-10T07:55:51Z</time>
      </trkpt>
      <trkpt lat="44.2388" lon="7.01658">
        <ele>2378.09</ele>
        <time>2018-05-10T07:56:11Z</time>
      </trkpt>
      <trkpt lat="44.23873" lon="7.01668">
        <ele>2380.16</ele>
        <time>2018-05-10T07:56:28Z</time>
      </trkpt>
      <trkpt lat="44.2387" lon="7.01681">
        <ele>2382.33</ele>
        <time>2018-05-10T07:56:46Z</time>
      </trkpt>
      <trkpt lat="44.23868" lon="7.01689">
        <ele>2384.03</ele>
        <time>2018-05-10T07:57:00Z</time>
      </trkpt>
      <trkpt lat="44.23862" lon="7.01686">
        <ele>2386.02</ele>
        <time>2018-05-10T07:57:18Z</time>
      </trkpt>
      <trkpt lat="44.23857" lon="7.01682">
        <ele>2388.54</ele>
        <time>2018-05-10T07:57:38Z</time>
      </trkpt>
      <trkpt lat="44.23855" lon="7.01693">
        <ele>2390.9</ele>
        <time>2018-05-10T07:57:56Z</time>
      </trkpt>
      <trkpt lat="44.23847" lon="7.01693">
        <ele>2392.59</ele>
        <time>2018-05-10T07:58:12Z</time>
      </trkpt>
      <trkpt lat="44.23842" lon="7.01689">
        <ele>2395.61</ele>
        <time>2018-05-10T07:58:33Z</time>
      </trkpt>
      <trkpt lat="44.2384" lon="7.01698">
        <ele>2397.16</ele>
        <time>2018-05-10T07:58:50Z</time>
      </trkpt>
      <trkpt lat="44.23838" lon="7.01706">
        <ele>2399.35</ele>
        <time>2018-05-10T07:59:06Z</time>
      </trkpt>
      <trkpt lat="44.2383" lon="7.01699">
        <ele>2401.93</ele>
        <time>2018-05-10T07:59:26Z</time>
      </trkpt>
      <trkpt lat="44.2382" lon="7.01696">
        <ele>2404.84</ele>
        <time>2018-05-10T07:59:47Z</time>
      </trkpt>
      <trkpt lat="44.23813" lon="7.01692">
        <ele>2407.44</ele>
        <time>2018-05-10T08:00:06Z</time>
      </trkpt>
      <trkpt lat="44.23808" lon="7.017">
        <ele>2410.5</ele>
        <time>2018-05-10T08:00:27Z</time>
      </trkpt>
      <trkpt lat="44.23803" lon="7.01708">
        <ele>2413.22</ele>
        <time>2018-05-10T08:00:45Z</time>
      </trkpt>
      <trkpt lat="44.23795" lon="7.01706">
        <ele>2415.53</ele>
        <time>2018-05-10T08:01:05Z</time>
      </trkpt>
      <trkpt lat="44.23788" lon="7.017">
        <ele>2418.1</ele>
        <time>2018-05-10T08:01:25Z</time>
      </trkpt>
      <trkpt lat="44.23783" lon="7.01694">
        <ele>2421.02</ele>
        <time>2018-05-10T08:01:44Z</time>
      </trkpt>
      <trkpt lat="44.2378" lon="7.01694">
        <ele>2423.06</ele>
        <time>2018-05-10T08:02:05Z</time>
      </trkpt>
      <trkpt lat="44.23775" lon="7.01698">
        <ele>2424.79</ele>
        <time>2018-05-10T08:02:24Z</time>
      </trkpt>
      <trkpt lat="44.23771" lon="7.01702">
        <ele>2426.47</ele>
        <time>2018-05-10T08:02:46Z</time>
      </trkpt>
      <trkpt lat="44.23764" lon="7.01705">
        <ele>2428.82</ele>
        <time>2018-05-10T08:03:03Z</time>
      </trkpt>
      <trkpt lat="44.23757" lon="7.01701">
        <ele>2431.84</ele>
        <time>2018-05-10T08:03:23Z</time>
      </trkpt>
      <trkpt lat="44.23747" lon="7.01698">
        <ele>2434.91</ele>
        <time>2018-05-10T08:03:44Z</time>
      </trkpt>
      <trkpt lat="44.23742" lon="7.01708">
        <ele>2437.49</ele>
        <time>2018-05-10T08:04:03Z</time>
      </trkpt>
      <trkpt lat="44.23735" lon="7.01718">
        <ele>2440.5</ele>
        <time>2018-05-10T08:04:22Z</time>
      </trkpt>
      <trkpt lat="44.23729" lon="7.01719">
        <ele>2442.71</ele>
        <time>2018-05-10T08:04:42Z</time>
      </trkpt>
      <trkpt lat="44.23728" lon="7.01719">
        <ele>2442.37</ele>
        <time>2018-05-10T08:05:07Z</time>
      </trkpt>
      <trkpt lat="44.2373" lon="7.0172">
        <ele>2442.4</ele>
        <time>2018-05-10T08:05:35Z</time>
      </trkpt>
      <trkpt lat="44.23729" lon="7.01719">
        <ele>2442.22</ele>
        <time>2018-05-10T08:06:02Z</time>
      </trkpt>
      <trkpt lat="44.2373" lon="7.0172">
        <ele>2441.94</ele>
        <time>2018-05-10T08:06:25Z</time>
      </trkpt>
      <trkpt lat="44.2373" lon="7.01721">
        <ele>2442.06</ele>
        <time>2018-05-10T08:06:52Z</time>
      </trkpt>
      <trkpt lat="44.2373" lon="7.01721">
        <ele>2441.96</ele>
        <time>2018-05-10T08:07:19Z</time>
      </trkpt>
      <trkpt lat="44.2373" lon="7.01721">
        <ele>2442.07</ele>
        <time>2018-05-10T08:07:45Z</time>
      </trkpt>
      <trkpt lat="44.23732" lon="7.01721">
        <ele>2442.09</ele>
        <time>2018-05-10T08:07:53Z</time>
      </trkpt>
      <trkpt lat="44.23729" lon="7.01722">
        <ele>2441.8</ele>
        <time>2018-05-10T08:08:17Z</time>
      </trkpt>
      <trkpt lat="44.2372" lon="7.01719">
        <ele>2444.42</ele>
        <time>2018-05-10T08:08:36Z</time>
      </trkpt>
      <trkpt lat="44.2371" lon="7.01706">
        <ele>2447.43</ele>
        <time>2018-05-10T08:08:58Z</time>
      </trkpt>
      <trkpt lat="44.23705" lon="7.01706">
        <ele>2450.58</ele>
        <time>2018-05-10T08:09:16Z</time>
      </trkpt>
      <trkpt lat="44.23695" lon="7.01713">
        <ele>2453.43</ele>
        <time>2018-05-10T08:09:35Z</time>
      </trkpt>
      <trkpt lat="44.23687" lon="7.01722">
        <ele>2456.28</ele>
        <time>2018-05-10T08:09:54Z</time>
      </trkpt>
      <trkpt lat="44.23683" lon="7.01721">
        <ele>2457.85</ele>
        <time>2018-05-10T08:10:11Z</time>
      </trkpt>
      <trkpt lat="44.23682" lon="7.01719">
        <ele>2458.58</ele>
        <time>2018-05-10T08:10:29Z</time>
      </trkpt>
      <trkpt lat="44.23677" lon="7.01715">
        <ele>2460.44</ele>
        <time>2018-05-10T08:10:48Z</time>
      </trkpt>
      <trkpt lat="44.23672" lon="7.01703">
        <ele>2463.19</ele>
        <time>2018-05-10T08:11:09Z</time>
      </trkpt>
      <trkpt lat="44.23672" lon="7.01696">
        <ele>2465.38</ele>
        <time>2018-05-10T08:11:28Z</time>
      </trkpt>
      <trkpt lat="44.23671" lon="7.01692">
        <ele>2466.82</ele>
        <time>2018-05-10T08:11:42Z</time>
      </trkpt>
      <trkpt lat="44.23667" lon="7.017">
        <ele>2468.42</ele>
        <time>2018-05-10T08:12:02Z</time>
      </trkpt>
      <trkpt lat="44.23656" lon="7.01708">
        <ele>2471.11</ele>
        <time>2018-05-10T08:12:23Z</time>
      </trkpt>
      <trkpt lat="44.23649" lon="7.01703">
        <ele>2473.26</ele>
        <time>2018-05-10T08:12:45Z</time>
      </trkpt>
      <trkpt lat="44.23641" lon="7.01699">
        <ele>2474.68</ele>
        <time>2018-05-10T08:13:00Z</time>
      </trkpt>
      <trkpt lat="44.23629" lon="7.01693">
        <ele>2476.22</ele>
        <time>2018-05-10T08:13:18Z</time>
      </trkpt>
      <trkpt lat="44.23625" lon="7.01685">
        <ele>2477.89</ele>
        <time>2018-05-10T08:13:35Z</time>
      </trkpt>
      <trkpt lat="44.23616" lon="7.01678">
        <ele>2480.47</ele>
        <time>2018-05-10T08:13:53Z</time>
      </trkpt>
      <trkpt lat="44.23605" lon="7.01674">
        <ele>2482.4</ele>
        <time>2018-05-10T08:14:11Z</time>
      </trkpt>
      <trkpt lat="44.23596" lon="7.01671">
        <ele>2483.75</ele>
        <time>2018-05-10T08:14:29Z</time>
      </trkpt>
      <trkpt lat="44.23591" lon="7.01663">
        <ele>2484.64</ele>
        <time>2018-05-10T08:14:49Z</time>
      </trkpt>
      <trkpt lat="44.23583" lon="7.01654">
        <ele>2485.82</ele>
        <time>2018-05-10T08:15:11Z</time>
      </trkpt>
      <trkpt lat="44.23579" lon="7.0165">
        <ele>2485.74</ele>
        <time>2018-05-10T08:15:29Z</time>
      </trkpt>
      <trkpt lat="44.23582" lon="7.01652">
        <ele>2485.96</ele>
        <time>2018-05-10T08:15:50Z</time>
      </trkpt>
      <trkpt lat="44.23582" lon="7.01655">
        <ele>2486.2</ele>
        <time>2018-05-10T08:16:17Z</time>
      </trkpt>
      <trkpt lat="44.23582" lon="7.01654">
        <ele>2486.18</ele>
        <time>2018-05-10T08:16:24Z</time>
      </trkpt>
      <trkpt lat="44.23579" lon="7.01654">
        <ele>2485.82</ele>
        <time>2018-05-10T08:16:54Z</time>
      </trkpt>
      <trkpt lat="44.23568" lon="7.01646">
        <ele>2488.25</ele>
        <time>2018-05-10T08:17:12Z</time>
      </trkpt>
      <trkpt lat="44.23556" lon="7.01642">
        <ele>2491.3</ele>
        <time>2018-05-10T08:17:29Z</time>
      </trkpt>
      <trkpt lat="44.23553" lon="7.01641">
        <ele>2491.79</ele>
        <time>2018-05-10T08:17:32Z</time>
      </trkpt>
      <trkpt lat="44.23542" lon="7.01637">
        <ele>2495.17</ele>
        <time>2018-05-10T08:17:51Z</time>
      </trkpt>
      <trkpt lat="44.2353" lon="7.01634">
        <ele>2498.26</ele>
        <time>2018-05-10T08:18:11Z</time>
      </trkpt>
      <trkpt lat="44.2352" lon="7.01628">
        <ele>2499.91</ele>
        <time>2018-05-10T08:18:27Z</time>
      </trkpt>
      <trkpt lat="44.23513" lon="7.01619">
        <ele>2501.6</ele>
        <time>2018-05-10T08:18:44Z</time>
      </trkpt>
      <trkpt lat="44.23505" lon="7.01611">
        <ele>2502.48</ele>
        <time>2018-05-10T08:18:58Z</time>
      </trkpt>
      <trkpt lat="44.23495" lon="7.01605">
        <ele>2504.26</ele>
        <time>2018-05-10T08:19:18Z</time>
      </trkpt>
      <trkpt lat="44.23483" lon="7.01601">
        <ele>2506.33</ele>
        <time>2018-05-10T08:19:38Z</time>
      </trkpt>
      <trkpt lat="44.23474" lon="7.01601">
        <ele>2508.33</ele>
        <time>2018-05-10T08:19:59Z</time>
      </trkpt>
      <trkpt lat="44.23463" lon="7.01599">
        <ele>2510.49</ele>
        <time>2018-05-10T08:20:19Z</time>
      </trkpt>
      <trkpt lat="44.23455" lon="7.01595">
        <ele>2512.54</ele>
        <time>2018-05-10T08:20:39Z</time>
      </trkpt>
      <trkpt lat="44.23447" lon="7.01593">
        <ele>2514.7</ele>
        <time>2018-05-10T08:20:57Z</time>
      </trkpt>
      <trkpt lat="44.23442" lon="7.01589">
        <ele>2516.31</ele>
        <time>2018-05-10T08:21:17Z</time>
      </trkpt>
      <trkpt lat="44.23438" lon="7.01588">
        <ele>2517.26</ele>
        <time>2018-05-10T08:21:33Z</time>
      </trkpt>
      <trkpt lat="44.23439" lon="7.01587">
        <ele>2517.73</ele>
        <time>2018-05-10T08:21:40Z</time>
      </trkpt>
      <trkpt lat="44.23441" lon="7.01591">
        <ele>2517.52</ele>
        <time>2018-05-10T08:22:07Z</time>
      </trkpt>
      <trkpt lat="44.23441" lon="7.01592">
        <ele>2517.13</ele>
        <time>2018-05-10T08:22:36Z</time>
      </trkpt>
      <trkpt lat="44.2344" lon="7.0159">
        <ele>2516.83</ele>
        <time>2018-05-10T08:22:57Z</time>
      </trkpt>
      <trkpt lat="44.23442" lon="7.01586">
        <ele>2516.66</ele>
        <time>2018-05-10T08:23:24Z</time>
      </trkpt>
      <trkpt lat="44.23441" lon="7.01589">
        <ele>2516.55</ele>
        <time>2018-05-10T08:23:52Z</time>
      </trkpt>
      <trkpt lat="44.23439" lon="7.01586">
        <ele>2516.58</ele>
        <time>2018-05-10T08:24:18Z</time>
      </trkpt>
      <trkpt lat="44.23438" lon="7.01589">
        <ele>2516.72</ele>
        <time>2018-05-10T08:24:49Z</time>
      </trkpt>
      <trkpt lat="44.23441" lon="7.0159">
        <ele>2516.63</ele>
        <time>2018-05-10T08:25:10Z</time>
      </trkpt>
      <trkpt lat="44.2344" lon="7.0159">
        <ele>2516.44</ele>
        <time>2018-05-10T08:25:38Z</time>
      </trkpt>
      <trkpt lat="44.2344" lon="7.01591">
        <ele>2516.36</ele>
        <time>2018-05-10T08:26:06Z</time>
      </trkpt>
      <trkpt lat="44.23441" lon="7.01592">
        <ele>2516.28</ele>
        <time>2018-05-10T08:26:35Z</time>
      </trkpt>
      <trkpt lat="44.23441" lon="7.01594">
        <ele>2516.77</ele>
        <time>2018-05-10T08:26:41Z</time>
      </trkpt>
      <trkpt lat="44.2344" lon="7.01595">
        <ele>2517.03</ele>
        <time>2018-05-10T08:26:44Z</time>
      </trkpt>
      <trkpt lat="44.23442" lon="7.01591">
        <ele>2516.1</ele>
        <time>2018-05-10T08:27:04Z</time>
      </trkpt>
      <trkpt lat="44.23443" lon="7.01592">
        <ele>2516.08</ele>
        <time>2018-05-10T08:27:30Z</time>
      </trkpt>
      <trkpt lat="44.23441" lon="7.01591">
        <ele>2515.99</ele>
        <time>2018-05-10T08:28:03Z</time>
      </trkpt>
      <trkpt lat="44.23444" lon="7.0159">
        <ele>2515.9</ele>
        <time>2018-05-10T08:28:15Z</time>
      </trkpt>
      <trkpt lat="44.2344" lon="7.016">
        <ele>2515.97</ele>
        <time>2018-05-10T08:28:18Z</time>
      </trkpt>
      <trkpt lat="44.23442" lon="7.01605">
        <ele>2515.99</ele>
        <time>2018-05-10T08:28:27Z</time>
      </trkpt>
      <trkpt lat="44.23445" lon="7.01589">
        <ele>2515.5</ele>
        <time>2018-05-10T08:28:59Z</time>
      </trkpt>
      <trkpt lat="44.23447" lon="7.01592">
        <ele>2515.68</ele>
        <time>2018-05-10T08:29:29Z</time>
      </trkpt>
      <trkpt lat="44.23444" lon="7.01593">
        <ele>2515.9</ele>
        <time>2018-05-10T08:29:48Z</time>
      </trkpt>
      <trkpt lat="44.23444" lon="7.01595">
        <ele>2515.91</ele>
        <time>2018-05-10T08:30:12Z</time>
      </trkpt>
      <trkpt lat="44.23443" lon="7.01595">
        <ele>2515.12</ele>
        <time>2018-05-10T08:30:30Z</time>
      </trkpt>
      <trkpt lat="44.23443" lon="7.01589">
        <ele>2515.2</ele>
        <time>2018-05-10T08:30:54Z</time>
      </trkpt>
      <trkpt lat="44.2344" lon="7.0159">
        <ele>2515.2</ele>
        <time>2018-05-10T08:31:16Z</time>
      </trkpt>
      <trkpt lat="44.23439" lon="7.01589">
        <ele>2516.36</ele>
        <time>2018-05-10T08:31:33Z</time>
      </trkpt>
      <trkpt lat="44.23438" lon="7.0159">
        <ele>2517.22</ele>
        <time>2018-05-10T08:31:57Z</time>
      </trkpt>
      <trkpt lat="44.23437" lon="7.01591">
        <ele>2516.98</ele>
        <time>2018-05-10T08:32:20Z</time>
      </trkpt>
      <trkpt lat="44.23437" lon="7.01588">
        <ele>2517.44</ele>
        <time>2018-05-10T08:32:42Z</time>
      </trkpt>
      <trkpt lat="44.23434" lon="7.01588">
        <ele>2518.84</ele>
        <time>2018-05-10T08:33:01Z</time>
      </trkpt>
      <trkpt lat="44.23435" lon="7.01587">
        <ele>2518.81</ele>
        <time>2018-05-10T08:33:22Z</time>
      </trkpt>
      <trkpt lat="44.23432" lon="7.01584">
        <ele>2519.4</ele>
        <time>2018-05-10T08:33:47Z</time>
      </trkpt>
      <trkpt lat="44.23428" lon="7.01582">
        <ele>2521.79</ele>
        <time>2018-05-10T08:34:05Z</time>
      </trkpt>
      <trkpt lat="44.23428" lon="7.01587">
        <ele>2522</ele>
        <time>2018-05-10T08:34:30Z</time>
      </trkpt>
      <trkpt lat="44.23423" lon="7.01587">
        <ele>2522.63</ele>
        <time>2018-05-10T08:34:55Z</time>
      </trkpt>
      <trkpt lat="44.23421" lon="7.01588">
        <ele>2523.49</ele>
        <time>2018-05-10T08:35:18Z</time>
      </trkpt>
      <trkpt lat="44.23423" lon="7.01587">
        <ele>2523.08</ele>
        <time>2018-05-10T08:35:37Z</time>
      </trkpt>
      <trkpt lat="44.23422" lon="7.01588">
        <ele>2522.55</ele>
        <time>2018-05-10T08:35:58Z</time>
      </trkpt>
      <trkpt lat="44.23423" lon="7.01585">
        <ele>2522.88</ele>
        <time>2018-05-10T08:36:23Z</time>
      </trkpt>
      <trkpt lat="44.23422" lon="7.01586">
        <ele>2522.82</ele>
        <time>2018-05-10T08:36:46Z</time>
      </trkpt>
      <trkpt lat="44.23419" lon="7.01588">
        <ele>2523.65</ele>
        <time>2018-05-10T08:37:07Z</time>
      </trkpt>
      <trkpt lat="44.23415" lon="7.01589">
        <ele>2526.34</ele>
        <time>2018-05-10T08:37:24Z</time>
      </trkpt>
      <trkpt lat="44.23416" lon="7.01578">
        <ele>2527.95</ele>
        <time>2018-05-10T08:37:42Z</time>
      </trkpt>
      <trkpt lat="44.23417" lon="7.01578">
        <ele>2529.24</ele>
        <time>2018-05-10T08:37:58Z</time>
      </trkpt>
      <trkpt lat="44.23407" lon="7.01582">
        <ele>2531.89</ele>
        <time>2018-05-10T08:38:16Z</time>
      </trkpt>
      <trkpt lat="44.23407" lon="7.01576">
        <ele>2532.86</ele>
        <time>2018-05-10T08:38:33Z</time>
      </trkpt>
      <trkpt lat="44.23408" lon="7.01568">
        <ele>2535.09</ele>
        <time>2018-05-10T08:38:52Z</time>
      </trkpt>
      <trkpt lat="44.23403" lon="7.01571">
        <ele>2536.75</ele>
        <time>2018-05-10T08:39:11Z</time>
      </trkpt>
      <trkpt lat="44.23401" lon="7.01571">
        <ele>2538</ele>
        <time>2018-05-10T08:39:31Z</time>
      </trkpt>
      <trkpt lat="44.23403" lon="7.01566">
        <ele>2538.18</ele>
        <time>2018-05-10T08:39:56Z</time>
      </trkpt>
      <trkpt lat="44.23403" lon="7.01562">
        <ele>2539.54</ele>
        <time>2018-05-10T08:40:21Z</time>
      </trkpt>
      <trkpt lat="44.23403" lon="7.0155">
        <ele>2542.5</ele>
        <time>2018-05-10T08:40:39Z</time>
      </trkpt>
      <trkpt lat="44.23405" lon="7.01544">
        <ele>2544.41</ele>
        <time>2018-05-10T08:40:55Z</time>
      </trkpt>
      <trkpt lat="44.23404" lon="7.01545">
        <ele>2544.34</ele>
        <time>2018-05-10T08:41:23Z</time>
      </trkpt>
      <trkpt lat="44.23404" lon="7.01543">
        <ele>2544.63</ele>
        <time>2018-05-10T08:41:51Z</time>
      </trkpt>
      <trkpt lat="44.23404" lon="7.0154">
        <ele>2544.96</ele>
        <time>2018-05-10T08:42:18Z</time>
      </trkpt>
      <trkpt lat="44.23403" lon="7.01541">
        <ele>2544.96</ele>
        <time>2018-05-10T08:42:44Z</time>
      </trkpt>
      <trkpt lat="44.23406" lon="7.01538">
        <ele>2546.81</ele>
        <time>2018-05-10T08:43:04Z</time>
      </trkpt>
      <trkpt lat="44.23407" lon="7.01541">
        <ele>2547.46</ele>
        <time>2018-05-10T08:43:25Z</time>
      </trkpt>
      <trkpt lat="44.234" lon="7.01544">
        <ele>2548.71</ele>
        <time>2018-05-10T08:43:44Z</time>
      </trkpt>
      <trkpt lat="44.23402" lon="7.01542">
        <ele>2549.19</ele>
        <time>2018-05-10T08:44:04Z</time>
      </trkpt>
      <trkpt lat="44.234" lon="7.0154">
        <ele>2549.24</ele>
        <time>2018-05-10T08:44:33Z</time>
      </trkpt>
      <trkpt lat="44.23401" lon="7.01542">
        <ele>2548.76</ele>
        <time>2018-05-10T08:45:00Z</time>
      </trkpt>
      <trkpt lat="44.23401" lon="7.01534">
        <ele>2550.26</ele>
        <time>2018-05-10T08:45:24Z</time>
      </trkpt>
      <trkpt lat="44.23404" lon="7.0153">
        <ele>2553.08</ele>
        <time>2018-05-10T08:45:43Z</time>
      </trkpt>
      <trkpt lat="44.23402" lon="7.0153">
        <ele>2553.09</ele>
        <time>2018-05-10T08:46:04Z</time>
      </trkpt>
      <trkpt lat="44.23399" lon="7.01531">
        <ele>2552.99</ele>
        <time>2018-05-10T08:46:14Z</time>
      </trkpt>
      <trkpt lat="44.23401" lon="7.01535">
        <ele>2554.01</ele>
        <time>2018-05-10T08:46:40Z</time>
      </trkpt>
      <trkpt lat="44.23403" lon="7.01539">
        <ele>2553.19</ele>
        <time>2018-05-10T08:47:07Z</time>
      </trkpt>
      <trkpt lat="44.23398" lon="7.0154">
        <ele>2554.82</ele>
        <time>2018-05-10T08:47:23Z</time>
      </trkpt>
      <trkpt lat="44.23397" lon="7.01541">
        <ele>2556.4</ele>
        <time>2018-05-10T08:47:40Z</time>
      </trkpt>
      <trkpt lat="44.23397" lon="7.01539">
        <ele>2556.41</ele>
        <time>2018-05-10T08:48:06Z</time>
      </trkpt>
      <trkpt lat="44.23394" lon="7.01543">
        <ele>2556.67</ele>
        <time>2018-05-10T08:48:32Z</time>
      </trkpt>
      <trkpt lat="44.23389" lon="7.01544">
        <ele>2558.36</ele>
        <time>2018-05-10T08:48:54Z</time>
      </trkpt>
      <trkpt lat="44.23385" lon="7.01544">
        <ele>2559.52</ele>
        <time>2018-05-10T08:49:13Z</time>
      </trkpt>
      <trkpt lat="44.23386" lon="7.01531">
        <ele>2561.45</ele>
        <time>2018-05-10T08:49:32Z</time>
      </trkpt>
      <trkpt lat="44.23391" lon="7.01526">
        <ele>2563.54</ele>
        <time>2018-05-10T08:49:51Z</time>
      </trkpt>
      <trkpt lat="44.2339" lon="7.01527">
        <ele>2564.79</ele>
        <time>2018-05-10T08:50:12Z</time>
      </trkpt>
      <trkpt lat="44.23392" lon="7.01529">
        <ele>2563.99</ele>
        <time>2018-05-10T08:50:36Z</time>
      </trkpt>
      <trkpt lat="44.23384" lon="7.01531">
        <ele>2565.31</ele>
        <time>2018-05-10T08:50:56Z</time>
      </trkpt>
      <trkpt lat="44.23375" lon="7.01538">
        <ele>2568.4</ele>
        <time>2018-05-10T08:51:13Z</time>
      </trkpt>
      <trkpt lat="44.23371" lon="7.01542">
        <ele>2570.33</ele>
        <time>2018-05-10T08:51:25Z</time>
      </trkpt>
      <trkpt lat="44.23372" lon="7.01539">
        <ele>2570.33</ele>
        <time>2018-05-10T08:51:43Z</time>
      </trkpt>
      <trkpt lat="44.23372" lon="7.01539">
        <ele>2570.48</ele>
        <time>2018-05-10T08:52:10Z</time>
      </trkpt>
      <trkpt lat="44.23372" lon="7.01537">
        <ele>2570.04</ele>
        <time>2018-05-10T08:52:37Z</time>
      </trkpt>
      <trkpt lat="44.23374" lon="7.01533">
        <ele>2571.59</ele>
        <time>2018-05-10T08:52:55Z</time>
      </trkpt>
      <trkpt lat="44.23376" lon="7.01528">
        <ele>2573</ele>
        <time>2018-05-10T08:53:13Z</time>
      </trkpt>
      <trkpt lat="44.23378" lon="7.01524">
        <ele>2574.02</ele>
        <time>2018-05-10T08:53:34Z</time>
      </trkpt>
      <trkpt lat="44.23378" lon="7.01517">
        <ele>2576.01</ele>
        <time>2018-05-10T08:53:52Z</time>
      </trkpt>
      <trkpt lat="44.23379" lon="7.01516">
        <ele>2576.61</ele>
        <time>2018-05-10T08:54:13Z</time>
      </trkpt>
      <trkpt lat="44.23379" lon="7.01511">
        <ele>2577.6</ele>
        <time>2018-05-10T08:54:35Z</time>
      </trkpt>
      <trkpt lat="44.23381" lon="7.01509">
        <ele>2578.31</ele>
        <time>2018-05-10T08:54:53Z</time>
      </trkpt>
      <trkpt lat="44.23382" lon="7.01508">
        <ele>2578.87</ele>
        <time>2018-05-10T08:55:14Z</time>
      </trkpt>
      <trkpt lat="44.23383" lon="7.01504">
        <ele>2580.04</ele>
        <time>2018-05-10T08:55:31Z</time>
      </trkpt>
      <trkpt lat="44.23384" lon="7.015">
        <ele>2581.33</ele>
        <time>2018-05-10T08:55:48Z</time>
      </trkpt>
      <trkpt lat="44.23385" lon="7.01498">
        <ele>2581.85</ele>
        <time>2018-05-10T08:56:07Z</time>
      </trkpt>
      <trkpt lat="44.23381" lon="7.01498">
        <ele>2581.58</ele>
        <time>2018-05-10T08:56:54Z</time>
      </trkpt>
      <trkpt lat="44.23383" lon="7.015">
        <ele>2581.69</ele>
        <time>2018-05-10T08:58:08Z</time>
      </trkpt>
      <trkpt lat="44.23384" lon="7.01499">
        <ele>2582.82</ele>
        <time>2018-05-10T08:58:32Z</time>
      </trkpt>
      <trkpt lat="44.23383" lon="7.01498">
        <ele>2582.64</ele>
        <time>2018-05-10T08:59:02Z</time>
      </trkpt>
      <trkpt lat="44.23381" lon="7.01498">
        <ele>2583.3</ele>
        <time>2018-05-10T08:59:25Z</time>
      </trkpt>
      <trkpt lat="44.2338" lon="7.015">
        <ele>2584.05</ele>
        <time>2018-05-10T08:59:40Z</time>
      </trkpt>
      <trkpt lat="44.23381" lon="7.015">
        <ele>2585.52</ele>
        <time>2018-05-10T08:59:57Z</time>
      </trkpt>
      <trkpt lat="44.23381" lon="7.01502">
        <ele>2585.53</ele>
        <time>2018-05-10T09:00:29Z</time>
      </trkpt>
      <trkpt lat="44.23381" lon="7.01502">
        <ele>2585.13</ele>
        <time>2018-05-10T09:01:23Z</time>
      </trkpt>
      <trkpt lat="44.23373" lon="7.01503">
        <ele>2587.83</ele>
        <time>2018-05-10T09:02:09Z</time>
      </trkpt>
      <trkpt lat="44.23373" lon="7.01499">
        <ele>2588.86</ele>
        <time>2018-05-10T09:02:47Z</time>
      </trkpt>
      <trkpt lat="44.23371" lon="7.015">
        <ele>2590.47</ele>
        <time>2018-05-10T09:03:04Z</time>
      </trkpt>
      <trkpt lat="44.23369" lon="7.01501">
        <ele>2590.44</ele>
        <time>2018-05-10T09:03:29Z</time>
      </trkpt>
      <trkpt lat="44.23369" lon="7.01495">
        <ele>2591.44</ele>
        <time>2018-05-10T09:03:49Z</time>
      </trkpt>
      <trkpt lat="44.23371" lon="7.01489">
        <ele>2592.92</ele>
        <time>2018-05-10T09:04:06Z</time>
      </trkpt>
      <trkpt lat="44.23373" lon="7.01488">
        <ele>2593.14</ele>
        <time>2018-05-10T09:04:34Z</time>
      </trkpt>
      <trkpt lat="44.23375" lon="7.01482">
        <ele>2594.42</ele>
        <time>2018-05-10T09:04:55Z</time>
      </trkpt>
      <trkpt lat="44.23372" lon="7.01485">
        <ele>2595.88</ele>
        <time>2018-05-10T09:05:14Z</time>
      </trkpt>
      <trkpt lat="44.23365" lon="7.01485">
        <ele>2598.11</ele>
        <time>2018-05-10T09:05:28Z</time>
      </trkpt>
      <trkpt lat="44.23362" lon="7.01487">
        <ele>2599.64</ele>
        <time>2018-05-10T09:05:49Z</time>
      </trkpt>
      <trkpt lat="44.2336" lon="7.01487">
        <ele>2599.96</ele>
        <time>2018-05-10T09:06:17Z</time>
      </trkpt>
      <trkpt lat="44.23361" lon="7.01487">
        <ele>2599.78</ele>
        <time>2018-05-10T09:06:43Z</time>
      </trkpt>
      <trkpt lat="44.2336" lon="7.01488">
        <ele>2600.36</ele>
        <time>2018-05-10T09:07:14Z</time>
      </trkpt>
      <trkpt lat="44.23357" lon="7.01488">
        <ele>2601.09</ele>
        <time>2018-05-10T09:07:41Z</time>
      </trkpt>
      <trkpt lat="44.23352" lon="7.01489">
        <ele>2604.03</ele>
        <time>2018-05-10T09:07:59Z</time>
      </trkpt>
      <trkpt lat="44.23352" lon="7.01487">
        <ele>2603.95</ele>
        <time>2018-05-10T09:08:21Z</time>
      </trkpt>
      <trkpt lat="44.23355" lon="7.01482">
        <ele>2604.98</ele>
        <time>2018-05-10T09:08:41Z</time>
      </trkpt>
      <trkpt lat="44.23353" lon="7.01483">
        <ele>2604.71</ele>
        <time>2018-05-10T09:09:07Z</time>
      </trkpt>
      <trkpt lat="44.23356" lon="7.01474">
        <ele>2605.65</ele>
        <time>2018-05-10T09:09:39Z</time>
      </trkpt>
      <trkpt lat="44.2336" lon="7.01468">
        <ele>2608.38</ele>
        <time>2018-05-10T09:09:56Z</time>
      </trkpt>
      <trkpt lat="44.23356" lon="7.01471">
        <ele>2609.14</ele>
        <time>2018-05-10T09:10:13Z</time>
      </trkpt>
      <trkpt lat="44.23352" lon="7.0147">
        <ele>2611.23</ele>
        <time>2018-05-10T09:10:26Z</time>
      </trkpt>
      <trkpt lat="44.23352" lon="7.01473">
        <ele>2611.29</ele>
        <time>2018-05-10T09:10:57Z</time>
      </trkpt>
      <trkpt lat="44.23349" lon="7.01475">
        <ele>2611.93</ele>
        <time>2018-05-10T09:11:09Z</time>
      </trkpt>
      <trkpt lat="44.23348" lon="7.01472">
        <ele>2612.32</ele>
        <time>2018-05-10T09:11:42Z</time>
      </trkpt>
      <trkpt lat="44.23343" lon="7.01473">
        <ele>2613.39</ele>
        <time>2018-05-10T09:12:04Z</time>
      </trkpt>
      <trkpt lat="44.23336" lon="7.01475">
        <ele>2615.78</ele>
        <time>2018-05-10T09:12:16Z</time>
      </trkpt>
      <trkpt lat="44.2333" lon="7.01478">
        <ele>2617.98</ele>
        <time>2018-05-10T09:12:27Z</time>
      </trkpt>
      <trkpt lat="44.23323" lon="7.01483">
        <ele>2620.78</ele>
        <time>2018-05-10T09:12:44Z</time>
      </trkpt>
      <trkpt lat="44.23323" lon="7.01476">
        <ele>2621.93</ele>
        <time>2018-05-10T09:13:02Z</time>
      </trkpt>
      <trkpt lat="44.23324" lon="7.01467">
        <ele>2624.83</ele>
        <time>2018-05-10T09:13:16Z</time>
      </trkpt>
      <trkpt lat="44.23326" lon="7.01462">
        <ele>2626.45</ele>
        <time>2018-05-10T09:13:35Z</time>
      </trkpt>
      <trkpt lat="44.23326" lon="7.01457">
        <ele>2628.44</ele>
        <time>2018-05-10T09:13:55Z</time>
      </trkpt>
      <trkpt lat="44.23327" lon="7.0145">
        <ele>2630.32</ele>
        <time>2018-05-10T09:14:13Z</time>
      </trkpt>
      <trkpt lat="44.23326" lon="7.0145">
        <ele>2632.5</ele>
        <time>2018-05-10T09:14:31Z</time>
      </trkpt>
      <trkpt lat="44.2332" lon="7.01454">
        <ele>2633.04</ele>
        <time>2018-05-10T09:14:46Z</time>
      </trkpt>
      <trkpt lat="44.23321" lon="7.01453">
        <ele>2632.74</ele>
        <time>2018-05-10T09:15:05Z</time>
      </trkpt>
      <trkpt lat="44.23319" lon="7.01454">
        <ele>2632.17</ele>
        <time>2018-05-10T09:15:29Z</time>
      </trkpt>
      <trkpt lat="44.23316" lon="7.01464">
        <ele>2633.48</ele>
        <time>2018-05-10T09:15:48Z</time>
      </trkpt>
      <trkpt lat="44.23311" lon="7.01469">
        <ele>2633.6</ele>
        <time>2018-05-10T09:16:10Z</time>
      </trkpt>
      <trkpt lat="44.23311" lon="7.01469">
        <ele>2633</ele>
        <time>2018-05-10T09:16:33Z</time>
      </trkpt>
      <trkpt lat="44.23312" lon="7.01468">
        <ele>2634.4</ele>
        <time>2018-05-10T09:16:58Z</time>
      </trkpt>
      <trkpt lat="44.23313" lon="7.01468">
        <ele>2633.4</ele>
        <time>2018-05-10T09:17:29Z</time>
      </trkpt>
      <trkpt lat="44.23312" lon="7.01468">
        <ele>2633.02</ele>
        <time>2018-05-10T09:18:11Z</time>
      </trkpt>
      <trkpt lat="44.23311" lon="7.01469">
        <ele>2632.99</ele>
        <time>2018-05-10T09:19:01Z</time>
      </trkpt>
      <trkpt lat="44.23311" lon="7.01469">
        <ele>2632.43</ele>
        <time>2018-05-10T09:19:57Z</time>
      </trkpt>
      <trkpt lat="44.23311" lon="7.01468">
        <ele>2632.22</ele>
        <time>2018-05-10T09:20:57Z</time>
      </trkpt>
      <trkpt lat="44.23311" lon="7.01468">
        <ele>2632.88</ele>
        <time>2018-05-10T09:21:38Z</time>
      </trkpt>
      <trkpt lat="44.23304" lon="7.0148">
        <ele>2633.84</ele>
        <time>2018-05-10T09:22:26Z</time>
      </trkpt>
      <trkpt lat="44.23295" lon="7.0149">
        <ele>2635.39</ele>
        <time>2018-05-10T09:22:45Z</time>
      </trkpt>
      <trkpt lat="44.23286" lon="7.01499">
        <ele>2637.22</ele>
        <time>2018-05-10T09:23:06Z</time>
      </trkpt>
      <trkpt lat="44.23281" lon="7.01512">
        <ele>2639.37</ele>
        <time>2018-05-10T09:23:26Z</time>
      </trkpt>
      <trkpt lat="44.23276" lon="7.0152">
        <ele>2640.56</ele>
        <time>2018-05-10T09:23:42Z</time>
      </trkpt>
      <trkpt lat="44.23272" lon="7.01526">
        <ele>2641.81</ele>
        <time>2018-05-10T09:23:59Z</time>
      </trkpt>
      <trkpt lat="44.2327" lon="7.01536">
        <ele>2643.34</ele>
        <time>2018-05-10T09:24:18Z</time>
      </trkpt>
      <trkpt lat="44.23271" lon="7.01547">
        <ele>2645.92</ele>
        <time>2018-05-10T09:24:37Z</time>
      </trkpt>
      <trkpt lat="44.23271" lon="7.01555">
        <ele>2647.91</ele>
        <time>2018-05-10T09:24:53Z</time>
      </trkpt>
      <trkpt lat="44.23265" lon="7.01563">
        <ele>2650.02</ele>
        <time>2018-05-10T09:25:11Z</time>
      </trkpt>
      <trkpt lat="44.23259" lon="7.0157">
        <ele>2651.9</ele>
        <time>2018-05-10T09:25:31Z</time>
      </trkpt>
      <trkpt lat="44.23257" lon="7.01572">
        <ele>2652.96</ele>
        <time>2018-05-10T09:25:45Z</time>
      </trkpt>
      <trkpt lat="44.23259" lon="7.01573">
        <ele>2654.45</ele>
        <time>2018-05-10T09:26:02Z</time>
      </trkpt>
      <trkpt lat="44.2326" lon="7.01574">
        <ele>2654.36</ele>
        <time>2018-05-10T09:26:21Z</time>
      </trkpt>
      <trkpt lat="44.23263" lon="7.01582">
        <ele>2656.43</ele>
        <time>2018-05-10T09:26:35Z</time>
      </trkpt>
      <trkpt lat="44.23256" lon="7.01586">
        <ele>2658.94</ele>
        <time>2018-05-10T09:26:51Z</time>
      </trkpt>
      <trkpt lat="44.2325" lon="7.01593">
        <ele>2661.29</ele>
        <time>2018-05-10T09:27:13Z</time>
      </trkpt>
      <trkpt lat="44.23247" lon="7.01597">
        <ele>2662.76</ele>
        <time>2018-05-10T09:27:29Z</time>
      </trkpt>
      <trkpt lat="44.23244" lon="7.01599">
        <ele>2664.06</ele>
        <time>2018-05-10T09:27:43Z</time>
      </trkpt>
      <trkpt lat="44.23244" lon="7.016">
        <ele>2664.39</ele>
        <time>2018-05-10T09:28:05Z</time>
      </trkpt>
      <trkpt lat="44.23247" lon="7.01603">
        <ele>2666.53</ele>
        <time>2018-05-10T09:28:25Z</time>
      </trkpt>
      <trkpt lat="44.23249" lon="7.01605">
        <ele>2667.36</ele>
        <time>2018-05-10T09:28:43Z</time>
      </trkpt>
      <trkpt lat="44.23245" lon="7.0161">
        <ele>2668.87</ele>
        <time>2018-05-10T09:28:59Z</time>
      </trkpt>
      <trkpt lat="44.23243" lon="7.01612">
        <ele>2669.82</ele>
        <time>2018-05-10T09:29:21Z</time>
      </trkpt>
      <trkpt lat="44.23244" lon="7.01613">
        <ele>2670.28</ele>
        <time>2018-05-10T09:29:36Z</time>
      </trkpt>
      <trkpt lat="44.23249" lon="7.01615">
        <ele>2671.69</ele>
        <time>2018-05-10T09:30:03Z</time>
      </trkpt>
      <trkpt lat="44.23248" lon="7.01617">
        <ele>2672.09</ele>
        <time>2018-05-10T09:30:19Z</time>
      </trkpt>
      <trkpt lat="44.23246" lon="7.01616">
        <ele>2672.89</ele>
        <time>2018-05-10T09:30:43Z</time>
      </trkpt>
      <trkpt lat="44.23245" lon="7.0162">
        <ele>2673.77</ele>
        <time>2018-05-10T09:31:07Z</time>
      </trkpt>
      <trkpt lat="44.23242" lon="7.01621">
        <ele>2674.73</ele>
        <time>2018-05-10T09:31:26Z</time>
      </trkpt>
      <trkpt lat="44.23243" lon="7.0162">
        <ele>2675.61</ele>
        <time>2018-05-10T09:31:40Z</time>
      </trkpt>
      <trkpt lat="44.23245" lon="7.01624">
        <ele>2676.15</ele>
        <time>2018-05-10T09:31:51Z</time>
      </trkpt>
      <trkpt lat="44.23243" lon="7.01628">
        <ele>2676.74</ele>
        <time>2018-05-10T09:32:08Z</time>
      </trkpt>
      <trkpt lat="44.23243" lon="7.01627">
        <ele>2676.17</ele>
        <time>2018-05-10T09:32:37Z</time>
      </trkpt>
      <trkpt lat="44.23244" lon="7.01627">
        <ele>2676.92</ele>
        <time>2018-05-10T09:33:08Z</time>
      </trkpt>
      <trkpt lat="44.23242" lon="7.01627">
        <ele>2676.44</ele>
        <time>2018-05-10T09:34:12Z</time>
      </trkpt>
      <trkpt lat="44.23243" lon="7.01629">
        <ele>2676.46</ele>
        <time>2018-05-10T09:34:52Z</time>
      </trkpt>
      <trkpt lat="44.23243" lon="7.0163">
        <ele>2676.82</ele>
        <time>2018-05-10T09:35:17Z</time>
      </trkpt>
      <trkpt lat="44.2324" lon="7.0164">
        <ele>2678.45</ele>
        <time>2018-05-10T09:35:33Z</time>
      </trkpt>
      <trkpt lat="44.23239" lon="7.01649">
        <ele>2680.35</ele>
        <time>2018-05-10T09:35:48Z</time>
      </trkpt>
      <trkpt lat="44.23236" lon="7.01658">
        <ele>2681.45</ele>
        <time>2018-05-10T09:36:02Z</time>
      </trkpt>
      <trkpt lat="44.23232" lon="7.01666">
        <ele>2683.08</ele>
        <time>2018-05-10T09:36:17Z</time>
      </trkpt>
      <trkpt lat="44.23233" lon="7.01668">
        <ele>2683.8</ele>
        <time>2018-05-10T09:36:31Z</time>
      </trkpt>
      <trkpt lat="44.23232" lon="7.01686">
        <ele>2684.12</ele>
        <time>2018-05-10T09:36:51Z</time>
      </trkpt>
      <trkpt lat="44.23231" lon="7.01701">
        <ele>2684.85</ele>
        <time>2018-05-10T09:37:05Z</time>
      </trkpt>
      <trkpt lat="44.23229" lon="7.01715">
        <ele>2684.63</ele>
        <time>2018-05-10T09:37:16Z</time>
      </trkpt>
      <trkpt lat="44.23225" lon="7.01729">
        <ele>2686.25</ele>
        <time>2018-05-10T09:37:34Z</time>
      </trkpt>
      <trkpt lat="44.23222" lon="7.01744">
        <ele>2688.07</ele>
        <time>2018-05-10T09:37:53Z</time>
      </trkpt>
      <trkpt lat="44.23223" lon="7.01759">
        <ele>2689.52</ele>
        <time>2018-05-10T09:38:12Z</time>
      </trkpt>
      <trkpt lat="44.23222" lon="7.01772">
        <ele>2691.9</ele>
        <time>2018-05-10T09:38:30Z</time>
      </trkpt>
      <trkpt lat="44.23219" lon="7.01786">
        <ele>2691.85</ele>
        <time>2018-05-10T09:38:47Z</time>
      </trkpt>
      <trkpt lat="44.23218" lon="7.01795">
        <ele>2692.79</ele>
        <time>2018-05-10T09:39:09Z</time>
      </trkpt>
      <trkpt lat="44.23217" lon="7.01806">
        <ele>2694.83</ele>
        <time>2018-05-10T09:39:30Z</time>
      </trkpt>
      <trkpt lat="44.23221" lon="7.01818">
        <ele>2697.63</ele>
        <time>2018-05-10T09:39:52Z</time>
      </trkpt>
      <trkpt lat="44.23223" lon="7.0183">
        <ele>2699.52</ele>
        <time>2018-05-10T09:40:12Z</time>
      </trkpt>
      <trkpt lat="44.23225" lon="7.01836">
        <ele>2701.32</ele>
        <time>2018-05-10T09:40:26Z</time>
      </trkpt>
      <trkpt lat="44.2323" lon="7.01843">
        <ele>2703.57</ele>
        <time>2018-05-10T09:40:43Z</time>
      </trkpt>
      <trkpt lat="44.23232" lon="7.01848">
        <ele>2705.28</ele>
        <time>2018-05-10T09:41:02Z</time>
      </trkpt>
      <trkpt lat="44.23233" lon="7.01856">
        <ele>2706.53</ele>
        <time>2018-05-10T09:41:24Z</time>
      </trkpt>
      <trkpt lat="44.23235" lon="7.01867">
        <ele>2708.88</ele>
        <time>2018-05-10T09:41:41Z</time>
      </trkpt>
      <trkpt lat="44.23238" lon="7.01873">
        <ele>2710.81</ele>
        <time>2018-05-10T09:41:58Z</time>
      </trkpt>
      <trkpt lat="44.23239" lon="7.01879">
        <ele>2713.24</ele>
        <time>2018-05-10T09:42:14Z</time>
      </trkpt>
      <trkpt lat="44.23242" lon="7.01886">
        <ele>2715.33</ele>
        <time>2018-05-10T09:42:29Z</time>
      </trkpt>
      <trkpt lat="44.23242" lon="7.01893">
        <ele>2717.14</ele>
        <time>2018-05-10T09:42:44Z</time>
      </trkpt>
      <trkpt lat="44.23242" lon="7.01901">
        <ele>2718.62</ele>
        <time>2018-05-10T09:42:59Z</time>
      </trkpt>
      <trkpt lat="44.2324" lon="7.01909">
        <ele>2720.82</ele>
        <time>2018-05-10T09:43:16Z</time>
      </trkpt>
      <trkpt lat="44.23236" lon="7.01914">
        <ele>2722.68</ele>
        <time>2018-05-10T09:43:32Z</time>
      </trkpt>
      <trkpt lat="44.2324" lon="7.01928">
        <ele>2724.72</ele>
        <time>2018-05-10T09:43:49Z</time>
      </trkpt>
      <trkpt lat="44.23238" lon="7.01939">
        <ele>2725.71</ele>
        <time>2018-05-10T09:44:05Z</time>
      </trkpt>
      <trkpt lat="44.2324" lon="7.01938">
        <ele>2725.69</ele>
        <time>2018-05-10T09:44:32Z</time>
      </trkpt>
      <trkpt lat="44.2324" lon="7.01938">
        <ele>2725.32</ele>
        <time>2018-05-10T09:44:53Z</time>
      </trkpt>
      <trkpt lat="44.2324" lon="7.01939">
        <ele>2724.94</ele>
        <time>2018-05-10T09:45:20Z</time>
      </trkpt>
      <trkpt lat="44.2324" lon="7.01938">
        <ele>2725.19</ele>
        <time>2018-05-10T09:45:44Z</time>
      </trkpt>
      <trkpt lat="44.2324" lon="7.01939">
        <ele>2724.66</ele>
        <time>2018-05-10T09:46:11Z</time>
      </trkpt>
      <trkpt lat="44.23241" lon="7.01939">
        <ele>2724.81</ele>
        <time>2018-05-10T09:46:36Z</time>
      </trkpt>
      <trkpt lat="44.2324" lon="7.01936">
        <ele>2724.82</ele>
        <time>2018-05-10T09:46:59Z</time>
      </trkpt>
      <trkpt lat="44.2324" lon="7.01936">
        <ele>2725.38</ele>
        <time>2018-05-10T09:47:24Z</time>
      </trkpt>
      <trkpt lat="44.2324" lon="7.01934">
        <ele>2725.51</ele>
        <time>2018-05-10T09:47:49Z</time>
      </trkpt>
      <trkpt lat="44.23239" lon="7.01934">
        <ele>2725.3</ele>
        <time>2018-05-10T09:48:15Z</time>
      </trkpt>
      <trkpt lat="44.2324" lon="7.01937">
        <ele>2725.03</ele>
        <time>2018-05-10T09:48:39Z</time>
      </trkpt>
      <trkpt lat="44.2324" lon="7.01937">
        <ele>2725.21</ele>
        <time>2018-05-10T09:49:01Z</time>
      </trkpt>
      <trkpt lat="44.23241" lon="7.01936">
        <ele>2725.51</ele>
        <time>2018-05-10T09:49:24Z</time>
      </trkpt>
      <trkpt lat="44.2324" lon="7.01936">
        <ele>2724.58</ele>
        <time>2018-05-10T09:49:46Z</time>
      </trkpt>
      <trkpt lat="44.2324" lon="7.01934">
        <ele>2725.36</ele>
        <time>2018-05-10T09:50:02Z</time>
      </trkpt>
      <trkpt lat="44.23239" lon="7.01935">
        <ele>2724.47</ele>
        <time>2018-05-10T09:50:26Z</time>
      </trkpt>
      <trkpt lat="44.23239" lon="7.01936">
        <ele>2725.28</ele>
        <time>2018-05-10T09:50:56Z</time>
      </trkpt>
      <trkpt lat="44.2324" lon="7.01936">
        <ele>2725.29</ele>
        <time>2018-05-10T09:51:26Z</time>
      </trkpt>
      <trkpt lat="44.23241" lon="7.01936">
        <ele>2724.24</ele>
        <time>2018-05-10T09:52:08Z</time>
      </trkpt>
      <trkpt lat="44.23239" lon="7.01935">
        <ele>2724.29</ele>
        <time>2018-05-10T09:53:21Z</time>
      </trkpt>
      <trkpt lat="44.2324" lon="7.01935">
        <ele>2724.72</ele>
        <time>2018-05-10T09:54:19Z</time>
      </trkpt>
      <trkpt lat="44.2324" lon="7.01935">
        <ele>2724.21</ele>
        <time>2018-05-10T09:54:56Z</time>
      </trkpt>
      <trkpt lat="44.23239" lon="7.01935">
        <ele>2724.15</ele>
        <time>2018-05-10T09:55:21Z</time>
      </trkpt>
      <trkpt lat="44.23241" lon="7.01935">
        <ele>2724.02</ele>
        <time>2018-05-10T09:56:19Z</time>
      </trkpt>
      <trkpt lat="44.2324" lon="7.01936">
        <ele>2723.56</ele>
        <time>2018-05-10T09:56:54Z</time>
      </trkpt>
      <trkpt lat="44.2324" lon="7.01935">
        <ele>2724.15</ele>
        <time>2018-05-10T09:57:20Z</time>
      </trkpt>
      <trkpt lat="44.2324" lon="7.01935">
        <ele>2724.06</ele>
        <time>2018-05-10T09:57:52Z</time>
      </trkpt>
      <trkpt lat="44.2324" lon="7.01935">
        <ele>2724.02</ele>
        <time>2018-05-10T09:58:28Z</time>
      </trkpt>
      <trkpt lat="44.2324" lon="7.01934">
        <ele>2723.7</ele>
        <time>2018-05-10T09:59:20Z</time>
      </trkpt>
      <trkpt lat="44.2324" lon="7.01935">
        <ele>2724.1</ele>
        <time>2018-05-10T10:00:28Z</time>
      </trkpt>
      <trkpt lat="44.23239" lon="7.01936">
        <ele>2724.04</ele>
        <time>2018-05-10T10:01:39Z</time>
      </trkpt>
      <trkpt lat="44.23242" lon="7.01935">
        <ele>2724.01</ele>
        <time>2018-05-10T10:02:58Z</time>
      </trkpt>
      <trkpt lat="44.2324" lon="7.01937">
        <ele>2723.96</ele>
        <time>2018-05-10T10:03:26Z</time>
      </trkpt>
      <trkpt lat="44.23241" lon="7.01937">
        <ele>2723.55</ele>
        <time>2018-05-10T10:03:51Z</time>
      </trkpt>
      <trkpt lat="44.23239" lon="7.01935">
        <ele>2724.08</ele>
        <time>2018-05-10T10:04:19Z</time>
      </trkpt>
      <trkpt lat="44.23239" lon="7.01935">
        <ele>2723.64</ele>
        <time>2018-05-10T10:04:36Z</time>
      </trkpt>
      <trkpt lat="44.2324" lon="7.01935">
        <ele>2722.95</ele>
        <time>2018-05-10T10:04:57Z</time>
      </trkpt>
      <trkpt lat="44.2324" lon="7.01936">
        <ele>2723.01</ele>
        <time>2018-05-10T10:05:22Z</time>
      </trkpt>
      <trkpt lat="44.2324" lon="7.01936">
        <ele>2722.64</ele>
        <time>2018-05-10T10:05:50Z</time>
      </trkpt>
      <trkpt lat="44.23239" lon="7.01936">
        <ele>2723.34</ele>
        <time>2018-05-10T10:06:19Z</time>
      </trkpt>
      <trkpt lat="44.23238" lon="7.0194">
        <ele>2723.34</ele>
        <time>2018-05-10T10:06:52Z</time>
      </trkpt>
      <trkpt lat="44.23226" lon="7.01952">
        <ele>2720</ele>
        <time>2018-05-10T10:07:00Z</time>
      </trkpt>
      <trkpt lat="44.2323" lon="7.01958">
        <ele>2717.81</ele>
        <time>2018-05-10T10:07:02Z</time>
      </trkpt>
      <trkpt lat="44.23237" lon="7.01965">
        <ele>2715.47</ele>
        <time>2018-05-10T10:07:05Z</time>
      </trkpt>
      <trkpt lat="44.23238" lon="7.01972">
        <ele>2713.01</ele>
        <time>2018-05-10T10:07:13Z</time>
      </trkpt>
      <trkpt lat="44.23241" lon="7.0199">
        <ele>2709.35</ele>
        <time>2018-05-10T10:07:18Z</time>
      </trkpt>
      <trkpt lat="44.23239" lon="7.01992">
        <ele>2706.1</ele>
        <time>2018-05-10T10:07:20Z</time>
      </trkpt>
      <trkpt lat="44.23238" lon="7.01993">
        <ele>2704.3</ele>
        <time>2018-05-10T10:07:23Z</time>
      </trkpt>
      <trkpt lat="44.23237" lon="7.01993">
        <ele>2703.91</ele>
        <time>2018-05-10T10:07:33Z</time>
      </trkpt>
      <trkpt lat="44.23225" lon="7.02009">
        <ele>2700.72</ele>
        <time>2018-05-10T10:07:38Z</time>
      </trkpt>
      <trkpt lat="44.2322" lon="7.02019">
        <ele>2697.14</ele>
        <time>2018-05-10T10:07:40Z</time>
      </trkpt>
      <trkpt lat="44.23217" lon="7.02033">
        <ele>2692.92</ele>
        <time>2018-05-10T10:07:42Z</time>
      </trkpt>
      <trkpt lat="44.23213" lon="7.02043">
        <ele>2688.36</ele>
        <time>2018-05-10T10:07:44Z</time>
      </trkpt>
      <trkpt lat="44.23216" lon="7.02053">
        <ele>2684.34</ele>
        <time>2018-05-10T10:07:46Z</time>
      </trkpt>
      <trkpt lat="44.23222" lon="7.02059">
        <ele>2680.93</ele>
        <time>2018-05-10T10:07:48Z</time>
      </trkpt>
      <trkpt lat="44.23231" lon="7.02065">
        <ele>2676.23</ele>
        <time>2018-05-10T10:07:52Z</time>
      </trkpt>
      <trkpt lat="44.23232" lon="7.02064">
        <ele>2675.47</ele>
        <time>2018-05-10T10:07:54Z</time>
      </trkpt>
      <trkpt lat="44.23235" lon="7.02059">
        <ele>2674.84</ele>
        <time>2018-05-10T10:08:21Z</time>
      </trkpt>
      <trkpt lat="44.23238" lon="7.02056">
        <ele>2674.99</ele>
        <time>2018-05-10T10:08:48Z</time>
      </trkpt>
      <trkpt lat="44.23238" lon="7.02054">
        <ele>2674.85</ele>
        <time>2018-05-10T10:09:53Z</time>
      </trkpt>
      <trkpt lat="44.23239" lon="7.02055">
        <ele>2675.48</ele>
        <time>2018-05-10T10:10:07Z</time>
      </trkpt>
      <trkpt lat="44.23248" lon="7.02068">
        <ele>2673.79</ele>
        <time>2018-05-10T10:10:11Z</time>
      </trkpt>
      <trkpt lat="44.23255" lon="7.02075">
        <ele>2672.25</ele>
        <time>2018-05-10T10:10:13Z</time>
      </trkpt>
      <trkpt lat="44.23265" lon="7.02092">
        <ele>2668.59</ele>
        <time>2018-05-10T10:10:16Z</time>
      </trkpt>
      <trkpt lat="44.23275" lon="7.02113">
        <ele>2663.39</ele>
        <time>2018-05-10T10:10:19Z</time>
      </trkpt>
      <trkpt lat="44.23283" lon="7.02144">
        <ele>2658.35</ele>
        <time>2018-05-10T10:10:23Z</time>
      </trkpt>
      <trkpt lat="44.23283" lon="7.02151">
        <ele>2657.85</ele>
        <time>2018-05-10T10:10:24Z</time>
      </trkpt>
      <trkpt lat="44.23284" lon="7.02192">
        <ele>2653.8</ele>
        <time>2018-05-10T10:10:30Z</time>
      </trkpt>
      <trkpt lat="44.23285" lon="7.02213">
        <ele>2650.84</ele>
        <time>2018-05-10T10:10:33Z</time>
      </trkpt>
      <trkpt lat="44.2328" lon="7.02237">
        <ele>2646.24</ele>
        <time>2018-05-10T10:10:36Z</time>
      </trkpt>
      <trkpt lat="44.23279" lon="7.02253">
        <ele>2641.83</ele>
        <time>2018-05-10T10:10:38Z</time>
      </trkpt>
      <trkpt lat="44.23277" lon="7.02269">
        <ele>2637.73</ele>
        <time>2018-05-10T10:10:40Z</time>
      </trkpt>
      <trkpt lat="44.23274" lon="7.02286">
        <ele>2633.94</ele>
        <time>2018-05-10T10:10:42Z</time>
      </trkpt>
      <trkpt lat="44.23269" lon="7.02303">
        <ele>2629.86</ele>
        <time>2018-05-10T10:10:44Z</time>
      </trkpt>
      <trkpt lat="44.2326" lon="7.02316">
        <ele>2625.62</ele>
        <time>2018-05-10T10:10:46Z</time>
      </trkpt>
      <trkpt lat="44.23251" lon="7.02327">
        <ele>2620.81</ele>
        <time>2018-05-10T10:10:48Z</time>
      </trkpt>
      <trkpt lat="44.23247" lon="7.02332">
        <ele>2618.71</ele>
        <time>2018-05-10T10:10:49Z</time>
      </trkpt>
      <trkpt lat="44.2323" lon="7.02348">
        <ele>2611.44</ele>
        <time>2018-05-10T10:10:53Z</time>
      </trkpt>
      <trkpt lat="44.2322" lon="7.0235">
        <ele>2607.44</ele>
        <time>2018-05-10T10:10:56Z</time>
      </trkpt>
      <trkpt lat="44.23217" lon="7.02353">
        <ele>2604.18</ele>
        <time>2018-05-10T10:10:59Z</time>
      </trkpt>
      <trkpt lat="44.23218" lon="7.02353">
        <ele>2603.47</ele>
        <time>2018-05-10T10:11:01Z</time>
      </trkpt>
      <trkpt lat="44.23217" lon="7.02351">
        <ele>2603.55</ele>
        <time>2018-05-10T10:11:15Z</time>
      </trkpt>
      <trkpt lat="44.23217" lon="7.02349">
        <ele>2603.36</ele>
        <time>2018-05-10T10:11:33Z</time>
      </trkpt>
      <trkpt lat="44.23219" lon="7.0235">
        <ele>2603.44</ele>
        <time>2018-05-10T10:12:09Z</time>
      </trkpt>
      <trkpt lat="44.23218" lon="7.02351">
        <ele>2603.24</ele>
        <time>2018-05-10T10:12:23Z</time>
      </trkpt>
      <trkpt lat="44.23209" lon="7.02384">
        <ele>2600.22</ele>
        <time>2018-05-10T10:12:33Z</time>
      </trkpt>
      <trkpt lat="44.23204" lon="7.02408">
        <ele>2596</ele>
        <time>2018-05-10T10:12:37Z</time>
      </trkpt>
      <trkpt lat="44.23199" lon="7.02427">
        <ele>2592.85</ele>
        <time>2018-05-10T10:12:39Z</time>
      </trkpt>
      <trkpt lat="44.23195" lon="7.02444">
        <ele>2589.03</ele>
        <time>2018-05-10T10:12:42Z</time>
      </trkpt>
      <trkpt lat="44.23192" lon="7.0246">
        <ele>2587.05</ele>
        <time>2018-05-10T10:12:46Z</time>
      </trkpt>
      <trkpt lat="44.2318" lon="7.02484">
        <ele>2581.97</ele>
        <time>2018-05-10T10:12:50Z</time>
      </trkpt>
      <trkpt lat="44.23173" lon="7.02497">
        <ele>2578</ele>
        <time>2018-05-10T10:12:52Z</time>
      </trkpt>
      <trkpt lat="44.23171" lon="7.02503">
        <ele>2576.59</ele>
        <time>2018-05-10T10:12:53Z</time>
      </trkpt>
      <trkpt lat="44.23166" lon="7.02536">
        <ele>2571.25</ele>
        <time>2018-05-10T10:12:58Z</time>
      </trkpt>
      <trkpt lat="44.2316" lon="7.02558">
        <ele>2567.28</ele>
        <time>2018-05-10T10:13:01Z</time>
      </trkpt>
      <trkpt lat="44.23156" lon="7.02564">
        <ele>2565.73</ele>
        <time>2018-05-10T10:13:02Z</time>
      </trkpt>
      <trkpt lat="44.23143" lon="7.02593">
        <ele>2560.41</ele>
        <time>2018-05-10T10:13:07Z</time>
      </trkpt>
      <trkpt lat="44.2314" lon="7.02602">
        <ele>2559.23</ele>
        <time>2018-05-10T10:13:09Z</time>
      </trkpt>
      <trkpt lat="44.23137" lon="7.02605">
        <ele>2558.04</ele>
        <time>2018-05-10T10:13:21Z</time>
      </trkpt>
      <trkpt lat="44.23138" lon="7.02602">
        <ele>2558.11</ele>
        <time>2018-05-10T10:13:49Z</time>
      </trkpt>
      <trkpt lat="44.23138" lon="7.02602">
        <ele>2558.21</ele>
        <time>2018-05-10T10:14:13Z</time>
      </trkpt>
      <trkpt lat="44.23136" lon="7.02605">
        <ele>2558.16</ele>
        <time>2018-05-10T10:14:17Z</time>
      </trkpt>
      <trkpt lat="44.23123" lon="7.02635">
        <ele>2555.59</ele>
        <time>2018-05-10T10:14:26Z</time>
      </trkpt>
      <trkpt lat="44.23119" lon="7.02666">
        <ele>2551.15</ele>
        <time>2018-05-10T10:14:31Z</time>
      </trkpt>
      <trkpt lat="44.23114" lon="7.02677">
        <ele>2548.28</ele>
        <time>2018-05-10T10:14:33Z</time>
      </trkpt>
      <trkpt lat="44.23108" lon="7.0269">
        <ele>2545.81</ele>
        <time>2018-05-10T10:14:36Z</time>
      </trkpt>
      <trkpt lat="44.23116" lon="7.02725">
        <ele>2541.04</ele>
        <time>2018-05-10T10:14:42Z</time>
      </trkpt>
      <trkpt lat="44.23113" lon="7.02737">
        <ele>2538.09</ele>
        <time>2018-05-10T10:14:46Z</time>
      </trkpt>
      <trkpt lat="44.23112" lon="7.02735">
        <ele>2537.75</ele>
        <time>2018-05-10T10:15:06Z</time>
      </trkpt>
      <trkpt lat="44.23112" lon="7.02735">
        <ele>2537.74</ele>
        <time>2018-05-10T10:15:30Z</time>
      </trkpt>
      <trkpt lat="44.23113" lon="7.02737">
        <ele>2537.95</ele>
        <time>2018-05-10T10:15:36Z</time>
      </trkpt>
      <trkpt lat="44.23113" lon="7.02742">
        <ele>2536.55</ele>
        <time>2018-05-10T10:15:51Z</time>
      </trkpt>
      <trkpt lat="44.23113" lon="7.02743">
        <ele>2536.6</ele>
        <time>2018-05-10T10:16:10Z</time>
      </trkpt>
      <trkpt lat="44.23113" lon="7.02764">
        <ele>2534.95</ele>
        <time>2018-05-10T10:16:15Z</time>
      </trkpt>
      <trkpt lat="44.2312" lon="7.02784">
        <ele>2530.46</ele>
        <time>2018-05-10T10:16:19Z</time>
      </trkpt>
      <trkpt lat="44.23123" lon="7.0279">
        <ele>2529.13</ele>
        <time>2018-05-10T10:16:20Z</time>
      </trkpt>
      <trkpt lat="44.23145" lon="7.02802">
        <ele>2520.85</ele>
        <time>2018-05-10T10:16:24Z</time>
      </trkpt>
      <trkpt lat="44.23154" lon="7.02804">
        <ele>2517.63</ele>
        <time>2018-05-10T10:16:25Z</time>
      </trkpt>
      <trkpt lat="44.23162" lon="7.02808">
        <ele>2514.61</ele>
        <time>2018-05-10T10:16:26Z</time>
      </trkpt>
      <trkpt lat="44.2317" lon="7.02814">
        <ele>2509.74</ele>
        <time>2018-05-10T10:16:27Z</time>
      </trkpt>
      <trkpt lat="44.23176" lon="7.02822">
        <ele>2505.93</ele>
        <time>2018-05-10T10:16:28Z</time>
      </trkpt>
      <trkpt lat="44.23186" lon="7.02833">
        <ele>2502.24</ele>
        <time>2018-05-10T10:16:30Z</time>
      </trkpt>
      <trkpt lat="44.23192" lon="7.02835">
        <ele>2500.91</ele>
        <time>2018-05-10T10:16:31Z</time>
      </trkpt>
      <trkpt lat="44.23222" lon="7.02844">
        <ele>2493.07</ele>
        <time>2018-05-10T10:16:35Z</time>
      </trkpt>
      <trkpt lat="44.23237" lon="7.0285">
        <ele>2488.81</ele>
        <time>2018-05-10T10:16:37Z</time>
      </trkpt>
      <trkpt lat="44.23252" lon="7.02856">
        <ele>2485.61</ele>
        <time>2018-05-10T10:16:39Z</time>
      </trkpt>
      <trkpt lat="44.23272" lon="7.02862">
        <ele>2481.64</ele>
        <time>2018-05-10T10:16:42Z</time>
      </trkpt>
      <trkpt lat="44.23293" lon="7.02868">
        <ele>2478.6</ele>
        <time>2018-05-10T10:16:47Z</time>
      </trkpt>
      <trkpt lat="44.23316" lon="7.02875">
        <ele>2476.38</ele>
        <time>2018-05-10T10:17:00Z</time>
      </trkpt>
      <trkpt lat="44.23336" lon="7.0288">
        <ele>2474.64</ele>
        <time>2018-05-10T10:17:11Z</time>
      </trkpt>
      <trkpt lat="44.23359" lon="7.02873">
        <ele>2471.31</ele>
        <time>2018-05-10T10:17:18Z</time>
      </trkpt>
      <trkpt lat="44.23381" lon="7.02867">
        <ele>2468.42</ele>
        <time>2018-05-10T10:17:27Z</time>
      </trkpt>
      <trkpt lat="44.23401" lon="7.02851">
        <ele>2465.24</ele>
        <time>2018-05-10T10:17:36Z</time>
      </trkpt>
      <trkpt lat="44.23417" lon="7.02825">
        <ele>2463.51</ele>
        <time>2018-05-10T10:17:46Z</time>
      </trkpt>
      <trkpt lat="44.23419" lon="7.02822">
        <ele>2462.95</ele>
        <time>2018-05-10T10:17:49Z</time>
      </trkpt>
      <trkpt lat="44.2342" lon="7.02821">
        <ele>2463.09</ele>
        <time>2018-05-10T10:18:04Z</time>
      </trkpt>
      <trkpt lat="44.23421" lon="7.02821">
        <ele>2462.79</ele>
        <time>2018-05-10T10:18:28Z</time>
      </trkpt>
      <trkpt lat="44.2342" lon="7.02821">
        <ele>2462.73</ele>
        <time>2018-05-10T10:18:56Z</time>
      </trkpt>
      <trkpt lat="44.23421" lon="7.02819">
        <ele>2462.11</ele>
        <time>2018-05-10T10:19:08Z</time>
      </trkpt>
      <trkpt lat="44.2342" lon="7.02819">
        <ele>2463.49</ele>
        <time>2018-05-10T10:19:36Z</time>
      </trkpt>
      <trkpt lat="44.23422" lon="7.02818">
        <ele>2463.37</ele>
        <time>2018-05-10T10:20:04Z</time>
      </trkpt>
      <trkpt lat="44.23424" lon="7.02815">
        <ele>2463.34</ele>
        <time>2018-05-10T10:20:21Z</time>
      </trkpt>
      <trkpt lat="44.23448" lon="7.02804">
        <ele>2460.98</ele>
        <time>2018-05-10T10:20:33Z</time>
      </trkpt>
      <trkpt lat="44.2347" lon="7.02794">
        <ele>2457.09</ele>
        <time>2018-05-10T10:20:38Z</time>
      </trkpt>
      <trkpt lat="44.23489" lon="7.02786">
        <ele>2452.62</ele>
        <time>2018-05-10T10:20:41Z</time>
      </trkpt>
      <trkpt lat="44.23503" lon="7.02784">
        <ele>2448.59</ele>
        <time>2018-05-10T10:20:43Z</time>
      </trkpt>
      <trkpt lat="44.23518" lon="7.02785">
        <ele>2444.68</ele>
        <time>2018-05-10T10:20:45Z</time>
      </trkpt>
      <trkpt lat="44.23535" lon="7.0279">
        <ele>2440.99</ele>
        <time>2018-05-10T10:20:48Z</time>
      </trkpt>
      <trkpt lat="44.2355" lon="7.02787">
        <ele>2438.19</ele>
        <time>2018-05-10T10:20:51Z</time>
      </trkpt>
      <trkpt lat="44.23581" lon="7.02763">
        <ele>2434.17</ele>
        <time>2018-05-10T10:21:00Z</time>
      </trkpt>
      <trkpt lat="44.23588" lon="7.02755">
        <ele>2433.26</ele>
        <time>2018-05-10T10:21:03Z</time>
      </trkpt>
      <trkpt lat="44.23594" lon="7.02753">
        <ele>2430.72</ele>
        <time>2018-05-10T10:21:12Z</time>
      </trkpt>
      <trkpt lat="44.23594" lon="7.02754">
        <ele>2431.05</ele>
        <time>2018-05-10T10:21:35Z</time>
      </trkpt>
      <trkpt lat="44.23593" lon="7.02754">
        <ele>2430.53</ele>
        <time>2018-05-10T10:22:03Z</time>
      </trkpt>
      <trkpt lat="44.23594" lon="7.02754">
        <ele>2430.6</ele>
        <time>2018-05-10T10:23:33Z</time>
      </trkpt>
      <trkpt lat="44.23593" lon="7.02754">
        <ele>2430.77</ele>
        <time>2018-05-10T10:25:16Z</time>
      </trkpt>
      <trkpt lat="44.23594" lon="7.02753">
        <ele>2430.44</ele>
        <time>2018-05-10T10:25:31Z</time>
      </trkpt>
      <trkpt lat="44.23605" lon="7.02746">
        <ele>2429.22</ele>
        <time>2018-05-10T10:25:35Z</time>
      </trkpt>
      <trkpt lat="44.23617" lon="7.02726">
        <ele>2426.02</ele>
        <time>2018-05-10T10:25:39Z</time>
      </trkpt>
      <trkpt lat="44.2363" lon="7.02719">
        <ele>2424</ele>
        <time>2018-05-10T10:25:42Z</time>
      </trkpt>
      <trkpt lat="44.23644" lon="7.02717">
        <ele>2419.75</ele>
        <time>2018-05-10T10:25:44Z</time>
      </trkpt>
      <trkpt lat="44.23661" lon="7.02718">
        <ele>2414.04</ele>
        <time>2018-05-10T10:25:46Z</time>
      </trkpt>
      <trkpt lat="44.23678" lon="7.02715">
        <ele>2409.12</ele>
        <time>2018-05-10T10:25:48Z</time>
      </trkpt>
      <trkpt lat="44.23691" lon="7.02705">
        <ele>2405.83</ele>
        <time>2018-05-10T10:25:50Z</time>
      </trkpt>
      <trkpt lat="44.23701" lon="7.02696">
        <ele>2403.57</ele>
        <time>2018-05-10T10:25:52Z</time>
      </trkpt>
      <trkpt lat="44.2372" lon="7.02677">
        <ele>2399.77</ele>
        <time>2018-05-10T10:25:57Z</time>
      </trkpt>
      <trkpt lat="44.23734" lon="7.0266">
        <ele>2396.75</ele>
        <time>2018-05-10T10:26:01Z</time>
      </trkpt>
      <trkpt lat="44.2374" lon="7.02651">
        <ele>2394.98</ele>
        <time>2018-05-10T10:26:03Z</time>
      </trkpt>
      <trkpt lat="44.2376" lon="7.02627">
        <ele>2391.09</ele>
        <time>2018-05-10T10:26:08Z</time>
      </trkpt>
      <trkpt lat="44.23766" lon="7.0262">
        <ele>2390.12</ele>
        <time>2018-05-10T10:26:10Z</time>
      </trkpt>
      <trkpt lat="44.23794" lon="7.02582">
        <ele>2386.88</ele>
        <time>2018-05-10T10:26:23Z</time>
      </trkpt>
      <trkpt lat="44.23796" lon="7.02579">
        <ele>2386.48</ele>
        <time>2018-05-10T10:26:24Z</time>
      </trkpt>
      <trkpt lat="44.23813" lon="7.0257">
        <ele>2382.32</ele>
        <time>2018-05-10T10:26:30Z</time>
      </trkpt>
      <trkpt lat="44.23816" lon="7.02568">
        <ele>2381.16</ele>
        <time>2018-05-10T10:26:47Z</time>
      </trkpt>
      <trkpt lat="44.23817" lon="7.02569">
        <ele>2381.16</ele>
        <time>2018-05-10T10:27:19Z</time>
      </trkpt>
      <trkpt lat="44.23814" lon="7.0257">
        <ele>2381.12</ele>
        <time>2018-05-10T10:27:49Z</time>
      </trkpt>
      <trkpt lat="44.23813" lon="7.02571">
        <ele>2381.01</ele>
        <time>2018-05-10T10:28:16Z</time>
      </trkpt>
      <trkpt lat="44.23818" lon="7.02569">
        <ele>2380.63</ele>
        <time>2018-05-10T10:28:37Z</time>
      </trkpt>
      <trkpt lat="44.23813" lon="7.02572">
        <ele>2380.88</ele>
        <time>2018-05-10T10:29:06Z</time>
      </trkpt>
      <trkpt lat="44.23815" lon="7.0257">
        <ele>2380.99</ele>
        <time>2018-05-10T10:29:25Z</time>
      </trkpt>
      <trkpt lat="44.23817" lon="7.02549">
        <ele>2378.34</ele>
        <time>2018-05-10T10:29:29Z</time>
      </trkpt>
      <trkpt lat="44.23823" lon="7.02521">
        <ele>2374.61</ele>
        <time>2018-05-10T10:29:33Z</time>
      </trkpt>
      <trkpt lat="44.23825" lon="7.02514">
        <ele>2373.14</ele>
        <time>2018-05-10T10:29:34Z</time>
      </trkpt>
      <trkpt lat="44.23835" lon="7.02499">
        <ele>2369.37</ele>
        <time>2018-05-10T10:29:36Z</time>
      </trkpt>
      <trkpt lat="44.23857" lon="7.02485">
        <ele>2363.22</ele>
        <time>2018-05-10T10:29:39Z</time>
      </trkpt>
      <trkpt lat="44.23873" lon="7.02487">
        <ele>2356.79</ele>
        <time>2018-05-10T10:29:41Z</time>
      </trkpt>
      <trkpt lat="44.23883" lon="7.02485">
        <ele>2353.03</ele>
        <time>2018-05-10T10:29:42Z</time>
      </trkpt>
      <trkpt lat="44.23895" lon="7.02484">
        <ele>2347.98</ele>
        <time>2018-05-10T10:29:43Z</time>
      </trkpt>
      <trkpt lat="44.23908" lon="7.02483">
        <ele>2343.07</ele>
        <time>2018-05-10T10:29:44Z</time>
      </trkpt>
      <trkpt lat="44.23921" lon="7.02481">
        <ele>2338.06</ele>
        <time>2018-05-10T10:29:45Z</time>
      </trkpt>
      <trkpt lat="44.23933" lon="7.02483">
        <ele>2332.87</ele>
        <time>2018-05-10T10:29:46Z</time>
      </trkpt>
      <trkpt lat="44.23944" lon="7.02482">
        <ele>2329.58</ele>
        <time>2018-05-10T10:29:47Z</time>
      </trkpt>
      <trkpt lat="44.23962" lon="7.02486">
        <ele>2325.7</ele>
        <time>2018-05-10T10:29:49Z</time>
      </trkpt>
      <trkpt lat="44.23981" lon="7.02498">
        <ele>2323.64</ele>
        <time>2018-05-10T10:29:52Z</time>
      </trkpt>
      <trkpt lat="44.24014" lon="7.02506">
        <ele>2321.55</ele>
        <time>2018-05-10T10:30:03Z</time>
      </trkpt>
      <trkpt lat="44.24027" lon="7.02505">
        <ele>2320.28</ele>
        <time>2018-05-10T10:30:17Z</time>
      </trkpt>
      <trkpt lat="44.2403" lon="7.02502">
        <ele>2320.12</ele>
        <time>2018-05-10T10:30:23Z</time>
      </trkpt>
      <trkpt lat="44.24045" lon="7.02492">
        <ele>2318.92</ele>
        <time>2018-05-10T10:30:37Z</time>
      </trkpt>
      <trkpt lat="44.24048" lon="7.02492">
        <ele>2318.84</ele>
        <time>2018-05-10T10:31:02Z</time>
      </trkpt>
      <trkpt lat="44.24049" lon="7.02492">
        <ele>2318.86</ele>
        <time>2018-05-10T10:31:31Z</time>
      </trkpt>
      <trkpt lat="44.24051" lon="7.02492">
        <ele>2318.85</ele>
        <time>2018-05-10T10:31:52Z</time>
      </trkpt>
      <trkpt lat="44.24052" lon="7.02489">
        <ele>2318.8</ele>
        <time>2018-05-10T10:31:57Z</time>
      </trkpt>
      <trkpt lat="44.24064" lon="7.02457">
        <ele>2316.02</ele>
        <time>2018-05-10T10:32:11Z</time>
      </trkpt>
      <trkpt lat="44.24067" lon="7.02452">
        <ele>2314.63</ele>
        <time>2018-05-10T10:32:23Z</time>
      </trkpt>
      <trkpt lat="44.24068" lon="7.02452">
        <ele>2314.8</ele>
        <time>2018-05-10T10:32:53Z</time>
      </trkpt>
      <trkpt lat="44.24069" lon="7.02451">
        <ele>2314.67</ele>
        <time>2018-05-10T10:32:59Z</time>
      </trkpt>
      <trkpt lat="44.24083" lon="7.02453">
        <ele>2310.4</ele>
        <time>2018-05-10T10:33:03Z</time>
      </trkpt>
      <trkpt lat="44.24098" lon="7.02457">
        <ele>2304.57</ele>
        <time>2018-05-10T10:33:05Z</time>
      </trkpt>
      <trkpt lat="44.24105" lon="7.02458">
        <ele>2300.81</ele>
        <time>2018-05-10T10:33:06Z</time>
      </trkpt>
      <trkpt lat="44.24112" lon="7.02459">
        <ele>2297.13</ele>
        <time>2018-05-10T10:33:07Z</time>
      </trkpt>
      <trkpt lat="44.24119" lon="7.02463">
        <ele>2292.91</ele>
        <time>2018-05-10T10:33:08Z</time>
      </trkpt>
      <trkpt lat="44.24126" lon="7.02463">
        <ele>2288.34</ele>
        <time>2018-05-10T10:33:09Z</time>
      </trkpt>
      <trkpt lat="44.24138" lon="7.0246">
        <ele>2283</ele>
        <time>2018-05-10T10:33:10Z</time>
      </trkpt>
      <trkpt lat="44.24149" lon="7.02459">
        <ele>2276.88</ele>
        <time>2018-05-10T10:33:11Z</time>
      </trkpt>
      <trkpt lat="44.24157" lon="7.0246">
        <ele>2270.15</ele>
        <time>2018-05-10T10:33:12Z</time>
      </trkpt>
      <trkpt lat="44.24168" lon="7.02458">
        <ele>2265.06</ele>
        <time>2018-05-10T10:33:13Z</time>
      </trkpt>
      <trkpt lat="44.24177" lon="7.02454">
        <ele>2261.45</ele>
        <time>2018-05-10T10:33:14Z</time>
      </trkpt>
      <trkpt lat="44.24181" lon="7.02445">
        <ele>2258.2</ele>
        <time>2018-05-10T10:33:15Z</time>
      </trkpt>
      <trkpt lat="44.24193" lon="7.02441">
        <ele>2253.74</ele>
        <time>2018-05-10T10:33:17Z</time>
      </trkpt>
      <trkpt lat="44.24208" lon="7.02436">
        <ele>2249.93</ele>
        <time>2018-05-10T10:33:20Z</time>
      </trkpt>
      <trkpt lat="44.24212" lon="7.02434">
        <ele>2248.55</ele>
        <time>2018-05-10T10:33:21Z</time>
      </trkpt>
      <trkpt lat="44.24219" lon="7.02431">
        <ele>2245.08</ele>
        <time>2018-05-10T10:33:25Z</time>
      </trkpt>
      <trkpt lat="44.24223" lon="7.02436">
        <ele>2244.88</ele>
        <time>2018-05-10T10:33:51Z</time>
      </trkpt>
      <trkpt lat="44.2422" lon="7.02437">
        <ele>2244.96</ele>
        <time>2018-05-10T10:34:22Z</time>
      </trkpt>
      <trkpt lat="44.24222" lon="7.02436">
        <ele>2245.01</ele>
        <time>2018-05-10T10:34:24Z</time>
      </trkpt>
      <trkpt lat="44.24248" lon="7.02424">
        <ele>2240.91</ele>
        <time>2018-05-10T10:34:30Z</time>
      </trkpt>
      <trkpt lat="44.24262" lon="7.02422">
        <ele>2236.07</ele>
        <time>2018-05-10T10:34:33Z</time>
      </trkpt>
      <trkpt lat="44.24271" lon="7.02419">
        <ele>2232.44</ele>
        <time>2018-05-10T10:34:35Z</time>
      </trkpt>
      <trkpt lat="44.24293" lon="7.02405">
        <ele>2225.68</ele>
        <time>2018-05-10T10:34:39Z</time>
      </trkpt>
      <trkpt lat="44.24316" lon="7.02382">
        <ele>2220</ele>
        <time>2018-05-10T10:34:43Z</time>
      </trkpt>
      <trkpt lat="44.24337" lon="7.02369">
        <ele>2214.15</ele>
        <time>2018-05-10T10:34:46Z</time>
      </trkpt>
      <trkpt lat="44.24351" lon="7.02362">
        <ele>2210.89</ele>
        <time>2018-05-10T10:34:48Z</time>
      </trkpt>
      <trkpt lat="44.24374" lon="7.02359">
        <ele>2206.96</ele>
        <time>2018-05-10T10:34:51Z</time>
      </trkpt>
      <trkpt lat="44.24384" lon="7.02354">
        <ele>2205.21</ele>
        <time>2018-05-10T10:34:53Z</time>
      </trkpt>
      <trkpt lat="44.24401" lon="7.0234">
        <ele>2200.96</ele>
        <time>2018-05-10T10:34:57Z</time>
      </trkpt>
      <trkpt lat="44.24414" lon="7.02328">
        <ele>2197.94</ele>
        <time>2018-05-10T10:35:00Z</time>
      </trkpt>
      <trkpt lat="44.24432" lon="7.02314">
        <ele>2194.09</ele>
        <time>2018-05-10T10:35:04Z</time>
      </trkpt>
      <trkpt lat="44.24447" lon="7.02301">
        <ele>2190.76</ele>
        <time>2018-05-10T10:35:08Z</time>
      </trkpt>
      <trkpt lat="44.24462" lon="7.0229">
        <ele>2187.65</ele>
        <time>2018-05-10T10:35:17Z</time>
      </trkpt>
      <trkpt lat="44.24475" lon="7.02266">
        <ele>2184.9</ele>
        <time>2018-05-10T10:35:30Z</time>
      </trkpt>
      <trkpt lat="44.24489" lon="7.02255">
        <ele>2181.86</ele>
        <time>2018-05-10T10:35:38Z</time>
      </trkpt>
      <trkpt lat="44.2449" lon="7.02255">
        <ele>2181.3</ele>
        <time>2018-05-10T10:35:39Z</time>
      </trkpt>
      <trkpt lat="44.24494" lon="7.0226">
        <ele>2181.04</ele>
        <time>2018-05-10T10:36:07Z</time>
      </trkpt>
      <trkpt lat="44.24496" lon="7.0226">
        <ele>2181.36</ele>
        <time>2018-05-10T10:36:36Z</time>
      </trkpt>
      <trkpt lat="44.24492" lon="7.02262">
        <ele>2181.16</ele>
        <time>2018-05-10T10:37:01Z</time>
      </trkpt>
      <trkpt lat="44.24491" lon="7.02262">
        <ele>2181.56</ele>
        <time>2018-05-10T10:37:39Z</time>
      </trkpt>
      <trkpt lat="44.24494" lon="7.02259">
        <ele>2181.79</ele>
        <time>2018-05-10T10:37:44Z</time>
      </trkpt>
      <trkpt lat="44.24513" lon="7.02236">
        <ele>2178.51</ele>
        <time>2018-05-10T10:37:50Z</time>
      </trkpt>
      <trkpt lat="44.24522" lon="7.02219">
        <ele>2175.31</ele>
        <time>2018-05-10T10:37:53Z</time>
      </trkpt>
      <trkpt lat="44.24528" lon="7.02205">
        <ele>2172.05</ele>
        <time>2018-05-10T10:37:58Z</time>
      </trkpt>
      <trkpt lat="44.24526" lon="7.02207">
        <ele>2172</ele>
        <time>2018-05-10T10:38:13Z</time>
      </trkpt>
      <trkpt lat="44.24529" lon="7.02194">
        <ele>2170.23</ele>
        <time>2018-05-10T10:38:37Z</time>
      </trkpt>
      <trkpt lat="44.24524" lon="7.02196">
        <ele>2169.49</ele>
        <time>2018-05-10T10:38:52Z</time>
      </trkpt>
      <trkpt lat="44.24525" lon="7.02192">
        <ele>2169.38</ele>
        <time>2018-05-10T10:39:15Z</time>
      </trkpt>
      <trkpt lat="44.24527" lon="7.0218">
        <ele>2169.26</ele>
        <time>2018-05-10T10:39:18Z</time>
      </trkpt>
      <trkpt lat="44.24528" lon="7.02167">
        <ele>2166.81</ele>
        <time>2018-05-10T10:39:20Z</time>
      </trkpt>
      <trkpt lat="44.24539" lon="7.0215">
        <ele>2160.71</ele>
        <time>2018-05-10T10:39:23Z</time>
      </trkpt>
      <trkpt lat="44.24543" lon="7.02141">
        <ele>2157.38</ele>
        <time>2018-05-10T10:39:24Z</time>
      </trkpt>
      <trkpt lat="44.24548" lon="7.02134">
        <ele>2154.03</ele>
        <time>2018-05-10T10:39:25Z</time>
      </trkpt>
      <trkpt lat="44.24554" lon="7.02127">
        <ele>2150.63</ele>
        <time>2018-05-10T10:39:26Z</time>
      </trkpt>
      <trkpt lat="44.24559" lon="7.02119">
        <ele>2147.39</ele>
        <time>2018-05-10T10:39:27Z</time>
      </trkpt>
      <trkpt lat="44.24569" lon="7.02104">
        <ele>2140.99</ele>
        <time>2018-05-10T10:39:29Z</time>
      </trkpt>
      <trkpt lat="44.24579" lon="7.0209">
        <ele>2135.21</ele>
        <time>2018-05-10T10:39:31Z</time>
      </trkpt>
      <trkpt lat="44.2459" lon="7.02072">
        <ele>2129.51</ele>
        <time>2018-05-10T10:39:33Z</time>
      </trkpt>
      <trkpt lat="44.24595" lon="7.02063">
        <ele>2127.07</ele>
        <time>2018-05-10T10:39:34Z</time>
      </trkpt>
      <trkpt lat="44.24605" lon="7.0205">
        <ele>2122.38</ele>
        <time>2018-05-10T10:39:36Z</time>
      </trkpt>
      <trkpt lat="44.24617" lon="7.02027">
        <ele>2116.92</ele>
        <time>2018-05-10T10:39:40Z</time>
      </trkpt>
      <trkpt lat="44.24625" lon="7.02002">
        <ele>2111.47</ele>
        <time>2018-05-10T10:39:43Z</time>
      </trkpt>
      <trkpt lat="44.24639" lon="7.01981">
        <ele>2106.95</ele>
        <time>2018-05-10T10:39:46Z</time>
      </trkpt>
      <trkpt lat="44.24649" lon="7.01973">
        <ele>2105.08</ele>
        <time>2018-05-10T10:39:48Z</time>
      </trkpt>
      <trkpt lat="44.2468" lon="7.01954">
        <ele>2099.16</ele>
        <time>2018-05-10T10:39:53Z</time>
      </trkpt>
      <trkpt lat="44.24699" lon="7.01945">
        <ele>2094.39</ele>
        <time>2018-05-10T10:39:57Z</time>
      </trkpt>
      <trkpt lat="44.24719" lon="7.01935">
        <ele>2090.08</ele>
        <time>2018-05-10T10:40:01Z</time>
      </trkpt>
      <trkpt lat="44.24734" lon="7.01924">
        <ele>2085.39</ele>
        <time>2018-05-10T10:40:07Z</time>
      </trkpt>
      <trkpt lat="44.2473" lon="7.01925">
        <ele>2085.43</ele>
        <time>2018-05-10T10:40:33Z</time>
      </trkpt>
      <trkpt lat="44.2473" lon="7.01924">
        <ele>2085.8</ele>
        <time>2018-05-10T10:41:00Z</time>
      </trkpt>
      <trkpt lat="44.24728" lon="7.01927">
        <ele>2085.51</ele>
        <time>2018-05-10T10:41:31Z</time>
      </trkpt>
      <trkpt lat="44.24737" lon="7.01938">
        <ele>2083.79</ele>
        <time>2018-05-10T10:41:35Z</time>
      </trkpt>
      <trkpt lat="44.24751" lon="7.01948">
        <ele>2078.62</ele>
        <time>2018-05-10T10:41:39Z</time>
      </trkpt>
      <trkpt lat="44.24762" lon="7.01949">
        <ele>2074.38</ele>
        <time>2018-05-10T10:41:42Z</time>
      </trkpt>
      <trkpt lat="44.24764" lon="7.01945">
        <ele>2071.33</ele>
        <time>2018-05-10T10:41:45Z</time>
      </trkpt>
      <trkpt lat="44.24762" lon="7.01941">
        <ele>2071.5</ele>
        <time>2018-05-10T10:42:17Z</time>
      </trkpt>
      <trkpt lat="44.24771" lon="7.0194">
        <ele>2071.68</ele>
        <time>2018-05-10T10:42:35Z</time>
      </trkpt>
      <trkpt lat="44.24792" lon="7.01947">
        <ele>2067.37</ele>
        <time>2018-05-10T10:42:40Z</time>
      </trkpt>
      <trkpt lat="44.24797" lon="7.01942">
        <ele>2064.16</ele>
        <time>2018-05-10T10:42:42Z</time>
      </trkpt>
      <trkpt lat="44.24806" lon="7.01946">
        <ele>2060.48</ele>
        <time>2018-05-10T10:42:45Z</time>
      </trkpt>
      <trkpt lat="44.24814" lon="7.01944">
        <ele>2056.07</ele>
        <time>2018-05-10T10:42:47Z</time>
      </trkpt>
      <trkpt lat="44.24818" lon="7.01935">
        <ele>2052.16</ele>
        <time>2018-05-10T10:42:50Z</time>
      </trkpt>
      <trkpt lat="44.24817" lon="7.01932">
        <ele>2050.53</ele>
        <time>2018-05-10T10:42:53Z</time>
      </trkpt>
      <trkpt lat="44.24813" lon="7.01933">
        <ele>2051.29</ele>
        <time>2018-05-10T10:43:08Z</time>
      </trkpt>
      <trkpt lat="44.24824" lon="7.01939">
        <ele>2048.2</ele>
        <time>2018-05-10T10:43:12Z</time>
      </trkpt>
      <trkpt lat="44.24834" lon="7.01946">
        <ele>2044.28</ele>
        <time>2018-05-10T10:43:14Z</time>
      </trkpt>
      <trkpt lat="44.24841" lon="7.01959">
        <ele>2038.03</ele>
        <time>2018-05-10T10:43:16Z</time>
      </trkpt>
      <trkpt lat="44.24852" lon="7.01965">
        <ele>2033.14</ele>
        <time>2018-05-10T10:43:18Z</time>
      </trkpt>
      <trkpt lat="44.24864" lon="7.01973">
        <ele>2027.25</ele>
        <time>2018-05-10T10:43:20Z</time>
      </trkpt>
      <trkpt lat="44.24875" lon="7.01984">
        <ele>2021.04</ele>
        <time>2018-05-10T10:43:22Z</time>
      </trkpt>
      <trkpt lat="44.24881" lon="7.0199">
        <ele>2017.37</ele>
        <time>2018-05-10T10:43:23Z</time>
      </trkpt>
      <trkpt lat="44.24889" lon="7.02007">
        <ele>2010.45</ele>
        <time>2018-05-10T10:43:25Z</time>
      </trkpt>
      <trkpt lat="44.24889" lon="7.02011">
        <ele>2007.32</ele>
        <time>2018-05-10T10:43:26Z</time>
      </trkpt>
      <trkpt lat="44.24883" lon="7.02015">
        <ele>2003.56</ele>
        <time>2018-05-10T10:43:29Z</time>
      </trkpt>
      <trkpt lat="44.24884" lon="7.02013">
        <ele>2002.21</ele>
        <time>2018-05-10T10:43:43Z</time>
      </trkpt>
      <trkpt lat="44.24878" lon="7.02013">
        <ele>2002.22</ele>
        <time>2018-05-10T10:44:13Z</time>
      </trkpt>
      <trkpt lat="44.24876" lon="7.02014">
        <ele>2003.05</ele>
        <time>2018-05-10T10:44:42Z</time>
      </trkpt>
      <trkpt lat="44.24871" lon="7.02013">
        <ele>2002.91</ele>
        <time>2018-05-10T10:45:05Z</time>
      </trkpt>
      <trkpt lat="44.24869" lon="7.02009">
        <ele>2002.64</ele>
        <time>2018-05-10T10:45:30Z</time>
      </trkpt>
      <trkpt lat="44.24865" lon="7.02013">
        <ele>2002.77</ele>
        <time>2018-05-10T10:45:45Z</time>
      </trkpt>
      <trkpt lat="44.24856" lon="7.02033">
        <ele>1999.08</ele>
        <time>2018-05-10T10:45:53Z</time>
      </trkpt>
      <trkpt lat="44.24856" lon="7.02034">
        <ele>1998.32</ele>
        <time>2018-05-10T10:45:55Z</time>
      </trkpt>
      <trkpt lat="44.24855" lon="7.02036">
        <ele>1998.14</ele>
        <time>2018-05-10T10:45:56Z</time>
      </trkpt>
      <trkpt lat="44.24868" lon="7.02065">
        <ele>1992.82</ele>
        <time>2018-05-10T10:46:01Z</time>
      </trkpt>
      <trkpt lat="44.24875" lon="7.02085">
        <ele>1987.25</ele>
        <time>2018-05-10T10:46:03Z</time>
      </trkpt>
      <trkpt lat="44.24881" lon="7.02104">
        <ele>1982.79</ele>
        <time>2018-05-10T10:46:05Z</time>
      </trkpt>
      <trkpt lat="44.24886" lon="7.02122">
        <ele>1978.43</ele>
        <time>2018-05-10T10:46:07Z</time>
      </trkpt>
      <trkpt lat="44.24889" lon="7.0213">
        <ele>1976.18</ele>
        <time>2018-05-10T10:46:08Z</time>
      </trkpt>
      <trkpt lat="44.24897" lon="7.02167">
        <ele>1969.21</ele>
        <time>2018-05-10T10:46:13Z</time>
      </trkpt>
      <trkpt lat="44.2491" lon="7.02203">
        <ele>1964.05</ele>
        <time>2018-05-10T10:46:18Z</time>
      </trkpt>
      <trkpt lat="44.24911" lon="7.02209">
        <ele>1963.48</ele>
        <time>2018-05-10T10:46:19Z</time>
      </trkpt>
      <trkpt lat="44.24915" lon="7.02228">
        <ele>1961.42</ele>
        <time>2018-05-10T10:46:22Z</time>
      </trkpt>
      <trkpt lat="44.24922" lon="7.02245">
        <ele>1959.39</ele>
        <time>2018-05-10T10:46:25Z</time>
      </trkpt>
      <trkpt lat="44.24929" lon="7.02272">
        <ele>1955.13</ele>
        <time>2018-05-10T10:46:31Z</time>
      </trkpt>
      <trkpt lat="44.24927" lon="7.02296">
        <ele>1952.77</ele>
        <time>2018-05-10T10:46:37Z</time>
      </trkpt>
      <trkpt lat="44.2493" lon="7.02317">
        <ele>1949.34</ele>
        <time>2018-05-10T10:46:41Z</time>
      </trkpt>
      <trkpt lat="44.24934" lon="7.02329">
        <ele>1947.19</ele>
        <time>2018-05-10T10:46:45Z</time>
      </trkpt>
      <trkpt lat="44.24942" lon="7.02346">
        <ele>1945.42</ele>
        <time>2018-05-10T10:46:55Z</time>
      </trkpt>
      <trkpt lat="44.2496" lon="7.02362">
        <ele>1943.3</ele>
        <time>2018-05-10T10:47:09Z</time>
      </trkpt>
      <trkpt lat="44.24979" lon="7.02374">
        <ele>1940.13</ele>
        <time>2018-05-10T10:47:16Z</time>
      </trkpt>
      <trkpt lat="44.24984" lon="7.02376">
        <ele>1939.32</ele>
        <time>2018-05-10T10:47:17Z</time>
      </trkpt>
      <trkpt lat="44.24994" lon="7.02384">
        <ele>1937.43</ele>
        <time>2018-05-10T10:47:21Z</time>
      </trkpt>
      <trkpt lat="44.25018" lon="7.024">
        <ele>1933.98</ele>
        <time>2018-05-10T10:47:29Z</time>
      </trkpt>
      <trkpt lat="44.25034" lon="7.02413">
        <ele>1930.69</ele>
        <time>2018-05-10T10:47:32Z</time>
      </trkpt>
      <trkpt lat="44.25049" lon="7.02432">
        <ele>1926.16</ele>
        <time>2018-05-10T10:47:37Z</time>
      </trkpt>
      <trkpt lat="44.25053" lon="7.02437">
        <ele>1925.45</ele>
        <time>2018-05-10T10:47:45Z</time>
      </trkpt>
      <trkpt lat="44.25061" lon="7.02445">
        <ele>1924.26</ele>
        <time>2018-05-10T10:47:48Z</time>
      </trkpt>
      <trkpt lat="44.25075" lon="7.02469">
        <ele>1920.25</ele>
        <time>2018-05-10T10:47:54Z</time>
      </trkpt>
      <trkpt lat="44.25088" lon="7.02502">
        <ele>1916.76</ele>
        <time>2018-05-10T10:48:02Z</time>
      </trkpt>
      <trkpt lat="44.25095" lon="7.02519">
        <ele>1913.57</ele>
        <time>2018-05-10T10:48:05Z</time>
      </trkpt>
      <trkpt lat="44.25104" lon="7.02542">
        <ele>1909.99</ele>
        <time>2018-05-10T10:48:09Z</time>
      </trkpt>
      <trkpt lat="44.25114" lon="7.02564">
        <ele>1905.78</ele>
        <time>2018-05-10T10:48:13Z</time>
      </trkpt>
      <trkpt lat="44.25122" lon="7.02586">
        <ele>1901.93</ele>
        <time>2018-05-10T10:48:17Z</time>
      </trkpt>
      <trkpt lat="44.25131" lon="7.02604">
        <ele>1898.89</ele>
        <time>2018-05-10T10:48:21Z</time>
      </trkpt>
      <trkpt lat="44.2514" lon="7.02624">
        <ele>1895.54</ele>
        <time>2018-05-10T10:48:25Z</time>
      </trkpt>
      <trkpt lat="44.25158" lon="7.0265">
        <ele>1890.56</ele>
        <time>2018-05-10T10:48:30Z</time>
      </trkpt>
      <trkpt lat="44.25174" lon="7.02668">
        <ele>1887.34</ele>
        <time>2018-05-10T10:48:35Z</time>
      </trkpt>
      <trkpt lat="44.25193" lon="7.02689">
        <ele>1883.51</ele>
        <time>2018-05-10T10:48:41Z</time>
      </trkpt>
      <trkpt lat="44.25196" lon="7.02694">
        <ele>1882.57</ele>
        <time>2018-05-10T10:48:43Z</time>
      </trkpt>
      <trkpt lat="44.25197" lon="7.02698">
        <ele>1881.68</ele>
        <time>2018-05-10T10:49:02Z</time>
      </trkpt>
      <trkpt lat="44.25197" lon="7.02698">
        <ele>1881.98</ele>
        <time>2018-05-10T10:49:19Z</time>
      </trkpt>
      <trkpt lat="44.25211" lon="7.02711">
        <ele>1879.84</ele>
        <time>2018-05-10T10:49:24Z</time>
      </trkpt>
      <trkpt lat="44.25225" lon="7.02733">
        <ele>1875.8</ele>
        <time>2018-05-10T10:49:29Z</time>
      </trkpt>
      <trkpt lat="44.25232" lon="7.02755">
        <ele>1874.43</ele>
        <time>2018-05-10T10:49:40Z</time>
      </trkpt>
      <trkpt lat="44.25239" lon="7.02793">
        <ele>1871.16</ele>
        <time>2018-05-10T10:49:49Z</time>
      </trkpt>
      <trkpt lat="44.25245" lon="7.02824">
        <ele>1867.63</ele>
        <time>2018-05-10T10:49:54Z</time>
      </trkpt>
      <trkpt lat="44.25252" lon="7.02856">
        <ele>1863.56</ele>
        <time>2018-05-10T10:49:58Z</time>
      </trkpt>
      <trkpt lat="44.25258" lon="7.02883">
        <ele>1859.35</ele>
        <time>2018-05-10T10:50:01Z</time>
      </trkpt>
      <trkpt lat="44.25263" lon="7.02902">
        <ele>1856.32</ele>
        <time>2018-05-10T10:50:04Z</time>
      </trkpt>
      <trkpt lat="44.2527" lon="7.02933">
        <ele>1852.95</ele>
        <time>2018-05-10T10:50:10Z</time>
      </trkpt>
      <trkpt lat="44.25284" lon="7.02962">
        <ele>1849.86</ele>
        <time>2018-05-10T10:50:17Z</time>
      </trkpt>
      <trkpt lat="44.2529" lon="7.02982">
        <ele>1846.73</ele>
        <time>2018-05-10T10:50:23Z</time>
      </trkpt>
      <trkpt lat="44.25292" lon="7.0298">
        <ele>1847.02</ele>
        <time>2018-05-10T10:50:41Z</time>
      </trkpt>
      <trkpt lat="44.25308" lon="7.03007">
        <ele>1842.77</ele>
        <time>2018-05-10T10:50:48Z</time>
      </trkpt>
      <trkpt lat="44.25323" lon="7.03033">
        <ele>1838.88</ele>
        <time>2018-05-10T10:50:52Z</time>
      </trkpt>
      <trkpt lat="44.25334" lon="7.0305">
        <ele>1835.96</ele>
        <time>2018-05-10T10:50:55Z</time>
      </trkpt>
      <trkpt lat="44.25341" lon="7.03065">
        <ele>1833.38</ele>
        <time>2018-05-10T10:51:03Z</time>
      </trkpt>
      <trkpt lat="44.25339" lon="7.03065">
        <ele>1833.38</ele>
        <time>2018-05-10T10:51:50Z</time>
      </trkpt>
      <trkpt lat="44.25338" lon="7.03065">
        <ele>1833.58</ele>
        <time>2018-05-10T10:52:15Z</time>
      </trkpt>
      <trkpt lat="44.25354" lon="7.03092">
        <ele>1829.99</ele>
        <time>2018-05-10T10:52:21Z</time>
      </trkpt>
      <trkpt lat="44.25366" lon="7.03113">
        <ele>1825.99</ele>
        <time>2018-05-10T10:52:24Z</time>
      </trkpt>
      <trkpt lat="44.25376" lon="7.03136">
        <ele>1823.01</ele>
        <time>2018-05-10T10:52:28Z</time>
      </trkpt>
      <trkpt lat="44.25389" lon="7.0316">
        <ele>1817.67</ele>
        <time>2018-05-10T10:52:32Z</time>
      </trkpt>
      <trkpt lat="44.25393" lon="7.03167">
        <ele>1816.08</ele>
        <time>2018-05-10T10:52:33Z</time>
      </trkpt>
      <trkpt lat="44.25398" lon="7.03186">
        <ele>1811.43</ele>
        <time>2018-05-10T10:52:36Z</time>
      </trkpt>
      <trkpt lat="44.25398" lon="7.03191">
        <ele>1810.64</ele>
        <time>2018-05-10T10:52:38Z</time>
      </trkpt>
      <trkpt lat="44.25399" lon="7.03191">
        <ele>1810.79</ele>
        <time>2018-05-10T10:52:53Z</time>
      </trkpt>
      <trkpt lat="44.254" lon="7.03192">
        <ele>1811</ele>
        <time>2018-05-10T10:53:30Z</time>
      </trkpt>
      <trkpt lat="44.25411" lon="7.03229">
        <ele>1807.94</ele>
        <time>2018-05-10T10:53:42Z</time>
      </trkpt>
      <trkpt lat="44.25417" lon="7.03252">
        <ele>1806.28</ele>
        <time>2018-05-10T10:53:52Z</time>
      </trkpt>
      <trkpt lat="44.2542" lon="7.03255">
        <ele>1805.91</ele>
        <time>2018-05-10T10:53:53Z</time>
      </trkpt>
      <trkpt lat="44.25437" lon="7.03258">
        <ele>1801.68</ele>
        <time>2018-05-10T10:53:56Z</time>
      </trkpt>
      <trkpt lat="44.2545" lon="7.03269">
        <ele>1795</ele>
        <time>2018-05-10T10:53:58Z</time>
      </trkpt>
      <trkpt lat="44.25452" lon="7.03277">
        <ele>1790.86</ele>
        <time>2018-05-10T10:54:00Z</time>
      </trkpt>
      <trkpt lat="44.25453" lon="7.03281">
        <ele>1789.97</ele>
        <time>2018-05-10T10:54:02Z</time>
      </trkpt>
      <trkpt lat="44.25454" lon="7.03284">
        <ele>1789.68</ele>
        <time>2018-05-10T10:54:04Z</time>
      </trkpt>
      <trkpt lat="44.25473" lon="7.03296">
        <ele>1784.35</ele>
        <time>2018-05-10T10:54:08Z</time>
      </trkpt>
      <trkpt lat="44.25483" lon="7.03307">
        <ele>1780.7</ele>
        <time>2018-05-10T10:54:10Z</time>
      </trkpt>
      <trkpt lat="44.25492" lon="7.03325">
        <ele>1776.04</ele>
        <time>2018-05-10T10:54:15Z</time>
      </trkpt>
      <trkpt lat="44.25486" lon="7.03328">
        <ele>1775.52</ele>
        <time>2018-05-10T10:54:29Z</time>
      </trkpt>
      <trkpt lat="44.25487" lon="7.03326">
        <ele>1775.31</ele>
        <time>2018-05-10T10:54:54Z</time>
      </trkpt>
      <trkpt lat="44.25488" lon="7.03326">
        <ele>1775.53</ele>
        <time>2018-05-10T10:54:56Z</time>
      </trkpt>
      <trkpt lat="44.25505" lon="7.03338">
        <ele>1772.59</ele>
        <time>2018-05-10T10:55:01Z</time>
      </trkpt>
      <trkpt lat="44.2552" lon="7.03347">
        <ele>1770.05</ele>
        <time>2018-05-10T10:55:04Z</time>
      </trkpt>
      <trkpt lat="44.25541" lon="7.03362">
        <ele>1765.32</ele>
        <time>2018-05-10T10:55:08Z</time>
      </trkpt>
      <trkpt lat="44.2555" lon="7.03375">
        <ele>1762.72</ele>
        <time>2018-05-10T10:55:10Z</time>
      </trkpt>
      <trkpt lat="44.25566" lon="7.03404">
        <ele>1758.28</ele>
        <time>2018-05-10T10:55:16Z</time>
      </trkpt>
      <trkpt lat="44.25575" lon="7.03422">
        <ele>1755.08</ele>
        <time>2018-05-10T10:55:21Z</time>
      </trkpt>
      <trkpt lat="44.25573" lon="7.03424">
        <ele>1754.62</ele>
        <time>2018-05-10T10:55:33Z</time>
      </trkpt>
      <trkpt lat="44.25573" lon="7.03429">
        <ele>1755.11</ele>
        <time>2018-05-10T10:55:52Z</time>
      </trkpt>
      <trkpt lat="44.25586" lon="7.03428">
        <ele>1751.63</ele>
        <time>2018-05-10T10:55:56Z</time>
      </trkpt>
      <trkpt lat="44.25597" lon="7.03422">
        <ele>1747.81</ele>
        <time>2018-05-10T10:55:58Z</time>
      </trkpt>
      <trkpt lat="44.25603" lon="7.0342">
        <ele>1745.56</ele>
        <time>2018-05-10T10:55:59Z</time>
      </trkpt>
      <trkpt lat="44.25617" lon="7.03416">
        <ele>1739.58</ele>
        <time>2018-05-10T10:56:01Z</time>
      </trkpt>
      <trkpt lat="44.25627" lon="7.03421">
        <ele>1733.26</ele>
        <time>2018-05-10T10:56:03Z</time>
      </trkpt>
      <trkpt lat="44.2563" lon="7.03425">
        <ele>1729.97</ele>
        <time>2018-05-10T10:56:04Z</time>
      </trkpt>
      <trkpt lat="44.25637" lon="7.03431">
        <ele>1726.08</ele>
        <time>2018-05-10T10:56:06Z</time>
      </trkpt>
      <trkpt lat="44.2564" lon="7.03436">
        <ele>1722.95</ele>
        <time>2018-05-10T10:56:08Z</time>
      </trkpt>
      <trkpt lat="44.25641" lon="7.03438">
        <ele>1722.15</ele>
        <time>2018-05-10T10:56:09Z</time>
      </trkpt>
      <trkpt lat="44.25647" lon="7.03451">
        <ele>1718.24</ele>
        <time>2018-05-10T10:56:15Z</time>
      </trkpt>
      <trkpt lat="44.25661" lon="7.03463">
        <ele>1714.59</ele>
        <time>2018-05-10T10:56:20Z</time>
      </trkpt>
      <trkpt lat="44.25662" lon="7.0347">
        <ele>1712.57</ele>
        <time>2018-05-10T10:56:23Z</time>
      </trkpt>
      <trkpt lat="44.25664" lon="7.03469">
        <ele>1712</ele>
        <time>2018-05-10T10:56:39Z</time>
      </trkpt>
      <trkpt lat="44.25657" lon="7.03481">
        <ele>1712.92</ele>
        <time>2018-05-10T10:56:57Z</time>
      </trkpt>
      <trkpt lat="44.25657" lon="7.03488">
        <ele>1713.44</ele>
        <time>2018-05-10T10:57:12Z</time>
      </trkpt>
      <trkpt lat="44.25655" lon="7.03495">
        <ele>1713.35</ele>
        <time>2018-05-10T10:57:26Z</time>
      </trkpt>
      <trkpt lat="44.25651" lon="7.03507">
        <ele>1713.54</ele>
        <time>2018-05-10T10:57:42Z</time>
      </trkpt>
      <trkpt lat="44.25654" lon="7.03526">
        <ele>1713.45</ele>
        <time>2018-05-10T10:57:56Z</time>
      </trkpt>
      <trkpt lat="44.25657" lon="7.03526">
        <ele>1713.15</ele>
        <time>2018-05-10T10:58:19Z</time>
      </trkpt>
      <trkpt lat="44.25657" lon="7.03532">
        <ele>1713.03</ele>
        <time>2018-05-10T10:58:26Z</time>
      </trkpt>
      <trkpt lat="44.25658" lon="7.03535">
        <ele>1711.53</ele>
        <time>2018-05-10T10:58:30Z</time>
      </trkpt>
      <trkpt lat="44.25656" lon="7.03539">
        <ele>1712.02</ele>
        <time>2018-05-10T10:58:37Z</time>
      </trkpt>
      <trkpt lat="44.25655" lon="7.03548">
        <ele>1711.48</ele>
        <time>2018-05-10T10:58:41Z</time>
      </trkpt>
      <trkpt lat="44.25657" lon="7.03576">
        <ele>1710.07</ele>
        <time>2018-05-10T10:58:50Z</time>
      </trkpt>
      <trkpt lat="44.2566" lon="7.03598">
        <ele>1708.29</ele>
        <time>2018-05-10T10:58:59Z</time>
      </trkpt>
      <trkpt lat="44.25661" lon="7.03603">
        <ele>1708.51</ele>
        <time>2018-05-10T10:59:22Z</time>
      </trkpt>
      <trkpt lat="44.25663" lon="7.03609">
        <ele>1707.8</ele>
        <time>2018-05-10T10:59:43Z</time>
      </trkpt>
      <trkpt lat="44.25658" lon="7.03625">
        <ele>1708.11</ele>
        <time>2018-05-10T11:00:02Z</time>
      </trkpt>
      <trkpt lat="44.25657" lon="7.03625">
        <ele>1708.78</ele>
        <time>2018-05-10T11:00:21Z</time>
      </trkpt>
      <trkpt lat="44.25657" lon="7.03635">
        <ele>1708.74</ele>
        <time>2018-05-10T11:00:38Z</time>
      </trkpt>
      <trkpt lat="44.25661" lon="7.03649">
        <ele>1707.12</ele>
        <time>2018-05-10T11:00:40Z</time>
      </trkpt>
      <trkpt lat="44.25661" lon="7.03674">
        <ele>1703.04</ele>
        <time>2018-05-10T11:00:44Z</time>
      </trkpt>
      <trkpt lat="44.25664" lon="7.03683">
        <ele>1702.58</ele>
        <time>2018-05-10T11:00:46Z</time>
      </trkpt>
      <trkpt lat="44.25673" lon="7.03698">
        <ele>1700.96</ele>
        <time>2018-05-10T11:00:49Z</time>
      </trkpt>
      <trkpt lat="44.2569" lon="7.0371">
        <ele>1696.75</ele>
        <time>2018-05-10T11:00:53Z</time>
      </trkpt>
      <trkpt lat="44.25691" lon="7.03715">
        <ele>1695.72</ele>
        <time>2018-05-10T11:00:55Z</time>
      </trkpt>
      <trkpt lat="44.25689" lon="7.03718">
        <ele>1695.63</ele>
        <time>2018-05-10T11:01:15Z</time>
      </trkpt>
      <trkpt lat="44.25687" lon="7.03721">
        <ele>1696.03</ele>
        <time>2018-05-10T11:01:39Z</time>
      </trkpt>
      <trkpt lat="44.25693" lon="7.03731">
        <ele>1694.09</ele>
        <time>2018-05-10T11:01:57Z</time>
      </trkpt>
      <trkpt lat="44.25699" lon="7.03739">
        <ele>1693.44</ele>
        <time>2018-05-10T11:02:15Z</time>
      </trkpt>
      <trkpt lat="44.25707" lon="7.03748">
        <ele>1692.44</ele>
        <time>2018-05-10T11:02:33Z</time>
      </trkpt>
      <trkpt lat="44.25712" lon="7.03754">
        <ele>1691.51</ele>
        <time>2018-05-10T11:02:50Z</time>
      </trkpt>
      <trkpt lat="44.25709" lon="7.03753">
        <ele>1691.51</ele>
        <time>2018-05-10T11:03:16Z</time>
      </trkpt>
      <trkpt lat="44.2571" lon="7.03766">
        <ele>1690.74</ele>
        <time>2018-05-10T11:03:37Z</time>
      </trkpt>
      <trkpt lat="44.2572" lon="7.03788">
        <ele>1687.71</ele>
        <time>2018-05-10T11:03:43Z</time>
      </trkpt>
      <trkpt lat="44.25722" lon="7.03792">
        <ele>1687.2</ele>
        <time>2018-05-10T11:03:44Z</time>
      </trkpt>
      <trkpt lat="44.25735" lon="7.0381">
        <ele>1683.19</ele>
        <time>2018-05-10T11:03:48Z</time>
      </trkpt>
      <trkpt lat="44.25743" lon="7.03835">
        <ele>1679.5</ele>
        <time>2018-05-10T11:03:52Z</time>
      </trkpt>
      <trkpt lat="44.25747" lon="7.03845">
        <ele>1678.3</ele>
        <time>2018-05-10T11:03:55Z</time>
      </trkpt>
      <trkpt lat="44.25746" lon="7.03851">
        <ele>1677.19</ele>
        <time>2018-05-10T11:04:06Z</time>
      </trkpt>
      <trkpt lat="44.2575" lon="7.03849">
        <ele>1677.09</ele>
        <time>2018-05-10T11:04:18Z</time>
      </trkpt>
      <trkpt lat="44.25756" lon="7.03852">
        <ele>1673.76</ele>
        <time>2018-05-10T11:04:24Z</time>
      </trkpt>
      <trkpt lat="44.25757" lon="7.03852">
        <ele>1673.46</ele>
        <time>2018-05-10T11:04:25Z</time>
      </trkpt>
      <trkpt lat="44.25762" lon="7.03859">
        <ele>1672.43</ele>
        <time>2018-05-10T11:04:47Z</time>
      </trkpt>
      <trkpt lat="44.25767" lon="7.0387">
        <ele>1671.76</ele>
        <time>2018-05-10T11:05:07Z</time>
      </trkpt>
      <trkpt lat="44.25769" lon="7.03878">
        <ele>1671.13</ele>
        <time>2018-05-10T11:05:22Z</time>
      </trkpt>
      <trkpt lat="44.2577" lon="7.0389">
        <ele>1670.01</ele>
        <time>2018-05-10T11:05:29Z</time>
      </trkpt>
      <trkpt lat="44.25772" lon="7.03896">
        <ele>1669.03</ele>
        <time>2018-05-10T11:05:41Z</time>
      </trkpt>
      <trkpt lat="44.25774" lon="7.03905">
        <ele>1668.78</ele>
        <time>2018-05-10T11:06:00Z</time>
      </trkpt>
      <trkpt lat="44.25777" lon="7.03911">
        <ele>1668.25</ele>
        <time>2018-05-10T11:06:20Z</time>
      </trkpt>
      <trkpt lat="44.25777" lon="7.03912">
        <ele>1668.39</ele>
        <time>2018-05-10T11:06:29Z</time>
      </trkpt>
      <trkpt lat="44.25782" lon="7.03928">
        <ele>1667.3</ele>
        <time>2018-05-10T11:06:34Z</time>
      </trkpt>
      <trkpt lat="44.25789" lon="7.03954">
        <ele>1664.26</ele>
        <time>2018-05-10T11:06:38Z</time>
      </trkpt>
      <trkpt lat="44.25794" lon="7.03966">
        <ele>1662.72</ele>
        <time>2018-05-10T11:06:40Z</time>
      </trkpt>
      <trkpt lat="44.25799" lon="7.03986">
        <ele>1660.24</ele>
        <time>2018-05-10T11:06:43Z</time>
      </trkpt>
      <trkpt lat="44.2581" lon="7.04011">
        <ele>1656.72</ele>
        <time>2018-05-10T11:06:47Z</time>
      </trkpt>
      <trkpt lat="44.25821" lon="7.04039">
        <ele>1652.54</ele>
        <time>2018-05-10T11:06:52Z</time>
      </trkpt>
      <trkpt lat="44.25826" lon="7.04062">
        <ele>1649.54</ele>
        <time>2018-05-10T11:06:56Z</time>
      </trkpt>
      <trkpt lat="44.25829" lon="7.04065">
        <ele>1648.34</ele>
        <time>2018-05-10T11:07:09Z</time>
      </trkpt>
      <trkpt lat="44.25829" lon="7.04068">
        <ele>1647.45</ele>
        <time>2018-05-10T11:07:17Z</time>
      </trkpt>
      <trkpt lat="44.2583" lon="7.0408">
        <ele>1646.9</ele>
        <time>2018-05-10T11:07:21Z</time>
      </trkpt>
      <trkpt lat="44.25832" lon="7.04114">
        <ele>1643.05</ele>
        <time>2018-05-10T11:07:28Z</time>
      </trkpt>
      <trkpt lat="44.25836" lon="7.04131">
        <ele>1640.54</ele>
        <time>2018-05-10T11:07:38Z</time>
      </trkpt>
      <trkpt lat="44.25849" lon="7.04152">
        <ele>1637.1</ele>
        <time>2018-05-10T11:07:46Z</time>
      </trkpt>
      <trkpt lat="44.25849" lon="7.04153">
        <ele>1636.88</ele>
        <time>2018-05-10T11:07:47Z</time>
      </trkpt>
      <trkpt lat="44.25845" lon="7.04157">
        <ele>1636.74</ele>
        <time>2018-05-10T11:08:12Z</time>
      </trkpt>
      <trkpt lat="44.25846" lon="7.04161">
        <ele>1636.28</ele>
        <time>2018-05-10T11:08:18Z</time>
      </trkpt>
      <trkpt lat="44.25847" lon="7.04169">
        <ele>1636.08</ele>
        <time>2018-05-10T11:08:28Z</time>
      </trkpt>
      <trkpt lat="44.2585" lon="7.04176">
        <ele>1636.13</ele>
        <time>2018-05-10T11:08:42Z</time>
      </trkpt>
      <trkpt lat="44.25851" lon="7.04189">
        <ele>1635.93</ele>
        <time>2018-05-10T11:08:53Z</time>
      </trkpt>
      <trkpt lat="44.2585" lon="7.04195">
        <ele>1636.39</ele>
        <time>2018-05-10T11:09:09Z</time>
      </trkpt>
      <trkpt lat="44.25849" lon="7.042">
        <ele>1636.61</ele>
        <time>2018-05-10T11:09:26Z</time>
      </trkpt>
      <trkpt lat="44.25849" lon="7.04201">
        <ele>1636.19</ele>
        <time>2018-05-10T11:09:48Z</time>
      </trkpt>
      <trkpt lat="44.2585" lon="7.042">
        <ele>1635.95</ele>
        <time>2018-05-10T11:10:11Z</time>
      </trkpt>
      <trkpt lat="44.25849" lon="7.042">
        <ele>1636.22</ele>
        <time>2018-05-10T11:10:41Z</time>
      </trkpt>
      <trkpt lat="44.2585" lon="7.04204">
        <ele>1636.17</ele>
        <time>2018-05-10T11:10:49Z</time>
      </trkpt>
      <trkpt lat="44.25853" lon="7.04213">
        <ele>1636.03</ele>
        <time>2018-05-10T11:10:54Z</time>
      </trkpt>
      <trkpt lat="44.25855" lon="7.04219">
        <ele>1635.26</ele>
        <time>2018-05-10T11:10:58Z</time>
      </trkpt>
      <trkpt lat="44.25859" lon="7.04227">
        <ele>1634.45</ele>
        <time>2018-05-10T11:11:03Z</time>
      </trkpt>
      <trkpt lat="44.25863" lon="7.04229">
        <ele>1633.96</ele>
        <time>2018-05-10T11:11:07Z</time>
      </trkpt>
      <trkpt lat="44.25879" lon="7.04224">
        <ele>1634.21</ele>
        <time>2018-05-10T11:11:23Z</time>
      </trkpt>
      <trkpt lat="44.25892" lon="7.04227">
        <ele>1634.5</ele>
        <time>2018-05-10T11:11:40Z</time>
      </trkpt>
      <trkpt lat="44.25905" lon="7.04248">
        <ele>1635.55</ele>
        <time>2018-05-10T11:12:04Z</time>
      </trkpt>
      <trkpt lat="44.25916" lon="7.0426">
        <ele>1636.47</ele>
        <time>2018-05-10T11:12:20Z</time>
      </trkpt>
      <trkpt lat="44.25933" lon="7.04279">
        <ele>1636.81</ele>
        <time>2018-05-10T11:12:42Z</time>
      </trkpt>
      <trkpt lat="44.25958" lon="7.04299">
        <ele>1638.1</ele>
        <time>2018-05-10T11:13:10Z</time>
      </trkpt>
      <trkpt lat="44.2598" lon="7.04317">
        <ele>1638.81</ele>
        <time>2018-05-10T11:13:34Z</time>
      </trkpt>
      <trkpt lat="44.26" lon="7.0434">
        <ele>1639.3</ele>
        <time>2018-05-10T11:13:57Z</time>
      </trkpt>
      <trkpt lat="44.26021" lon="7.04361">
        <ele>1640.35</ele>
        <time>2018-05-10T11:14:22Z</time>
      </trkpt>
      <trkpt lat="44.26046" lon="7.0438">
        <ele>1640.76</ele>
        <time>2018-05-10T11:14:47Z</time>
      </trkpt>
      <trkpt lat="44.26068" lon="7.04399">
        <ele>1641.56</ele>
        <time>2018-05-10T11:15:11Z</time>
      </trkpt>
      <trkpt lat="44.26079" lon="7.04417">
        <ele>1642.17</ele>
        <time>2018-05-10T11:15:33Z</time>
      </trkpt>
      <trkpt lat="44.2608" lon="7.0442">
        <ele>1642.34</ele>
        <time>2018-05-10T11:15:35Z</time>
      </trkpt>
      <trkpt lat="44.26092" lon="7.04445">
        <ele>1643.81</ele>
        <time>2018-05-10T11:15:59Z</time>
      </trkpt>
      <trkpt lat="44.26096" lon="7.04431">
        <ele>1646.87</ele>
        <time>2018-05-10T11:16:17Z</time>
      </trkpt>
      <trkpt lat="44.26095" lon="7.04424">
        <ele>1647.92</ele>
        <time>2018-05-10T11:16:28Z</time>
      </trkpt>
      <trkpt lat="44.26091" lon="7.04411">
        <ele>1648.51</ele>
        <time>2018-05-10T11:16:50Z</time>
      </trkpt>
      <trkpt lat="44.26099" lon="7.04414">
        <ele>1647.89</ele>
        <time>2018-05-10T11:16:56Z</time>
      </trkpt>
      <trkpt lat="44.261" lon="7.04417">
        <ele>1648.29</ele>
        <time>2018-05-10T11:16:59Z</time>
      </trkpt>
      <trkpt lat="44.2611" lon="7.0442">
        <ele>1647.58</ele>
        <time>2018-05-10T11:17:19Z</time>
      </trkpt>
      <trkpt lat="44.26112" lon="7.04423">
        <ele>1647.55</ele>
        <time>2018-05-10T11:17:23Z</time>
      </trkpt>
      <trkpt lat="44.261" lon="7.04419">
        <ele>1647.57</ele>
        <time>2018-05-10T11:17:38Z</time>
      </trkpt>
      <trkpt lat="44.26091" lon="7.04409">
        <ele>1647.65</ele>
        <time>2018-05-10T11:17:54Z</time>
      </trkpt>
      <trkpt lat="44.26091" lon="7.04409">
        <ele>1647.73</ele>
        <time>2018-05-10T11:17:58Z</time>
      </trkpt>
      <trkpt lat="44.26089" lon="7.04411">
        <ele>1647.8</ele>
        <time>2018-05-10T11:18:02Z</time>
      </trkpt>
      <trkpt lat="44.26084" lon="7.04413">
        <ele>1647.44</ele>
        <time>2018-05-10T11:18:10Z</time>
      </trkpt>
      <trkpt lat="44.26078" lon="7.04414">
        <ele>1647.36</ele>
        <time>2018-05-10T11:18:19Z</time>
      </trkpt>
      <trkpt lat="44.26074" lon="7.04418">
        <ele>1647.59</ele>
        <time>2018-05-10T11:18:25Z</time>
      </trkpt>
      <trkpt lat="44.26063" lon="7.04406">
        <ele>1647.35</ele>
        <time>2018-05-10T11:19:02Z</time>
      </trkpt>
      <trkpt lat="44.26069" lon="7.04407">
        <ele>1647.54</ele>
        <time>2018-05-10T11:19:12Z</time>
      </trkpt>
      <trkpt lat="44.26088" lon="7.04417">
        <ele>1647.35</ele>
        <time>2018-05-10T11:19:34Z</time>
      </trkpt>
      <trkpt lat="44.26085" lon="7.04416">
        <ele>1646.96</ele>
        <time>2018-05-10T11:19:46Z</time>
      </trkpt>
      <trkpt lat="44.26083" lon="7.04418">
        <ele>1647.04</ele>
        <time>2018-05-10T11:20:06Z</time>
      </trkpt>
      <trkpt lat="44.26087" lon="7.04413">
        <ele>1647.14</ele>
        <time>2018-05-10T11:20:35Z</time>
      </trkpt>
      <trkpt lat="44.26094" lon="7.0442">
        <ele>1646.67</ele>
        <time>2018-05-10T11:20:49Z</time>
      </trkpt>
      <trkpt lat="44.26093" lon="7.04423">
        <ele>1647.16</ele>
        <time>2018-05-10T11:21:20Z</time>
      </trkpt>
      <trkpt lat="44.26098" lon="7.04421">
        <ele>1646.72</ele>
        <time>2018-05-10T11:21:51Z</time>
      </trkpt>
      <trkpt lat="44.26099" lon="7.0442">
        <ele>1646.8</ele>
        <time>2018-05-10T11:22:19Z</time>
      </trkpt>
      <trkpt lat="44.26091" lon="7.04419">
        <ele>1646.92</ele>
        <time>2018-05-10T11:22:50Z</time>
      </trkpt>
      <trkpt lat="44.26088" lon="7.04416">
        <ele>1646.95</ele>
        <time>2018-05-10T11:23:15Z</time>
      </trkpt>
      <trkpt lat="44.2609" lon="7.04418">
        <ele>1646.74</ele>
        <time>2018-05-10T11:23:43Z</time>
      </trkpt>
      <trkpt lat="44.26089" lon="7.04422">
        <ele>1647</ele>
        <time>2018-05-10T11:24:12Z</time>
      </trkpt>
      <trkpt lat="44.26093" lon="7.04421">
        <ele>1647.15</ele>
        <time>2018-05-10T11:24:33Z</time>
      </trkpt>
    </trkseg>
  </trk>
</gpx>